<?xml version="1.0" encoding="UTF-8" standalone="no" ?>
<gpx xmlns="http://www.topografix.com/GPX/1/1" xmlns:xsi="http://www.w3.org/2001/XMLSchema-instance" xsi:schemaLocation="http://www.topografix.com/GPX/1/1 http://www.topografix.com/GPX/1/1/gpx.xsd" version="1.1" creator="VisuGPX - https://www.visugpx.com">
  <metadata>
    <name>Le Monal</name>
    <desc><![CDATA[Rando raquettes jusqu%u2019au village classé du Monal, effectuée le 14 mars 2014]]></desc>
  </metadata>
  <trk>
    <name><![CDATA[14/03/2014 9:46]]></name>
    <desc><![CDATA[]]></desc>
    <trkseg>
      <trkpt lat="45.53694" lon="6.91359">
        <ele>1494</ele>
        <time>2014-03-14T08:46:50.282Z</time>
      </trkpt>
      <trkpt lat="45.53702" lon="6.91356">
        <ele>1495</ele>
        <time>2014-03-14T08:47:22.165Z</time>
      </trkpt>
      <trkpt lat="45.53712" lon="6.91367">
        <ele>1499</ele>
        <time>2014-03-14T08:47:23.163Z</time>
      </trkpt>
      <trkpt lat="45.53708" lon="6.91362">
        <ele>1497</ele>
        <time>2014-03-14T08:47:24.185Z</time>
      </trkpt>
      <trkpt lat="45.53705" lon="6.91355">
        <ele>1496</ele>
        <time>2014-03-14T08:47:25.175Z</time>
      </trkpt>
      <trkpt lat="45.5371" lon="6.91352">
        <ele>1497</ele>
        <time>2014-03-14T08:47:26.173Z</time>
      </trkpt>
      <trkpt lat="45.53715" lon="6.91348">
        <ele>1498</ele>
        <time>2014-03-14T08:47:27.168Z</time>
      </trkpt>
      <trkpt lat="45.53719" lon="6.91336">
        <ele>1498</ele>
        <time>2014-03-14T08:47:37.162Z</time>
      </trkpt>
      <trkpt lat="45.53719" lon="6.91336">
        <ele>1498</ele>
        <time>2014-03-14T08:47:38.160Z</time>
      </trkpt>
      <trkpt lat="45.53725" lon="6.91328">
        <ele>1487</ele>
        <time>2014-03-14T08:47:52.174Z</time>
      </trkpt>
      <trkpt lat="45.53726" lon="6.91326">
        <ele>1487</ele>
        <time>2014-03-14T08:47:53.164Z</time>
      </trkpt>
      <trkpt lat="45.53732" lon="6.91318">
        <ele>1488</ele>
        <time>2014-03-14T08:47:56.222Z</time>
      </trkpt>
      <trkpt lat="45.53734" lon="6.91316">
        <ele>1488</ele>
        <time>2014-03-14T08:47:57.185Z</time>
      </trkpt>
      <trkpt lat="45.53737" lon="6.91304">
        <ele>1485</ele>
        <time>2014-03-14T08:48:01.163Z</time>
      </trkpt>
      <trkpt lat="45.53738" lon="6.91301">
        <ele>1485</ele>
        <time>2014-03-14T08:48:02.240Z</time>
      </trkpt>
      <trkpt lat="45.53742" lon="6.9129">
        <ele>1483</ele>
        <time>2014-03-14T08:48:08.159Z</time>
      </trkpt>
      <trkpt lat="45.53742" lon="6.91289">
        <ele>1483</ele>
        <time>2014-03-14T08:48:09.162Z</time>
      </trkpt>
      <trkpt lat="45.53748" lon="6.91281">
        <ele>1482</ele>
        <time>2014-03-14T08:48:17.195Z</time>
      </trkpt>
      <trkpt lat="45.53749" lon="6.9128">
        <ele>1482</ele>
        <time>2014-03-14T08:48:18.188Z</time>
      </trkpt>
      <trkpt lat="45.53753" lon="6.91272">
        <ele>1498</ele>
        <time>2014-03-14T08:48:27.327Z</time>
      </trkpt>
      <trkpt lat="45.53755" lon="6.91271">
        <ele>1499</ele>
        <time>2014-03-14T08:48:28.228Z</time>
      </trkpt>
      <trkpt lat="45.53763" lon="6.91272">
        <ele>1500</ele>
        <time>2014-03-14T08:48:31.203Z</time>
      </trkpt>
      <trkpt lat="45.53766" lon="6.91272">
        <ele>1501</ele>
        <time>2014-03-14T08:48:32.267Z</time>
      </trkpt>
      <trkpt lat="45.53758" lon="6.91279">
        <ele>1501</ele>
        <time>2014-03-14T08:48:43.220Z</time>
      </trkpt>
      <trkpt lat="45.53757" lon="6.91278">
        <ele>1501</ele>
        <time>2014-03-14T08:48:44.192Z</time>
      </trkpt>
      <trkpt lat="45.5376" lon="6.91282">
        <ele>1503</ele>
        <time>2014-03-14T08:48:58.250Z</time>
      </trkpt>
      <trkpt lat="45.53727" lon="6.91297">
        <ele>1482</ele>
        <time>2014-03-14T08:48:59.212Z</time>
      </trkpt>
      <trkpt lat="45.53745" lon="6.91286">
        <ele>1483</ele>
        <time>2014-03-14T08:49:00.193Z</time>
      </trkpt>
      <trkpt lat="45.5375" lon="6.91288">
        <ele>1483</ele>
        <time>2014-03-14T08:49:07.167Z</time>
      </trkpt>
      <trkpt lat="45.53752" lon="6.91294">
        <ele>1504</ele>
        <time>2014-03-14T08:49:08.241Z</time>
      </trkpt>
      <trkpt lat="45.53754" lon="6.91283">
        <ele>1502</ele>
        <time>2014-03-14T08:49:10.217Z</time>
      </trkpt>
      <trkpt lat="45.53754" lon="6.91279">
        <ele>1501</ele>
        <time>2014-03-14T08:49:11.241Z</time>
      </trkpt>
      <trkpt lat="45.5375" lon="6.91275">
        <ele>1482</ele>
        <time>2014-03-14T08:49:13.175Z</time>
      </trkpt>
      <trkpt lat="45.53746" lon="6.91307">
        <ele>1488</ele>
        <time>2014-03-14T08:49:14.175Z</time>
      </trkpt>
      <trkpt lat="45.53742" lon="6.91319">
        <ele>1491</ele>
        <time>2014-03-14T08:49:26.190Z</time>
      </trkpt>
      <trkpt lat="45.5374" lon="6.91317">
        <ele>1490</ele>
        <time>2014-03-14T08:49:27.192Z</time>
      </trkpt>
      <trkpt lat="45.53735" lon="6.91325">
        <ele>1491</ele>
        <time>2014-03-14T08:49:40.190Z</time>
      </trkpt>
      <trkpt lat="45.53733" lon="6.91328">
        <ele>1491</ele>
        <time>2014-03-14T08:49:41.247Z</time>
      </trkpt>
      <trkpt lat="45.53729" lon="6.91332">
        <ele>1489</ele>
        <time>2014-03-14T08:49:42.245Z</time>
      </trkpt>
      <trkpt lat="45.53726" lon="6.91336">
        <ele>1499</ele>
        <time>2014-03-14T08:49:43.180Z</time>
      </trkpt>
      <trkpt lat="45.53725" lon="6.91346">
        <ele>1499</ele>
        <time>2014-03-14T08:49:45.210Z</time>
      </trkpt>
      <trkpt lat="45.53727" lon="6.91351">
        <ele>1500</ele>
        <time>2014-03-14T08:49:46.201Z</time>
      </trkpt>
      <trkpt lat="45.53725" lon="6.91362">
        <ele>1500</ele>
        <time>2014-03-14T08:49:49.260Z</time>
      </trkpt>
      <trkpt lat="45.53724" lon="6.91363">
        <ele>1500</ele>
        <time>2014-03-14T08:49:50.220Z</time>
      </trkpt>
      <trkpt lat="45.53719" lon="6.91369">
        <ele>1500</ele>
        <time>2014-03-14T08:50:06.185Z</time>
      </trkpt>
      <trkpt lat="45.53716" lon="6.91373">
        <ele>1500</ele>
        <time>2014-03-14T08:50:07.210Z</time>
      </trkpt>
      <trkpt lat="45.53714" lon="6.91383">
        <ele>1501</ele>
        <time>2014-03-14T08:50:19.200Z</time>
      </trkpt>
      <trkpt lat="45.53712" lon="6.91386">
        <ele>1501</ele>
        <time>2014-03-14T08:50:20.235Z</time>
      </trkpt>
      <trkpt lat="45.53706" lon="6.91393">
        <ele>1500</ele>
        <time>2014-03-14T08:50:22.186Z</time>
      </trkpt>
      <trkpt lat="45.53704" lon="6.91396">
        <ele>1500</ele>
        <time>2014-03-14T08:50:23.230Z</time>
      </trkpt>
      <trkpt lat="45.53701" lon="6.91404">
        <ele>1500</ele>
        <time>2014-03-14T08:50:32.187Z</time>
      </trkpt>
      <trkpt lat="45.537" lon="6.91408">
        <ele>1500</ele>
        <time>2014-03-14T08:50:33.195Z</time>
      </trkpt>
      <trkpt lat="45.53699" lon="6.9142">
        <ele>1516</ele>
        <time>2014-03-14T08:50:41.219Z</time>
      </trkpt>
      <trkpt lat="45.53697" lon="6.9142">
        <ele>1516</ele>
        <time>2014-03-14T08:50:42.199Z</time>
      </trkpt>
      <trkpt lat="45.53701" lon="6.91428">
        <ele>1518</ele>
        <time>2014-03-14T08:50:49.180Z</time>
      </trkpt>
      <trkpt lat="45.53705" lon="6.91428">
        <ele>1520</ele>
        <time>2014-03-14T08:50:50.185Z</time>
      </trkpt>
      <trkpt lat="45.5371" lon="6.91427">
        <ele>1521</ele>
        <time>2014-03-14T08:50:51.172Z</time>
      </trkpt>
      <trkpt lat="45.53731" lon="6.91413">
        <ele>1512</ele>
        <time>2014-03-14T08:50:52.320Z</time>
      </trkpt>
      <trkpt lat="45.53738" lon="6.91405">
        <ele>1513</ele>
        <time>2014-03-14T08:50:57.179Z</time>
      </trkpt>
      <trkpt lat="45.53741" lon="6.91404">
        <ele>1514</ele>
        <time>2014-03-14T08:50:58.218Z</time>
      </trkpt>
      <trkpt lat="45.53747" lon="6.91396">
        <ele>1511</ele>
        <time>2014-03-14T08:51:02.218Z</time>
      </trkpt>
      <trkpt lat="45.53748" lon="6.91394">
        <ele>1511</ele>
        <time>2014-03-14T08:51:03.175Z</time>
      </trkpt>
      <trkpt lat="45.53744" lon="6.91393">
        <ele>1510</ele>
        <time>2014-03-14T08:51:06.276Z</time>
      </trkpt>
      <trkpt lat="45.5372" lon="6.91402">
        <ele>1506</ele>
        <time>2014-03-14T08:51:07.203Z</time>
      </trkpt>
      <trkpt lat="45.53714" lon="6.91407">
        <ele>1504</ele>
        <time>2014-03-14T08:51:09.225Z</time>
      </trkpt>
      <trkpt lat="45.53711" lon="6.91409">
        <ele>1503</ele>
        <time>2014-03-14T08:51:10.179Z</time>
      </trkpt>
      <trkpt lat="45.53709" lon="6.91415">
        <ele>1503</ele>
        <time>2014-03-14T08:51:12.178Z</time>
      </trkpt>
      <trkpt lat="45.53726" lon="6.91412">
        <ele>1509</ele>
        <time>2014-03-14T08:51:13.198Z</time>
      </trkpt>
      <trkpt lat="45.53731" lon="6.91408">
        <ele>1511</ele>
        <time>2014-03-14T08:51:15.183Z</time>
      </trkpt>
      <trkpt lat="45.53734" lon="6.91405">
        <ele>1511</ele>
        <time>2014-03-14T08:51:16.182Z</time>
      </trkpt>
      <trkpt lat="45.53726" lon="6.91406">
        <ele>1508</ele>
        <time>2014-03-14T08:51:22.281Z</time>
      </trkpt>
      <trkpt lat="45.53723" lon="6.91403">
        <ele>1507</ele>
        <time>2014-03-14T08:51:23.157Z</time>
      </trkpt>
      <trkpt lat="45.53723" lon="6.91401">
        <ele>1506</ele>
        <time>2014-03-14T08:51:24.157Z</time>
      </trkpt>
      <trkpt lat="45.53742" lon="6.9141">
        <ele>1517</ele>
        <time>2014-03-14T08:51:28.176Z</time>
      </trkpt>
      <trkpt lat="45.53737" lon="6.91391">
        <ele>1508</ele>
        <time>2014-03-14T08:51:29.177Z</time>
      </trkpt>
      <trkpt lat="45.53731" lon="6.91383">
        <ele>1505</ele>
        <time>2014-03-14T08:51:32.181Z</time>
      </trkpt>
      <trkpt lat="45.5373" lon="6.91379">
        <ele>1503</ele>
        <time>2014-03-14T08:51:33.185Z</time>
      </trkpt>
      <trkpt lat="45.53735" lon="6.91373">
        <ele>1503</ele>
        <time>2014-03-14T08:51:42.206Z</time>
      </trkpt>
      <trkpt lat="45.53737" lon="6.91372">
        <ele>1503</ele>
        <time>2014-03-14T08:51:43.179Z</time>
      </trkpt>
      <trkpt lat="45.53744" lon="6.91364">
        <ele>1503</ele>
        <time>2014-03-14T08:51:46.177Z</time>
      </trkpt>
      <trkpt lat="45.53745" lon="6.91362">
        <ele>1503</ele>
        <time>2014-03-14T08:51:47.214Z</time>
      </trkpt>
      <trkpt lat="45.53752" lon="6.9136">
        <ele>1521</ele>
        <time>2014-03-14T08:52:29.214Z</time>
      </trkpt>
      <trkpt lat="45.53755" lon="6.91356">
        <ele>1521</ele>
        <time>2014-03-14T08:52:30.250Z</time>
      </trkpt>
      <trkpt lat="45.53762" lon="6.91348">
        <ele>1519</ele>
        <time>2014-03-14T08:52:31.201Z</time>
      </trkpt>
      <trkpt lat="45.53767" lon="6.91344">
        <ele>1519</ele>
        <time>2014-03-14T08:52:32.260Z</time>
      </trkpt>
      <trkpt lat="45.53771" lon="6.91341">
        <ele>1520</ele>
        <time>2014-03-14T08:52:33.232Z</time>
      </trkpt>
      <trkpt lat="45.53779" lon="6.91335">
        <ele>1523</ele>
        <time>2014-03-14T08:52:37.224Z</time>
      </trkpt>
      <trkpt lat="45.53781" lon="6.91334">
        <ele>1524</ele>
        <time>2014-03-14T08:52:38.230Z</time>
      </trkpt>
      <trkpt lat="45.53786" lon="6.91329">
        <ele>1512</ele>
        <time>2014-03-14T08:52:40.332Z</time>
      </trkpt>
      <trkpt lat="45.53789" lon="6.91327">
        <ele>1512</ele>
        <time>2014-03-14T08:52:41.164Z</time>
      </trkpt>
      <trkpt lat="45.53794" lon="6.91321">
        <ele>1513</ele>
        <time>2014-03-14T08:52:43.154Z</time>
      </trkpt>
      <trkpt lat="45.53798" lon="6.91316">
        <ele>1514</ele>
        <time>2014-03-14T08:52:44.160Z</time>
      </trkpt>
      <trkpt lat="45.53803" lon="6.9131">
        <ele>1515</ele>
        <time>2014-03-14T08:52:45.153Z</time>
      </trkpt>
      <trkpt lat="45.53806" lon="6.91304">
        <ele>1514</ele>
        <time>2014-03-14T08:52:46.156Z</time>
      </trkpt>
      <trkpt lat="45.53811" lon="6.91297">
        <ele>1514</ele>
        <time>2014-03-14T08:52:48.202Z</time>
      </trkpt>
      <trkpt lat="45.53813" lon="6.91292">
        <ele>1514</ele>
        <time>2014-03-14T08:52:49.210Z</time>
      </trkpt>
      <trkpt lat="45.53817" lon="6.91287">
        <ele>1514</ele>
        <time>2014-03-14T08:52:51.204Z</time>
      </trkpt>
      <trkpt lat="45.53822" lon="6.91289">
        <ele>1514</ele>
        <time>2014-03-14T08:52:52.196Z</time>
      </trkpt>
      <trkpt lat="45.53829" lon="6.91293">
        <ele>1516</ele>
        <time>2014-03-14T08:52:54.233Z</time>
      </trkpt>
      <trkpt lat="45.53834" lon="6.91295">
        <ele>1535</ele>
        <time>2014-03-14T08:52:55.293Z</time>
      </trkpt>
      <trkpt lat="45.53842" lon="6.91297">
        <ele>1536</ele>
        <time>2014-03-14T08:52:58.209Z</time>
      </trkpt>
      <trkpt lat="45.53843" lon="6.91296">
        <ele>1536</ele>
        <time>2014-03-14T08:52:59.194Z</time>
      </trkpt>
      <trkpt lat="45.5385" lon="6.91291">
        <ele>1536</ele>
        <time>2014-03-14T08:53:11.183Z</time>
      </trkpt>
      <trkpt lat="45.53851" lon="6.91289">
        <ele>1536</ele>
        <time>2014-03-14T08:53:12.199Z</time>
      </trkpt>
      <trkpt lat="45.53851" lon="6.91284">
        <ele>1534</ele>
        <time>2014-03-14T08:53:15.202Z</time>
      </trkpt>
      <trkpt lat="45.53833" lon="6.91275">
        <ele>1514</ele>
        <time>2014-03-14T08:53:16.210Z</time>
      </trkpt>
      <trkpt lat="45.53838" lon="6.91267">
        <ele>1527</ele>
        <time>2014-03-14T08:53:21.233Z</time>
      </trkpt>
      <trkpt lat="45.53839" lon="6.91264">
        <ele>1526</ele>
        <time>2014-03-14T08:53:22.210Z</time>
      </trkpt>
      <trkpt lat="45.53847" lon="6.91264">
        <ele>1528</ele>
        <time>2014-03-14T08:53:24.200Z</time>
      </trkpt>
      <trkpt lat="45.53852" lon="6.91266">
        <ele>1530</ele>
        <time>2014-03-14T08:53:25.243Z</time>
      </trkpt>
      <trkpt lat="45.53858" lon="6.91271">
        <ele>1533</ele>
        <time>2014-03-14T08:53:27.245Z</time>
      </trkpt>
      <trkpt lat="45.53861" lon="6.91273">
        <ele>1534</ele>
        <time>2014-03-14T08:53:28.192Z</time>
      </trkpt>
      <trkpt lat="45.53859" lon="6.91285">
        <ele>1536</ele>
        <time>2014-03-14T08:53:36.213Z</time>
      </trkpt>
      <trkpt lat="45.53858" lon="6.91287">
        <ele>1536</ele>
        <time>2014-03-14T08:53:37.205Z</time>
      </trkpt>
      <trkpt lat="45.53854" lon="6.91298">
        <ele>1537</ele>
        <time>2014-03-14T08:54:06.197Z</time>
      </trkpt>
      <trkpt lat="45.53852" lon="6.91302">
        <ele>1538</ele>
        <time>2014-03-14T08:54:07.170Z</time>
      </trkpt>
      <trkpt lat="45.53848" lon="6.91308">
        <ele>1538</ele>
        <time>2014-03-14T08:54:08.263Z</time>
      </trkpt>
      <trkpt lat="45.53846" lon="6.91313">
        <ele>1538</ele>
        <time>2014-03-14T08:54:09.174Z</time>
      </trkpt>
      <trkpt lat="45.53845" lon="6.91325">
        <ele>1538</ele>
        <time>2014-03-14T08:54:17.191Z</time>
      </trkpt>
      <trkpt lat="45.53845" lon="6.91328">
        <ele>1538</ele>
        <time>2014-03-14T08:54:18.184Z</time>
      </trkpt>
      <trkpt lat="45.5384" lon="6.91336">
        <ele>1544</ele>
        <time>2014-03-14T08:54:22.228Z</time>
      </trkpt>
      <trkpt lat="45.53838" lon="6.91337">
        <ele>1542</ele>
        <time>2014-03-14T08:54:23.207Z</time>
      </trkpt>
      <trkpt lat="45.53831" lon="6.91332">
        <ele>1533</ele>
        <time>2014-03-14T08:54:26.187Z</time>
      </trkpt>
      <trkpt lat="45.5383" lon="6.91328">
        <ele>1530</ele>
        <time>2014-03-14T08:54:27.159Z</time>
      </trkpt>
      <trkpt lat="45.53827" lon="6.91339">
        <ele>1535</ele>
        <time>2014-03-14T08:54:41.263Z</time>
      </trkpt>
      <trkpt lat="45.53827" lon="6.91341">
        <ele>1535</ele>
        <time>2014-03-14T08:54:42.201Z</time>
      </trkpt>
      <trkpt lat="45.53825" lon="6.91351">
        <ele>1535</ele>
        <time>2014-03-14T08:54:49.173Z</time>
      </trkpt>
      <trkpt lat="45.53825" lon="6.91354">
        <ele>1535</ele>
        <time>2014-03-14T08:54:50.157Z</time>
      </trkpt>
      <trkpt lat="45.53822" lon="6.91364">
        <ele>1536</ele>
        <time>2014-03-14T08:54:54.176Z</time>
      </trkpt>
      <trkpt lat="45.5382" lon="6.91366">
        <ele>1536</ele>
        <time>2014-03-14T08:54:55.154Z</time>
      </trkpt>
      <trkpt lat="45.53813" lon="6.91369">
        <ele>1536</ele>
        <time>2014-03-14T08:54:58.175Z</time>
      </trkpt>
      <trkpt lat="45.53811" lon="6.9137">
        <ele>1536</ele>
        <time>2014-03-14T08:54:59.171Z</time>
      </trkpt>
      <trkpt lat="45.53806" lon="6.91379">
        <ele>1537</ele>
        <time>2014-03-14T08:55:05.317Z</time>
      </trkpt>
      <trkpt lat="45.53808" lon="6.91382">
        <ele>1538</ele>
        <time>2014-03-14T08:55:06.267Z</time>
      </trkpt>
      <trkpt lat="45.53811" lon="6.91393">
        <ele>1541</ele>
        <time>2014-03-14T08:55:09.160Z</time>
      </trkpt>
      <trkpt lat="45.53813" lon="6.91397">
        <ele>1542</ele>
        <time>2014-03-14T08:55:10.247Z</time>
      </trkpt>
      <trkpt lat="45.53805" lon="6.91399">
        <ele>1540</ele>
        <time>2014-03-14T08:55:33.234Z</time>
      </trkpt>
      <trkpt lat="45.53803" lon="6.91401">
        <ele>1540</ele>
        <time>2014-03-14T08:55:34.282Z</time>
      </trkpt>
      <trkpt lat="45.53797" lon="6.91407">
        <ele>1539</ele>
        <time>2014-03-14T08:55:37.272Z</time>
      </trkpt>
      <trkpt lat="45.53796" lon="6.91408">
        <ele>1539</ele>
        <time>2014-03-14T08:55:38.266Z</time>
      </trkpt>
      <trkpt lat="45.53791" lon="6.91418">
        <ele>1555</ele>
        <time>2014-03-14T08:55:43.175Z</time>
      </trkpt>
      <trkpt lat="45.5379" lon="6.9142">
        <ele>1555</ele>
        <time>2014-03-14T08:55:44.418Z</time>
      </trkpt>
      <trkpt lat="45.5379" lon="6.91432">
        <ele>1556</ele>
        <time>2014-03-14T08:55:51.352Z</time>
      </trkpt>
      <trkpt lat="45.5379" lon="6.91434">
        <ele>1557</ele>
        <time>2014-03-14T08:55:52.211Z</time>
      </trkpt>
      <trkpt lat="45.53784" lon="6.91442">
        <ele>1556</ele>
        <time>2014-03-14T08:56:04.272Z</time>
      </trkpt>
      <trkpt lat="45.53782" lon="6.91443">
        <ele>1556</ele>
        <time>2014-03-14T08:56:05.281Z</time>
      </trkpt>
      <trkpt lat="45.53776" lon="6.91451">
        <ele>1556</ele>
        <time>2014-03-14T08:56:14.176Z</time>
      </trkpt>
      <trkpt lat="45.53775" lon="6.91452">
        <ele>1556</ele>
        <time>2014-03-14T08:56:15.160Z</time>
      </trkpt>
      <trkpt lat="45.53772" lon="6.91441">
        <ele>1552</ele>
        <time>2014-03-14T08:56:21.194Z</time>
      </trkpt>
      <trkpt lat="45.53772" lon="6.91438">
        <ele>1551</ele>
        <time>2014-03-14T08:56:22.185Z</time>
      </trkpt>
      <trkpt lat="45.53765" lon="6.91437">
        <ele>1549</ele>
        <time>2014-03-14T08:56:26.199Z</time>
      </trkpt>
      <trkpt lat="45.53763" lon="6.91441">
        <ele>1550</ele>
        <time>2014-03-14T08:56:27.339Z</time>
      </trkpt>
      <trkpt lat="45.53757" lon="6.91447">
        <ele>1551</ele>
        <time>2014-03-14T08:56:29.224Z</time>
      </trkpt>
      <trkpt lat="45.53755" lon="6.9145">
        <ele>1552</ele>
        <time>2014-03-14T08:56:30.277Z</time>
      </trkpt>
      <trkpt lat="45.53753" lon="6.91461">
        <ele>1555</ele>
        <time>2014-03-14T08:56:34.354Z</time>
      </trkpt>
      <trkpt lat="45.53753" lon="6.91463">
        <ele>1555</ele>
        <time>2014-03-14T08:56:35.198Z</time>
      </trkpt>
      <trkpt lat="45.53747" lon="6.91469">
        <ele>1535</ele>
        <time>2014-03-14T08:56:40.270Z</time>
      </trkpt>
      <trkpt lat="45.53745" lon="6.91473">
        <ele>1536</ele>
        <time>2014-03-14T08:56:41.248Z</time>
      </trkpt>
      <trkpt lat="45.5374" lon="6.91481">
        <ele>1539</ele>
        <time>2014-03-14T08:56:43.219Z</time>
      </trkpt>
      <trkpt lat="45.53739" lon="6.91484">
        <ele>1540</ele>
        <time>2014-03-14T08:56:44.205Z</time>
      </trkpt>
      <trkpt lat="45.53742" lon="6.91496">
        <ele>1548</ele>
        <time>2014-03-14T08:56:53.195Z</time>
      </trkpt>
      <trkpt lat="45.53743" lon="6.91496">
        <ele>1549</ele>
        <time>2014-03-14T08:56:54.193Z</time>
      </trkpt>
      <trkpt lat="45.53749" lon="6.91489">
        <ele>1546</ele>
        <time>2014-03-14T08:56:57.323Z</time>
      </trkpt>
      <trkpt lat="45.53753" lon="6.91487">
        <ele>1558</ele>
        <time>2014-03-14T08:56:58.184Z</time>
      </trkpt>
      <trkpt lat="45.53755" lon="6.91476">
        <ele>1558</ele>
        <time>2014-03-14T08:57:05.155Z</time>
      </trkpt>
      <trkpt lat="45.53807" lon="6.9142">
        <ele>1560</ele>
        <time>2014-03-14T08:58:15.213Z</time>
      </trkpt>
      <trkpt lat="45.53806" lon="6.91426">
        <ele>1560</ele>
        <time>2014-03-14T08:58:35.232Z</time>
      </trkpt>
      <trkpt lat="45.53829" lon="6.91422">
        <ele>1564</ele>
        <time>2014-03-14T08:58:36.193Z</time>
      </trkpt>
      <trkpt lat="45.53835" lon="6.91417">
        <ele>1567</ele>
        <time>2014-03-14T08:58:37.233Z</time>
      </trkpt>
      <trkpt lat="45.5384" lon="6.9141">
        <ele>1566</ele>
        <time>2014-03-14T08:58:38.200Z</time>
      </trkpt>
      <trkpt lat="45.53839" lon="6.91422">
        <ele>1573</ele>
        <time>2014-03-14T08:58:41.177Z</time>
      </trkpt>
      <trkpt lat="45.53829" lon="6.91421">
        <ele>1564</ele>
        <time>2014-03-14T08:58:42.236Z</time>
      </trkpt>
      <trkpt lat="45.53825" lon="6.91419">
        <ele>1564</ele>
        <time>2014-03-14T08:58:48.224Z</time>
      </trkpt>
      <trkpt lat="45.53817" lon="6.91425">
        <ele>1562</ele>
        <time>2014-03-14T08:58:49.194Z</time>
      </trkpt>
      <trkpt lat="45.53812" lon="6.91419">
        <ele>1561</ele>
        <time>2014-03-14T08:58:53.214Z</time>
      </trkpt>
      <trkpt lat="45.53808" lon="6.9142">
        <ele>1560</ele>
        <time>2014-03-14T08:58:54.206Z</time>
      </trkpt>
      <trkpt lat="45.538" lon="6.91412">
        <ele>1541</ele>
        <time>2014-03-14T08:58:55.201Z</time>
      </trkpt>
      <trkpt lat="45.53812" lon="6.91429">
        <ele>1562</ele>
        <time>2014-03-14T08:58:56.211Z</time>
      </trkpt>
      <trkpt lat="45.53819" lon="6.91446">
        <ele>1564</ele>
        <time>2014-03-14T08:58:57.250Z</time>
      </trkpt>
      <trkpt lat="45.5382" lon="6.91441">
        <ele>1564</ele>
        <time>2014-03-14T08:58:59.220Z</time>
      </trkpt>
      <trkpt lat="45.53811" lon="6.91437">
        <ele>1562</ele>
        <time>2014-03-14T08:59:00.221Z</time>
      </trkpt>
      <trkpt lat="45.53809" lon="6.91446">
        <ele>1563</ele>
        <time>2014-03-14T08:59:01.174Z</time>
      </trkpt>
      <trkpt lat="45.53817" lon="6.91457">
        <ele>1566</ele>
        <time>2014-03-14T08:59:02.203Z</time>
      </trkpt>
      <trkpt lat="45.53815" lon="6.91449">
        <ele>1564</ele>
        <time>2014-03-14T08:59:03.214Z</time>
      </trkpt>
      <trkpt lat="45.53817" lon="6.91441">
        <ele>1563</ele>
        <time>2014-03-14T08:59:04.174Z</time>
      </trkpt>
      <trkpt lat="45.53819" lon="6.91424">
        <ele>1563</ele>
        <time>2014-03-14T08:59:05.180Z</time>
      </trkpt>
      <trkpt lat="45.53815" lon="6.91432">
        <ele>1562</ele>
        <time>2014-03-14T08:59:07.179Z</time>
      </trkpt>
      <trkpt lat="45.5382" lon="6.91442">
        <ele>1564</ele>
        <time>2014-03-14T08:59:08.189Z</time>
      </trkpt>
      <trkpt lat="45.53812" lon="6.91438">
        <ele>1562</ele>
        <time>2014-03-14T08:59:16.203Z</time>
      </trkpt>
      <trkpt lat="45.53809" lon="6.91439">
        <ele>1562</ele>
        <time>2014-03-14T08:59:17.273Z</time>
      </trkpt>
      <trkpt lat="45.53808" lon="6.91466">
        <ele>1567</ele>
        <time>2014-03-14T08:59:18.201Z</time>
      </trkpt>
      <trkpt lat="45.53812" lon="6.91461">
        <ele>1566</ele>
        <time>2014-03-14T08:59:22.209Z</time>
      </trkpt>
      <trkpt lat="45.53819" lon="6.9147">
        <ele>1570</ele>
        <time>2014-03-14T08:59:23.192Z</time>
      </trkpt>
      <trkpt lat="45.53811" lon="6.91471">
        <ele>1569</ele>
        <time>2014-03-14T08:59:24.203Z</time>
      </trkpt>
      <trkpt lat="45.53804" lon="6.91466">
        <ele>1565</ele>
        <time>2014-03-14T08:59:25.184Z</time>
      </trkpt>
      <trkpt lat="45.53798" lon="6.91457">
        <ele>1562</ele>
        <time>2014-03-14T08:59:27.241Z</time>
      </trkpt>
      <trkpt lat="45.53793" lon="6.91461">
        <ele>1562</ele>
        <time>2014-03-14T08:59:28.192Z</time>
      </trkpt>
      <trkpt lat="45.53798" lon="6.9145">
        <ele>1561</ele>
        <time>2014-03-14T08:59:29.224Z</time>
      </trkpt>
      <trkpt lat="45.53793" lon="6.91449">
        <ele>1560</ele>
        <time>2014-03-14T08:59:34.156Z</time>
      </trkpt>
      <trkpt lat="45.5379" lon="6.91435">
        <ele>1557</ele>
        <time>2014-03-14T08:59:35.202Z</time>
      </trkpt>
      <trkpt lat="45.53788" lon="6.91447">
        <ele>1558</ele>
        <time>2014-03-14T08:59:37.213Z</time>
      </trkpt>
      <trkpt lat="45.53788" lon="6.91449">
        <ele>1559</ele>
        <time>2014-03-14T08:59:38.253Z</time>
      </trkpt>
      <trkpt lat="45.53791" lon="6.91461">
        <ele>1562</ele>
        <time>2014-03-14T08:59:39.214Z</time>
      </trkpt>
      <trkpt lat="45.53794" lon="6.9147">
        <ele>1564</ele>
        <time>2014-03-14T08:59:42.238Z</time>
      </trkpt>
      <trkpt lat="45.53794" lon="6.91477">
        <ele>1565</ele>
        <time>2014-03-14T08:59:43.163Z</time>
      </trkpt>
      <trkpt lat="45.53786" lon="6.91479">
        <ele>1563</ele>
        <time>2014-03-14T08:59:49.178Z</time>
      </trkpt>
      <trkpt lat="45.53785" lon="6.9148">
        <ele>1563</ele>
        <time>2014-03-14T08:59:50.148Z</time>
      </trkpt>
      <trkpt lat="45.53785" lon="6.91493">
        <ele>1565</ele>
        <time>2014-03-14T09:00:00.238Z</time>
      </trkpt>
      <trkpt lat="45.53787" lon="6.91494">
        <ele>1565</ele>
        <time>2014-03-14T09:00:01.177Z</time>
      </trkpt>
      <trkpt lat="45.53794" lon="6.91491">
        <ele>1567</ele>
        <time>2014-03-14T09:00:33.199Z</time>
      </trkpt>
      <trkpt lat="45.53795" lon="6.9149">
        <ele>1567</ele>
        <time>2014-03-14T09:00:34.219Z</time>
      </trkpt>
      <trkpt lat="45.53803" lon="6.91486">
        <ele>1569</ele>
        <time>2014-03-14T09:00:41.209Z</time>
      </trkpt>
      <trkpt lat="45.53804" lon="6.91485">
        <ele>1570</ele>
        <time>2014-03-14T09:00:42.237Z</time>
      </trkpt>
      <trkpt lat="45.53812" lon="6.91479">
        <ele>1571</ele>
        <time>2014-03-14T09:00:48.186Z</time>
      </trkpt>
      <trkpt lat="45.53813" lon="6.91477">
        <ele>1571</ele>
        <time>2014-03-14T09:00:49.283Z</time>
      </trkpt>
      <trkpt lat="45.53816" lon="6.91467">
        <ele>1569</ele>
        <time>2014-03-14T09:00:52.236Z</time>
      </trkpt>
      <trkpt lat="45.53817" lon="6.91463">
        <ele>1568</ele>
        <time>2014-03-14T09:00:53.192Z</time>
      </trkpt>
      <trkpt lat="45.5382" lon="6.91453">
        <ele>1566</ele>
        <time>2014-03-14T09:00:55.222Z</time>
      </trkpt>
      <trkpt lat="45.53823" lon="6.91448">
        <ele>1565</ele>
        <time>2014-03-14T09:00:56.181Z</time>
      </trkpt>
      <trkpt lat="45.53829" lon="6.91444">
        <ele>1565</ele>
        <time>2014-03-14T09:00:57.258Z</time>
      </trkpt>
      <trkpt lat="45.53839" lon="6.91434">
        <ele>1580</ele>
        <time>2014-03-14T09:00:58.151Z</time>
      </trkpt>
      <trkpt lat="45.53844" lon="6.91426">
        <ele>1578</ele>
        <time>2014-03-14T09:00:59.172Z</time>
      </trkpt>
      <trkpt lat="45.53852" lon="6.91425">
        <ele>1582</ele>
        <time>2014-03-14T09:01:00.171Z</time>
      </trkpt>
      <trkpt lat="45.53839" lon="6.91412">
        <ele>1566</ele>
        <time>2014-03-14T09:01:01.150Z</time>
      </trkpt>
      <trkpt lat="45.5385" lon="6.9139">
        <ele>1565</ele>
        <time>2014-03-14T09:01:02.146Z</time>
      </trkpt>
      <trkpt lat="45.53857" lon="6.91371">
        <ele>1563</ele>
        <time>2014-03-14T09:01:03.146Z</time>
      </trkpt>
      <trkpt lat="45.53851" lon="6.91336">
        <ele>1552</ele>
        <time>2014-03-14T09:01:04.146Z</time>
      </trkpt>
      <trkpt lat="45.53854" lon="6.91475">
        <ele>1594</ele>
        <time>2014-03-14T09:01:26.179Z</time>
      </trkpt>
      <trkpt lat="45.53852" lon="6.91469">
        <ele>1593</ele>
        <time>2014-03-14T09:01:28.185Z</time>
      </trkpt>
      <trkpt lat="45.53857" lon="6.91457">
        <ele>1592</ele>
        <time>2014-03-14T09:01:29.184Z</time>
      </trkpt>
      <trkpt lat="45.53859" lon="6.91445">
        <ele>1589</ele>
        <time>2014-03-14T09:01:31.201Z</time>
      </trkpt>
      <trkpt lat="45.53858" lon="6.91442">
        <ele>1588</ele>
        <time>2014-03-14T09:01:32.201Z</time>
      </trkpt>
      <trkpt lat="45.53859" lon="6.91431">
        <ele>1586</ele>
        <time>2014-03-14T09:01:41.186Z</time>
      </trkpt>
      <trkpt lat="45.53852" lon="6.91424">
        <ele>1582</ele>
        <time>2014-03-14T09:01:42.190Z</time>
      </trkpt>
      <trkpt lat="45.53861" lon="6.91425">
        <ele>1586</ele>
        <time>2014-03-14T09:01:53.241Z</time>
      </trkpt>
      <trkpt lat="45.53861" lon="6.91428">
        <ele>1586</ele>
        <time>2014-03-14T09:01:54.225Z</time>
      </trkpt>
      <trkpt lat="45.53859" lon="6.91438">
        <ele>1587</ele>
        <time>2014-03-14T09:02:00.154Z</time>
      </trkpt>
      <trkpt lat="45.53858" lon="6.91441">
        <ele>1588</ele>
        <time>2014-03-14T09:02:01.208Z</time>
      </trkpt>
      <trkpt lat="45.53855" lon="6.91453">
        <ele>1590</ele>
        <time>2014-03-14T09:02:13.221Z</time>
      </trkpt>
      <trkpt lat="45.53855" lon="6.91454">
        <ele>1590</ele>
        <time>2014-03-14T09:02:14.198Z</time>
      </trkpt>
      <trkpt lat="45.5385" lon="6.91464">
        <ele>1592</ele>
        <time>2014-03-14T09:02:19.208Z</time>
      </trkpt>
      <trkpt lat="45.53849" lon="6.91466">
        <ele>1592</ele>
        <time>2014-03-14T09:02:20.165Z</time>
      </trkpt>
      <trkpt lat="45.53842" lon="6.91474">
        <ele>1593</ele>
        <time>2014-03-14T09:02:28.195Z</time>
      </trkpt>
      <trkpt lat="45.53842" lon="6.91475">
        <ele>1593</ele>
        <time>2014-03-14T09:02:29.203Z</time>
      </trkpt>
      <trkpt lat="45.53837" lon="6.91485">
        <ele>1595</ele>
        <time>2014-03-14T09:02:38.245Z</time>
      </trkpt>
      <trkpt lat="45.53837" lon="6.91486">
        <ele>1595</ele>
        <time>2014-03-14T09:02:39.170Z</time>
      </trkpt>
      <trkpt lat="45.53843" lon="6.91479">
        <ele>1594</ele>
        <time>2014-03-14T09:02:53.168Z</time>
      </trkpt>
      <trkpt lat="45.53844" lon="6.91478">
        <ele>1594</ele>
        <time>2014-03-14T09:02:54.212Z</time>
      </trkpt>
      <trkpt lat="45.5385" lon="6.9147">
        <ele>1593</ele>
        <time>2014-03-14T09:03:03.226Z</time>
      </trkpt>
      <trkpt lat="45.53851" lon="6.91469">
        <ele>1593</ele>
        <time>2014-03-14T09:03:04.266Z</time>
      </trkpt>
      <trkpt lat="45.53859" lon="6.91464">
        <ele>1593</ele>
        <time>2014-03-14T09:03:21.357Z</time>
      </trkpt>
      <trkpt lat="45.53859" lon="6.91464">
        <ele>1593</ele>
        <time>2014-03-14T09:03:22.296Z</time>
      </trkpt>
      <trkpt lat="45.53867" lon="6.91461">
        <ele>1594</ele>
        <time>2014-03-14T09:03:31.366Z</time>
      </trkpt>
      <trkpt lat="45.53868" lon="6.91461">
        <ele>1594</ele>
        <time>2014-03-14T09:03:32.271Z</time>
      </trkpt>
      <trkpt lat="45.53873" lon="6.91453">
        <ele>1594</ele>
        <time>2014-03-14T09:03:39.196Z</time>
      </trkpt>
      <trkpt lat="45.53874" lon="6.91452">
        <ele>1594</ele>
        <time>2014-03-14T09:03:40.316Z</time>
      </trkpt>
      <trkpt lat="45.53881" lon="6.91444">
        <ele>1594</ele>
        <time>2014-03-14T09:03:47.188Z</time>
      </trkpt>
      <trkpt lat="45.53883" lon="6.91443">
        <ele>1594</ele>
        <time>2014-03-14T09:03:48.221Z</time>
      </trkpt>
      <trkpt lat="45.53889" lon="6.91435">
        <ele>1594</ele>
        <time>2014-03-14T09:03:53.170Z</time>
      </trkpt>
      <trkpt lat="45.5389" lon="6.91434">
        <ele>1594</ele>
        <time>2014-03-14T09:03:54.204Z</time>
      </trkpt>
      <trkpt lat="45.53898" lon="6.9143">
        <ele>1595</ele>
        <time>2014-03-14T09:04:05.354Z</time>
      </trkpt>
      <trkpt lat="45.53899" lon="6.91429">
        <ele>1596</ele>
        <time>2014-03-14T09:04:06.280Z</time>
      </trkpt>
      <trkpt lat="45.53905" lon="6.91422">
        <ele>1596</ele>
        <time>2014-03-14T09:04:14.178Z</time>
      </trkpt>
      <trkpt lat="45.53906" lon="6.91421">
        <ele>1596</ele>
        <time>2014-03-14T09:04:15.146Z</time>
      </trkpt>
      <trkpt lat="45.53912" lon="6.91413">
        <ele>1592</ele>
        <time>2014-03-14T09:04:22.214Z</time>
      </trkpt>
      <trkpt lat="45.53913" lon="6.91412">
        <ele>1592</ele>
        <time>2014-03-14T09:04:23.243Z</time>
      </trkpt>
      <trkpt lat="45.53911" lon="6.91424">
        <ele>1597</ele>
        <time>2014-03-14T09:04:51.245Z</time>
      </trkpt>
      <trkpt lat="45.5391" lon="6.91425">
        <ele>1597</ele>
        <time>2014-03-14T09:04:52.301Z</time>
      </trkpt>
      <trkpt lat="45.53907" lon="6.91436">
        <ele>1597</ele>
        <time>2014-03-14T09:04:59.147Z</time>
      </trkpt>
      <trkpt lat="45.53906" lon="6.91438">
        <ele>1597</ele>
        <time>2014-03-14T09:05:00.185Z</time>
      </trkpt>
      <trkpt lat="45.53903" lon="6.91448">
        <ele>1597</ele>
        <time>2014-03-14T09:05:07.223Z</time>
      </trkpt>
      <trkpt lat="45.53903" lon="6.9145">
        <ele>1598</ele>
        <time>2014-03-14T09:05:08.298Z</time>
      </trkpt>
      <trkpt lat="45.53899" lon="6.9146">
        <ele>1599</ele>
        <time>2014-03-14T09:05:13.191Z</time>
      </trkpt>
      <trkpt lat="45.53896" lon="6.91464">
        <ele>1599</ele>
        <time>2014-03-14T09:05:14.149Z</time>
      </trkpt>
      <trkpt lat="45.53892" lon="6.91473">
        <ele>1600</ele>
        <time>2014-03-14T09:05:17.190Z</time>
      </trkpt>
      <trkpt lat="45.53893" lon="6.91476">
        <ele>1601</ele>
        <time>2014-03-14T09:05:18.185Z</time>
      </trkpt>
      <trkpt lat="45.53895" lon="6.91488">
        <ele>1604</ele>
        <time>2014-03-14T09:05:38.205Z</time>
      </trkpt>
      <trkpt lat="45.53895" lon="6.91489">
        <ele>1604</ele>
        <time>2014-03-14T09:05:39.190Z</time>
      </trkpt>
      <trkpt lat="45.53889" lon="6.91499">
        <ele>1604</ele>
        <time>2014-03-14T09:05:49.210Z</time>
      </trkpt>
      <trkpt lat="45.53889" lon="6.915">
        <ele>1612</ele>
        <time>2014-03-14T09:05:50.197Z</time>
      </trkpt>
      <trkpt lat="45.53883" lon="6.91509">
        <ele>1620</ele>
        <time>2014-03-14T09:06:01.259Z</time>
      </trkpt>
      <trkpt lat="45.53883" lon="6.9151">
        <ele>1620</ele>
        <time>2014-03-14T09:06:02.219Z</time>
      </trkpt>
      <trkpt lat="45.53877" lon="6.9152">
        <ele>1621</ele>
        <time>2014-03-14T09:06:14.147Z</time>
      </trkpt>
      <trkpt lat="45.53877" lon="6.9152">
        <ele>1621</ele>
        <time>2014-03-14T09:06:15.203Z</time>
      </trkpt>
      <trkpt lat="45.53869" lon="6.91515">
        <ele>1618</ele>
        <time>2014-03-14T09:06:35.247Z</time>
      </trkpt>
      <trkpt lat="45.53869" lon="6.91515">
        <ele>1618</ele>
        <time>2014-03-14T09:06:36.331Z</time>
      </trkpt>
      <trkpt lat="45.5386" lon="6.91517">
        <ele>1617</ele>
        <time>2014-03-14T09:06:48.278Z</time>
      </trkpt>
      <trkpt lat="45.53854" lon="6.91524">
        <ele>1617</ele>
        <time>2014-03-14T09:06:49.207Z</time>
      </trkpt>
      <trkpt lat="45.53844" lon="6.91532">
        <ele>1617</ele>
        <time>2014-03-14T09:06:50.165Z</time>
      </trkpt>
      <trkpt lat="45.53839" lon="6.91538">
        <ele>1619</ele>
        <time>2014-03-14T09:06:51.229Z</time>
      </trkpt>
      <trkpt lat="45.53841" lon="6.91547">
        <ele>1621</ele>
        <time>2014-03-14T09:06:52.197Z</time>
      </trkpt>
      <trkpt lat="45.53834" lon="6.91553">
        <ele>1622</ele>
        <time>2014-03-14T09:07:07.237Z</time>
      </trkpt>
      <trkpt lat="45.53833" lon="6.91554">
        <ele>1604</ele>
        <time>2014-03-14T09:07:08.210Z</time>
      </trkpt>
      <trkpt lat="45.53825" lon="6.9156">
        <ele>1605</ele>
        <time>2014-03-14T09:07:19.271Z</time>
      </trkpt>
      <trkpt lat="45.53824" lon="6.9156">
        <ele>1605</ele>
        <time>2014-03-14T09:07:20.177Z</time>
      </trkpt>
      <trkpt lat="45.53821" lon="6.91569">
        <ele>1609</ele>
        <time>2014-03-14T09:07:33.246Z</time>
      </trkpt>
      <trkpt lat="45.53821" lon="6.91573">
        <ele>1611</ele>
        <time>2014-03-14T09:07:34.180Z</time>
      </trkpt>
      <trkpt lat="45.53823" lon="6.91584">
        <ele>1625</ele>
        <time>2014-03-14T09:07:37.186Z</time>
      </trkpt>
      <trkpt lat="45.53823" lon="6.91586">
        <ele>1625</ele>
        <time>2014-03-14T09:07:38.169Z</time>
      </trkpt>
      <trkpt lat="45.53822" lon="6.91597">
        <ele>1624</ele>
        <time>2014-03-14T09:07:42.141Z</time>
      </trkpt>
      <trkpt lat="45.53822" lon="6.91599">
        <ele>1624</ele>
        <time>2014-03-14T09:07:43.140Z</time>
      </trkpt>
      <trkpt lat="45.53817" lon="6.91607">
        <ele>1624</ele>
        <time>2014-03-14T09:07:48.142Z</time>
      </trkpt>
      <trkpt lat="45.53816" lon="6.91613">
        <ele>1624</ele>
        <time>2014-03-14T09:07:49.142Z</time>
      </trkpt>
      <trkpt lat="45.53815" lon="6.91626">
        <ele>1626</ele>
        <time>2014-03-14T09:07:55.318Z</time>
      </trkpt>
      <trkpt lat="45.53814" lon="6.91626">
        <ele>1626</ele>
        <time>2014-03-14T09:07:56.306Z</time>
      </trkpt>
      <trkpt lat="45.53812" lon="6.91638">
        <ele>1628</ele>
        <time>2014-03-14T09:08:11.287Z</time>
      </trkpt>
      <trkpt lat="45.53811" lon="6.91639">
        <ele>1628</ele>
        <time>2014-03-14T09:08:12.163Z</time>
      </trkpt>
      <trkpt lat="45.53804" lon="6.91644">
        <ele>1627</ele>
        <time>2014-03-14T09:08:33.265Z</time>
      </trkpt>
      <trkpt lat="45.53802" lon="6.91645">
        <ele>1627</ele>
        <time>2014-03-14T09:08:34.250Z</time>
      </trkpt>
      <trkpt lat="45.53794" lon="6.91649">
        <ele>1625</ele>
        <time>2014-03-14T09:08:39.283Z</time>
      </trkpt>
      <trkpt lat="45.53793" lon="6.9165">
        <ele>1625</ele>
        <time>2014-03-14T09:08:40.218Z</time>
      </trkpt>
      <trkpt lat="45.53786" lon="6.91657">
        <ele>1624</ele>
        <time>2014-03-14T09:08:43.377Z</time>
      </trkpt>
      <trkpt lat="45.53783" lon="6.91657">
        <ele>1624</ele>
        <time>2014-03-14T09:08:44.217Z</time>
      </trkpt>
      <trkpt lat="45.53786" lon="6.91669">
        <ele>1642</ele>
        <time>2014-03-14T09:08:58.212Z</time>
      </trkpt>
      <trkpt lat="45.53786" lon="6.91671">
        <ele>1642</ele>
        <time>2014-03-14T09:08:59.202Z</time>
      </trkpt>
      <trkpt lat="45.53793" lon="6.91665">
        <ele>1627</ele>
        <time>2014-03-14T09:09:13.212Z</time>
      </trkpt>
      <trkpt lat="45.53794" lon="6.91664">
        <ele>1627</ele>
        <time>2014-03-14T09:09:14.187Z</time>
      </trkpt>
      <trkpt lat="45.53803" lon="6.91667">
        <ele>1646</ele>
        <time>2014-03-14T09:10:23.212Z</time>
      </trkpt>
      <trkpt lat="45.53803" lon="6.91667">
        <ele>1646</ele>
        <time>2014-03-14T09:10:24.229Z</time>
      </trkpt>
      <trkpt lat="45.53796" lon="6.9166">
        <ele>1627</ele>
        <time>2014-03-14T09:10:53.165Z</time>
      </trkpt>
      <trkpt lat="45.53794" lon="6.91659">
        <ele>1626</ele>
        <time>2014-03-14T09:10:54.225Z</time>
      </trkpt>
      <trkpt lat="45.53799" lon="6.91666">
        <ele>1629</ele>
        <time>2014-03-14T09:11:37.207Z</time>
      </trkpt>
      <trkpt lat="45.538" lon="6.9167">
        <ele>1645</ele>
        <time>2014-03-14T09:11:38.228Z</time>
      </trkpt>
      <trkpt lat="45.53801" lon="6.91682">
        <ele>1647</ele>
        <time>2014-03-14T09:11:40.193Z</time>
      </trkpt>
      <trkpt lat="45.53802" lon="6.91687">
        <ele>1647</ele>
        <time>2014-03-14T09:11:41.263Z</time>
      </trkpt>
      <trkpt lat="45.53807" lon="6.9168">
        <ele>1647</ele>
        <time>2014-03-14T09:11:52.189Z</time>
      </trkpt>
      <trkpt lat="45.53807" lon="6.91676">
        <ele>1647</ele>
        <time>2014-03-14T09:11:53.170Z</time>
      </trkpt>
      <trkpt lat="45.5381" lon="6.91665">
        <ele>1633</ele>
        <time>2014-03-14T09:13:35.139Z</time>
      </trkpt>
      <trkpt lat="45.53811" lon="6.91664">
        <ele>1633</ele>
        <time>2014-03-14T09:13:36.180Z</time>
      </trkpt>
      <trkpt lat="45.53817" lon="6.91656">
        <ele>1634</ele>
        <time>2014-03-14T09:13:44.165Z</time>
      </trkpt>
      <trkpt lat="45.53818" lon="6.91656">
        <ele>1635</ele>
        <time>2014-03-14T09:13:45.136Z</time>
      </trkpt>
      <trkpt lat="45.53826" lon="6.91651">
        <ele>1635</ele>
        <time>2014-03-14T09:13:52.186Z</time>
      </trkpt>
      <trkpt lat="45.53827" lon="6.9165">
        <ele>1635</ele>
        <time>2014-03-14T09:13:53.193Z</time>
      </trkpt>
      <trkpt lat="45.53832" lon="6.91641">
        <ele>1632</ele>
        <time>2014-03-14T09:14:06.144Z</time>
      </trkpt>
      <trkpt lat="45.53832" lon="6.9164">
        <ele>1632</ele>
        <time>2014-03-14T09:14:07.139Z</time>
      </trkpt>
      <trkpt lat="45.53837" lon="6.9163">
        <ele>1649</ele>
        <time>2014-03-14T09:14:22.243Z</time>
      </trkpt>
      <trkpt lat="45.53838" lon="6.91629">
        <ele>1649</ele>
        <time>2014-03-14T09:14:23.164Z</time>
      </trkpt>
      <trkpt lat="45.53841" lon="6.91619">
        <ele>1647</ele>
        <time>2014-03-14T09:14:31.309Z</time>
      </trkpt>
      <trkpt lat="45.53844" lon="6.91618">
        <ele>1647</ele>
        <time>2014-03-14T09:14:32.293Z</time>
      </trkpt>
      <trkpt lat="45.53852" lon="6.91612">
        <ele>1647</ele>
        <time>2014-03-14T09:14:42.297Z</time>
      </trkpt>
      <trkpt lat="45.53853" lon="6.91612">
        <ele>1647</ele>
        <time>2014-03-14T09:14:43.137Z</time>
      </trkpt>
      <trkpt lat="45.53859" lon="6.91604">
        <ele>1647</ele>
        <time>2014-03-14T09:15:00.143Z</time>
      </trkpt>
      <trkpt lat="45.5386" lon="6.91603">
        <ele>1647</ele>
        <time>2014-03-14T09:15:01.138Z</time>
      </trkpt>
      <trkpt lat="45.53867" lon="6.91599">
        <ele>1648</ele>
        <time>2014-03-14T09:15:06.268Z</time>
      </trkpt>
      <trkpt lat="45.5387" lon="6.91598">
        <ele>1649</ele>
        <time>2014-03-14T09:15:07.262Z</time>
      </trkpt>
      <trkpt lat="45.53878" lon="6.91597">
        <ele>1650</ele>
        <time>2014-03-14T09:15:10.156Z</time>
      </trkpt>
      <trkpt lat="45.53879" lon="6.91596">
        <ele>1651</ele>
        <time>2014-03-14T09:15:11.203Z</time>
      </trkpt>
      <trkpt lat="45.53885" lon="6.91588">
        <ele>1651</ele>
        <time>2014-03-14T09:15:20.163Z</time>
      </trkpt>
      <trkpt lat="45.53885" lon="6.91586">
        <ele>1651</ele>
        <time>2014-03-14T09:15:21.291Z</time>
      </trkpt>
      <trkpt lat="45.53891" lon="6.91578">
        <ele>1635</ele>
        <time>2014-03-14T09:15:29.200Z</time>
      </trkpt>
      <trkpt lat="45.53892" lon="6.91578">
        <ele>1636</ele>
        <time>2014-03-14T09:15:30.206Z</time>
      </trkpt>
      <trkpt lat="45.53901" lon="6.91573">
        <ele>1639</ele>
        <time>2014-03-14T09:15:37.198Z</time>
      </trkpt>
      <trkpt lat="45.53901" lon="6.91572">
        <ele>1639</ele>
        <time>2014-03-14T09:15:38.175Z</time>
      </trkpt>
      <trkpt lat="45.5391" lon="6.91568">
        <ele>1640</ele>
        <time>2014-03-14T09:15:47.157Z</time>
      </trkpt>
      <trkpt lat="45.53911" lon="6.91567">
        <ele>1640</ele>
        <time>2014-03-14T09:15:48.156Z</time>
      </trkpt>
      <trkpt lat="45.53917" lon="6.91571">
        <ele>1652</ele>
        <time>2014-03-14T09:16:03.143Z</time>
      </trkpt>
      <trkpt lat="45.53919" lon="6.91564">
        <ele>1650</ele>
        <time>2014-03-14T09:16:04.142Z</time>
      </trkpt>
      <trkpt lat="45.53926" lon="6.9157">
        <ele>1651</ele>
        <time>2014-03-14T09:16:14.151Z</time>
      </trkpt>
      <trkpt lat="45.53925" lon="6.91574">
        <ele>1652</ele>
        <time>2014-03-14T09:16:15.224Z</time>
      </trkpt>
      <trkpt lat="45.53932" lon="6.91567">
        <ele>1650</ele>
        <time>2014-03-14T09:16:24.314Z</time>
      </trkpt>
      <trkpt lat="45.53934" lon="6.91566">
        <ele>1650</ele>
        <time>2014-03-14T09:16:25.162Z</time>
      </trkpt>
      <trkpt lat="45.53942" lon="6.91561">
        <ele>1649</ele>
        <time>2014-03-14T09:16:31.134Z</time>
      </trkpt>
      <trkpt lat="45.53943" lon="6.91561">
        <ele>1649</ele>
        <time>2014-03-14T09:16:32.138Z</time>
      </trkpt>
      <trkpt lat="45.53951" lon="6.91558">
        <ele>1649</ele>
        <time>2014-03-14T09:16:37.135Z</time>
      </trkpt>
      <trkpt lat="45.53953" lon="6.91558">
        <ele>1650</ele>
        <time>2014-03-14T09:16:38.139Z</time>
      </trkpt>
      <trkpt lat="45.53962" lon="6.91559">
        <ele>1651</ele>
        <time>2014-03-14T09:16:43.140Z</time>
      </trkpt>
      <trkpt lat="45.53963" lon="6.91559">
        <ele>1651</ele>
        <time>2014-03-14T09:16:44.145Z</time>
      </trkpt>
      <trkpt lat="45.53971" lon="6.91556">
        <ele>1651</ele>
        <time>2014-03-14T09:17:00.184Z</time>
      </trkpt>
      <trkpt lat="45.53972" lon="6.91556">
        <ele>1652</ele>
        <time>2014-03-14T09:17:01.160Z</time>
      </trkpt>
      <trkpt lat="45.5398" lon="6.91555">
        <ele>1652</ele>
        <time>2014-03-14T09:17:09.173Z</time>
      </trkpt>
      <trkpt lat="45.53982" lon="6.91554">
        <ele>1652</ele>
        <time>2014-03-14T09:17:10.134Z</time>
      </trkpt>
      <trkpt lat="45.53989" lon="6.9155">
        <ele>1652</ele>
        <time>2014-03-14T09:17:16.138Z</time>
      </trkpt>
      <trkpt lat="45.5399" lon="6.91549">
        <ele>1652</ele>
        <time>2014-03-14T09:17:17.157Z</time>
      </trkpt>
      <trkpt lat="45.53997" lon="6.9154">
        <ele>1651</ele>
        <time>2014-03-14T09:17:25.270Z</time>
      </trkpt>
      <trkpt lat="45.53997" lon="6.9154">
        <ele>1651</ele>
        <time>2014-03-14T09:17:26.133Z</time>
      </trkpt>
      <trkpt lat="45.54002" lon="6.9153">
        <ele>1662</ele>
        <time>2014-03-14T09:17:36.153Z</time>
      </trkpt>
      <trkpt lat="45.54003" lon="6.91529">
        <ele>1662</ele>
        <time>2014-03-14T09:17:37.153Z</time>
      </trkpt>
      <trkpt lat="45.54009" lon="6.91521">
        <ele>1661</ele>
        <time>2014-03-14T09:17:47.158Z</time>
      </trkpt>
      <trkpt lat="45.5401" lon="6.9152">
        <ele>1660</ele>
        <time>2014-03-14T09:17:48.200Z</time>
      </trkpt>
      <trkpt lat="45.54014" lon="6.91509">
        <ele>1659</ele>
        <time>2014-03-14T09:18:02.154Z</time>
      </trkpt>
      <trkpt lat="45.54015" lon="6.91508">
        <ele>1659</ele>
        <time>2014-03-14T09:18:03.187Z</time>
      </trkpt>
      <trkpt lat="45.54023" lon="6.91506">
        <ele>1661</ele>
        <time>2014-03-14T09:18:11.133Z</time>
      </trkpt>
      <trkpt lat="45.54024" lon="6.91506">
        <ele>1661</ele>
        <time>2014-03-14T09:18:12.132Z</time>
      </trkpt>
      <trkpt lat="45.54033" lon="6.91505">
        <ele>1664</ele>
        <time>2014-03-14T09:18:19.299Z</time>
      </trkpt>
      <trkpt lat="45.54034" lon="6.91505">
        <ele>1664</ele>
        <time>2014-03-14T09:18:20.178Z</time>
      </trkpt>
      <trkpt lat="45.54042" lon="6.91503">
        <ele>1665</ele>
        <time>2014-03-14T09:18:26.189Z</time>
      </trkpt>
      <trkpt lat="45.54043" lon="6.91502">
        <ele>1666</ele>
        <time>2014-03-14T09:18:27.180Z</time>
      </trkpt>
      <trkpt lat="45.54051" lon="6.915">
        <ele>1667</ele>
        <time>2014-03-14T09:18:37.157Z</time>
      </trkpt>
      <trkpt lat="45.54052" lon="6.915">
        <ele>1659</ele>
        <time>2014-03-14T09:18:38.170Z</time>
      </trkpt>
      <trkpt lat="45.5406" lon="6.91492">
        <ele>1661</ele>
        <time>2014-03-14T09:18:51.239Z</time>
      </trkpt>
      <trkpt lat="45.5406" lon="6.91491">
        <ele>1661</ele>
        <time>2014-03-14T09:18:52.201Z</time>
      </trkpt>
      <trkpt lat="45.54065" lon="6.91482">
        <ele>1661</ele>
        <time>2014-03-14T09:19:00.134Z</time>
      </trkpt>
      <trkpt lat="45.54065" lon="6.9148">
        <ele>1660</ele>
        <time>2014-03-14T09:19:01.227Z</time>
      </trkpt>
      <trkpt lat="45.54066" lon="6.91469">
        <ele>1659</ele>
        <time>2014-03-14T09:20:06.158Z</time>
      </trkpt>
      <trkpt lat="45.54066" lon="6.91467">
        <ele>1658</ele>
        <time>2014-03-14T09:20:07.152Z</time>
      </trkpt>
      <trkpt lat="45.54071" lon="6.91459">
        <ele>1658</ele>
        <time>2014-03-14T09:20:40.132Z</time>
      </trkpt>
      <trkpt lat="45.54072" lon="6.91458">
        <ele>1658</ele>
        <time>2014-03-14T09:20:41.288Z</time>
      </trkpt>
      <trkpt lat="45.54077" lon="6.91449">
        <ele>1657</ele>
        <time>2014-03-14T09:20:50.194Z</time>
      </trkpt>
      <trkpt lat="45.54078" lon="6.91448">
        <ele>1657</ele>
        <time>2014-03-14T09:20:51.163Z</time>
      </trkpt>
      <trkpt lat="45.54085" lon="6.91441">
        <ele>1668</ele>
        <time>2014-03-14T09:21:00.221Z</time>
      </trkpt>
      <trkpt lat="45.54086" lon="6.9144">
        <ele>1668</ele>
        <time>2014-03-14T09:21:01.222Z</time>
      </trkpt>
      <trkpt lat="45.54093" lon="6.91434">
        <ele>1668</ele>
        <time>2014-03-14T09:21:10.177Z</time>
      </trkpt>
      <trkpt lat="45.54094" lon="6.91433">
        <ele>1667</ele>
        <time>2014-03-14T09:21:11.258Z</time>
      </trkpt>
      <trkpt lat="45.54101" lon="6.91428">
        <ele>1668</ele>
        <time>2014-03-14T09:21:18.156Z</time>
      </trkpt>
      <trkpt lat="45.54102" lon="6.91427">
        <ele>1668</ele>
        <time>2014-03-14T09:21:19.250Z</time>
      </trkpt>
      <trkpt lat="45.5411" lon="6.91425">
        <ele>1670</ele>
        <time>2014-03-14T09:21:26.215Z</time>
      </trkpt>
      <trkpt lat="45.54112" lon="6.91423">
        <ele>1670</ele>
        <time>2014-03-14T09:21:27.237Z</time>
      </trkpt>
      <trkpt lat="45.54119" lon="6.91417">
        <ele>1657</ele>
        <time>2014-03-14T09:21:35.151Z</time>
      </trkpt>
      <trkpt lat="45.5412" lon="6.91417">
        <ele>1657</ele>
        <time>2014-03-14T09:21:36.271Z</time>
      </trkpt>
      <trkpt lat="45.54128" lon="6.91414">
        <ele>1658</ele>
        <time>2014-03-14T09:21:44.154Z</time>
      </trkpt>
      <trkpt lat="45.5413" lon="6.91413">
        <ele>1658</ele>
        <time>2014-03-14T09:21:45.243Z</time>
      </trkpt>
      <trkpt lat="45.54137" lon="6.91406">
        <ele>1659</ele>
        <time>2014-03-14T09:21:53.269Z</time>
      </trkpt>
      <trkpt lat="45.54137" lon="6.91405">
        <ele>1659</ele>
        <time>2014-03-14T09:21:54.146Z</time>
      </trkpt>
      <trkpt lat="45.54144" lon="6.91398">
        <ele>1659</ele>
        <time>2014-03-14T09:22:14.131Z</time>
      </trkpt>
      <trkpt lat="45.54145" lon="6.91397">
        <ele>1659</ele>
        <time>2014-03-14T09:22:15.132Z</time>
      </trkpt>
      <trkpt lat="45.5415" lon="6.9139">
        <ele>1658</ele>
        <time>2014-03-14T09:22:22.258Z</time>
      </trkpt>
      <trkpt lat="45.54152" lon="6.91389">
        <ele>1658</ele>
        <time>2014-03-14T09:22:23.220Z</time>
      </trkpt>
      <trkpt lat="45.54158" lon="6.91382">
        <ele>1657</ele>
        <time>2014-03-14T09:22:29.149Z</time>
      </trkpt>
      <trkpt lat="45.54159" lon="6.91381">
        <ele>1657</ele>
        <time>2014-03-14T09:22:30.149Z</time>
      </trkpt>
      <trkpt lat="45.54166" lon="6.91374">
        <ele>1655</ele>
        <time>2014-03-14T09:22:38.148Z</time>
      </trkpt>
      <trkpt lat="45.54167" lon="6.91374">
        <ele>1659</ele>
        <time>2014-03-14T09:22:39.229Z</time>
      </trkpt>
      <trkpt lat="45.54176" lon="6.91371">
        <ele>1658</ele>
        <time>2014-03-14T09:22:47.144Z</time>
      </trkpt>
      <trkpt lat="45.54177" lon="6.91371">
        <ele>1658</ele>
        <time>2014-03-14T09:22:48.138Z</time>
      </trkpt>
      <trkpt lat="45.54184" lon="6.91379">
        <ele>1660</ele>
        <time>2014-03-14T09:22:59.282Z</time>
      </trkpt>
      <trkpt lat="45.54184" lon="6.91379">
        <ele>1660</ele>
        <time>2014-03-14T09:23:00.192Z</time>
      </trkpt>
      <trkpt lat="45.54191" lon="6.91386">
        <ele>1662</ele>
        <time>2014-03-14T09:23:12.219Z</time>
      </trkpt>
      <trkpt lat="45.54192" lon="6.91387">
        <ele>1662</ele>
        <time>2014-03-14T09:23:13.148Z</time>
      </trkpt>
      <trkpt lat="45.54199" lon="6.91395">
        <ele>1663</ele>
        <time>2014-03-14T09:23:17.221Z</time>
      </trkpt>
      <trkpt lat="45.54201" lon="6.91397">
        <ele>1663</ele>
        <time>2014-03-14T09:23:18.223Z</time>
      </trkpt>
      <trkpt lat="45.54209" lon="6.91402">
        <ele>1663</ele>
        <time>2014-03-14T09:23:26.147Z</time>
      </trkpt>
      <trkpt lat="45.54211" lon="6.91402">
        <ele>1663</ele>
        <time>2014-03-14T09:23:27.147Z</time>
      </trkpt>
      <trkpt lat="45.54219" lon="6.91405">
        <ele>1663</ele>
        <time>2014-03-14T09:23:54.126Z</time>
      </trkpt>
      <trkpt lat="45.5422" lon="6.91406">
        <ele>1664</ele>
        <time>2014-03-14T09:23:55.147Z</time>
      </trkpt>
      <trkpt lat="45.54228" lon="6.9141">
        <ele>1665</ele>
        <time>2014-03-14T09:23:59.262Z</time>
      </trkpt>
      <trkpt lat="45.5423" lon="6.9141">
        <ele>1665</ele>
        <time>2014-03-14T09:24:00.152Z</time>
      </trkpt>
      <trkpt lat="45.54238" lon="6.9141">
        <ele>1667</ele>
        <time>2014-03-14T09:24:14.128Z</time>
      </trkpt>
      <trkpt lat="45.54239" lon="6.9141">
        <ele>1667</ele>
        <time>2014-03-14T09:24:15.129Z</time>
      </trkpt>
      <trkpt lat="45.54248" lon="6.91408">
        <ele>1668</ele>
        <time>2014-03-14T09:24:23.147Z</time>
      </trkpt>
      <trkpt lat="45.54249" lon="6.91408">
        <ele>1668</ele>
        <time>2014-03-14T09:24:24.168Z</time>
      </trkpt>
      <trkpt lat="45.54257" lon="6.9141">
        <ele>1667</ele>
        <time>2014-03-14T09:24:29.148Z</time>
      </trkpt>
      <trkpt lat="45.54258" lon="6.91411">
        <ele>1667</ele>
        <time>2014-03-14T09:24:30.160Z</time>
      </trkpt>
      <trkpt lat="45.54264" lon="6.91415">
        <ele>1666</ele>
        <time>2014-03-14T09:24:34.147Z</time>
      </trkpt>
      <trkpt lat="45.54268" lon="6.91417">
        <ele>1666</ele>
        <time>2014-03-14T09:24:35.169Z</time>
      </trkpt>
      <trkpt lat="45.54276" lon="6.91422">
        <ele>1678</ele>
        <time>2014-03-14T09:24:45.148Z</time>
      </trkpt>
      <trkpt lat="45.54276" lon="6.91422">
        <ele>1679</ele>
        <time>2014-03-14T09:24:46.145Z</time>
      </trkpt>
      <trkpt lat="45.5428" lon="6.91431">
        <ele>1680</ele>
        <time>2014-03-14T09:24:52.157Z</time>
      </trkpt>
      <trkpt lat="45.54281" lon="6.91433">
        <ele>1680</ele>
        <time>2014-03-14T09:24:53.126Z</time>
      </trkpt>
      <trkpt lat="45.54288" lon="6.91442">
        <ele>1681</ele>
        <time>2014-03-14T09:25:05.146Z</time>
      </trkpt>
      <trkpt lat="45.54288" lon="6.91443">
        <ele>1681</ele>
        <time>2014-03-14T09:25:06.175Z</time>
      </trkpt>
      <trkpt lat="45.54294" lon="6.9145">
        <ele>1682</ele>
        <time>2014-03-14T09:25:14.144Z</time>
      </trkpt>
      <trkpt lat="45.54295" lon="6.91451">
        <ele>1682</ele>
        <time>2014-03-14T09:25:15.155Z</time>
      </trkpt>
      <trkpt lat="45.54293" lon="6.91462">
        <ele>1684</ele>
        <time>2014-03-14T09:25:20.146Z</time>
      </trkpt>
      <trkpt lat="45.54291" lon="6.91464">
        <ele>1684</ele>
        <time>2014-03-14T09:25:21.203Z</time>
      </trkpt>
      <trkpt lat="45.54298" lon="6.91468">
        <ele>1684</ele>
        <time>2014-03-14T09:25:26.299Z</time>
      </trkpt>
      <trkpt lat="45.54301" lon="6.9147">
        <ele>1684</ele>
        <time>2014-03-14T09:25:27.125Z</time>
      </trkpt>
      <trkpt lat="45.54306" lon="6.91475">
        <ele>1685</ele>
        <time>2014-03-14T09:25:30.157Z</time>
      </trkpt>
      <trkpt lat="45.54309" lon="6.91475">
        <ele>1684</ele>
        <time>2014-03-14T09:25:31.223Z</time>
      </trkpt>
      <trkpt lat="45.54316" lon="6.91473">
        <ele>1684</ele>
        <time>2014-03-14T09:25:34.156Z</time>
      </trkpt>
      <trkpt lat="45.54318" lon="6.91473">
        <ele>1684</ele>
        <time>2014-03-14T09:25:35.203Z</time>
      </trkpt>
      <trkpt lat="45.54324" lon="6.91482">
        <ele>1685</ele>
        <time>2014-03-14T09:26:10.144Z</time>
      </trkpt>
      <trkpt lat="45.54324" lon="6.91483">
        <ele>1685</ele>
        <time>2014-03-14T09:26:11.125Z</time>
      </trkpt>
      <trkpt lat="45.54323" lon="6.91495">
        <ele>1686</ele>
        <time>2014-03-14T09:26:24.238Z</time>
      </trkpt>
      <trkpt lat="45.54323" lon="6.91496">
        <ele>1686</ele>
        <time>2014-03-14T09:26:25.154Z</time>
      </trkpt>
      <trkpt lat="45.54325" lon="6.91507">
        <ele>1692</ele>
        <time>2014-03-14T09:26:34.353Z</time>
      </trkpt>
      <trkpt lat="45.54325" lon="6.91509">
        <ele>1693</ele>
        <time>2014-03-14T09:26:35.175Z</time>
      </trkpt>
      <trkpt lat="45.54331" lon="6.91516">
        <ele>1694</ele>
        <time>2014-03-14T09:26:42.134Z</time>
      </trkpt>
      <trkpt lat="45.54333" lon="6.91517">
        <ele>1694</ele>
        <time>2014-03-14T09:26:43.157Z</time>
      </trkpt>
      <trkpt lat="45.5434" lon="6.91523">
        <ele>1691</ele>
        <time>2014-03-14T09:26:45.144Z</time>
      </trkpt>
      <trkpt lat="45.54345" lon="6.91525">
        <ele>1691</ele>
        <time>2014-03-14T09:26:46.143Z</time>
      </trkpt>
      <trkpt lat="45.54353" lon="6.91529">
        <ele>1692</ele>
        <time>2014-03-14T09:26:48.305Z</time>
      </trkpt>
      <trkpt lat="45.54356" lon="6.91531">
        <ele>1692</ele>
        <time>2014-03-14T09:26:49.332Z</time>
      </trkpt>
      <trkpt lat="45.54364" lon="6.9153">
        <ele>1692</ele>
        <time>2014-03-14T09:26:52.184Z</time>
      </trkpt>
      <trkpt lat="45.54365" lon="6.9153">
        <ele>1692</ele>
        <time>2014-03-14T09:26:53.205Z</time>
      </trkpt>
      <trkpt lat="45.54367" lon="6.91518">
        <ele>1691</ele>
        <time>2014-03-14T09:27:04.153Z</time>
      </trkpt>
      <trkpt lat="45.54367" lon="6.91516">
        <ele>1691</ele>
        <time>2014-03-14T09:27:05.197Z</time>
      </trkpt>
      <trkpt lat="45.54374" lon="6.91508">
        <ele>1691</ele>
        <time>2014-03-14T09:27:20.217Z</time>
      </trkpt>
      <trkpt lat="45.54374" lon="6.91507">
        <ele>1691</ele>
        <time>2014-03-14T09:27:21.270Z</time>
      </trkpt>
      <trkpt lat="45.54382" lon="6.91502">
        <ele>1691</ele>
        <time>2014-03-14T09:27:31.252Z</time>
      </trkpt>
      <trkpt lat="45.54382" lon="6.91501">
        <ele>1690</ele>
        <time>2014-03-14T09:27:32.173Z</time>
      </trkpt>
      <trkpt lat="45.5439" lon="6.91496">
        <ele>1683</ele>
        <time>2014-03-14T09:27:42.207Z</time>
      </trkpt>
      <trkpt lat="45.54391" lon="6.91496">
        <ele>1683</ele>
        <time>2014-03-14T09:27:43.153Z</time>
      </trkpt>
      <trkpt lat="45.54399" lon="6.91493">
        <ele>1683</ele>
        <time>2014-03-14T09:27:49.216Z</time>
      </trkpt>
      <trkpt lat="45.544" lon="6.91492">
        <ele>1683</ele>
        <time>2014-03-14T09:27:50.170Z</time>
      </trkpt>
      <trkpt lat="45.54408" lon="6.91486">
        <ele>1683</ele>
        <time>2014-03-14T09:27:59.151Z</time>
      </trkpt>
      <trkpt lat="45.54409" lon="6.91486">
        <ele>1683</ele>
        <time>2014-03-14T09:28:00.224Z</time>
      </trkpt>
      <trkpt lat="45.54416" lon="6.9148">
        <ele>1683</ele>
        <time>2014-03-14T09:28:10.136Z</time>
      </trkpt>
      <trkpt lat="45.54417" lon="6.91479">
        <ele>1687</ele>
        <time>2014-03-14T09:28:11.201Z</time>
      </trkpt>
      <trkpt lat="45.54425" lon="6.91473">
        <ele>1688</ele>
        <time>2014-03-14T09:28:20.184Z</time>
      </trkpt>
      <trkpt lat="45.54425" lon="6.91472">
        <ele>1688</ele>
        <time>2014-03-14T09:28:21.271Z</time>
      </trkpt>
      <trkpt lat="45.54433" lon="6.91469">
        <ele>1688</ele>
        <time>2014-03-14T09:28:29.147Z</time>
      </trkpt>
      <trkpt lat="45.54434" lon="6.91469">
        <ele>1688</ele>
        <time>2014-03-14T09:28:30.183Z</time>
      </trkpt>
      <trkpt lat="45.54442" lon="6.91468">
        <ele>1689</ele>
        <time>2014-03-14T09:28:35.192Z</time>
      </trkpt>
      <trkpt lat="45.54444" lon="6.91468">
        <ele>1689</ele>
        <time>2014-03-14T09:28:36.163Z</time>
      </trkpt>
      <trkpt lat="45.54452" lon="6.91463">
        <ele>1690</ele>
        <time>2014-03-14T09:28:42.197Z</time>
      </trkpt>
      <trkpt lat="45.54453" lon="6.91463">
        <ele>1690</ele>
        <time>2014-03-14T09:28:43.159Z</time>
      </trkpt>
      <trkpt lat="45.54461" lon="6.9146">
        <ele>1690</ele>
        <time>2014-03-14T09:28:49.247Z</time>
      </trkpt>
      <trkpt lat="45.54462" lon="6.9146">
        <ele>1690</ele>
        <time>2014-03-14T09:28:50.252Z</time>
      </trkpt>
      <trkpt lat="45.5447" lon="6.91456">
        <ele>1691</ele>
        <time>2014-03-14T09:28:59.190Z</time>
      </trkpt>
      <trkpt lat="45.54471" lon="6.91455">
        <ele>1691</ele>
        <time>2014-03-14T09:29:00.171Z</time>
      </trkpt>
      <trkpt lat="45.54478" lon="6.9145">
        <ele>1691</ele>
        <time>2014-03-14T09:29:10.141Z</time>
      </trkpt>
      <trkpt lat="45.54479" lon="6.91449">
        <ele>1691</ele>
        <time>2014-03-14T09:29:11.290Z</time>
      </trkpt>
      <trkpt lat="45.54487" lon="6.91446">
        <ele>1691</ele>
        <time>2014-03-14T09:29:20.257Z</time>
      </trkpt>
      <trkpt lat="45.54488" lon="6.91445">
        <ele>1691</ele>
        <time>2014-03-14T09:29:21.249Z</time>
      </trkpt>
      <trkpt lat="45.54493" lon="6.91434">
        <ele>1691</ele>
        <time>2014-03-14T09:29:33.196Z</time>
      </trkpt>
      <trkpt lat="45.54495" lon="6.91433">
        <ele>1691</ele>
        <time>2014-03-14T09:29:34.182Z</time>
      </trkpt>
      <trkpt lat="45.54503" lon="6.9143">
        <ele>1698</ele>
        <time>2014-03-14T09:29:40.171Z</time>
      </trkpt>
      <trkpt lat="45.54504" lon="6.9143">
        <ele>1698</ele>
        <time>2014-03-14T09:29:41.197Z</time>
      </trkpt>
      <trkpt lat="45.54511" lon="6.91424">
        <ele>1698</ele>
        <time>2014-03-14T09:29:49.244Z</time>
      </trkpt>
      <trkpt lat="45.54513" lon="6.91423">
        <ele>1698</ele>
        <time>2014-03-14T09:29:50.211Z</time>
      </trkpt>
      <trkpt lat="45.54519" lon="6.91417">
        <ele>1700</ele>
        <time>2014-03-14T09:29:57.150Z</time>
      </trkpt>
      <trkpt lat="45.5452" lon="6.91416">
        <ele>1693</ele>
        <time>2014-03-14T09:29:58.220Z</time>
      </trkpt>
      <trkpt lat="45.54525" lon="6.91407">
        <ele>1693</ele>
        <time>2014-03-14T09:30:05.195Z</time>
      </trkpt>
      <trkpt lat="45.54526" lon="6.91404">
        <ele>1693</ele>
        <time>2014-03-14T09:30:06.208Z</time>
      </trkpt>
      <trkpt lat="45.54533" lon="6.91397">
        <ele>1694</ele>
        <time>2014-03-14T09:30:09.200Z</time>
      </trkpt>
      <trkpt lat="45.54537" lon="6.91396">
        <ele>1694</ele>
        <time>2014-03-14T09:30:10.147Z</time>
      </trkpt>
      <trkpt lat="45.54545" lon="6.91389">
        <ele>1694</ele>
        <time>2014-03-14T09:30:21.176Z</time>
      </trkpt>
      <trkpt lat="45.54545" lon="6.91389">
        <ele>1694</ele>
        <time>2014-03-14T09:30:22.335Z</time>
      </trkpt>
      <trkpt lat="45.5454" lon="6.91398">
        <ele>1694</ele>
        <time>2014-03-14T09:30:28.249Z</time>
      </trkpt>
      <trkpt lat="45.54539" lon="6.914">
        <ele>1694</ele>
        <time>2014-03-14T09:30:29.197Z</time>
      </trkpt>
      <trkpt lat="45.54548" lon="6.91398">
        <ele>1695</ele>
        <time>2014-03-14T09:30:47.195Z</time>
      </trkpt>
      <trkpt lat="45.54551" lon="6.91394">
        <ele>1696</ele>
        <time>2014-03-14T09:30:48.149Z</time>
      </trkpt>
      <trkpt lat="45.54557" lon="6.91387">
        <ele>1695</ele>
        <time>2014-03-14T09:30:50.146Z</time>
      </trkpt>
      <trkpt lat="45.54559" lon="6.91384">
        <ele>1695</ele>
        <time>2014-03-14T09:30:51.219Z</time>
      </trkpt>
      <trkpt lat="45.54567" lon="6.91388">
        <ele>1697</ele>
        <time>2014-03-14T09:30:56.198Z</time>
      </trkpt>
      <trkpt lat="45.54566" lon="6.91394">
        <ele>1697</ele>
        <time>2014-03-14T09:30:57.194Z</time>
      </trkpt>
      <trkpt lat="45.54569" lon="6.91397">
        <ele>1698</ele>
        <time>2014-03-14T09:31:03.198Z</time>
      </trkpt>
      <trkpt lat="45.54573" lon="6.91368">
        <ele>1694</ele>
        <time>2014-03-14T09:31:04.251Z</time>
      </trkpt>
      <trkpt lat="45.5458" lon="6.91363">
        <ele>1694</ele>
        <time>2014-03-14T09:31:09.125Z</time>
      </trkpt>
      <trkpt lat="45.54582" lon="6.91362">
        <ele>1694</ele>
        <time>2014-03-14T09:31:10.139Z</time>
      </trkpt>
      <trkpt lat="45.54586" lon="6.9136">
        <ele>1703</ele>
        <time>2014-03-14T09:31:12.255Z</time>
      </trkpt>
      <trkpt lat="45.5459" lon="6.91357">
        <ele>1703</ele>
        <time>2014-03-14T09:31:13.139Z</time>
      </trkpt>
      <trkpt lat="45.54598" lon="6.91352">
        <ele>1703</ele>
        <time>2014-03-14T09:31:16.174Z</time>
      </trkpt>
      <trkpt lat="45.546" lon="6.91351">
        <ele>1703</ele>
        <time>2014-03-14T09:31:17.233Z</time>
      </trkpt>
      <trkpt lat="45.54606" lon="6.91342">
        <ele>1703</ele>
        <time>2014-03-14T09:31:35.195Z</time>
      </trkpt>
      <trkpt lat="45.54607" lon="6.91342">
        <ele>1703</ele>
        <time>2014-03-14T09:31:36.237Z</time>
      </trkpt>
      <trkpt lat="45.54615" lon="6.91337">
        <ele>1705</ele>
        <time>2014-03-14T09:32:09.274Z</time>
      </trkpt>
      <trkpt lat="45.54616" lon="6.91337">
        <ele>1705</ele>
        <time>2014-03-14T09:32:10.191Z</time>
      </trkpt>
      <trkpt lat="45.54624" lon="6.91334">
        <ele>1707</ele>
        <time>2014-03-14T09:32:17.262Z</time>
      </trkpt>
      <trkpt lat="45.54625" lon="6.91334">
        <ele>1707</ele>
        <time>2014-03-14T09:32:18.176Z</time>
      </trkpt>
      <trkpt lat="45.54634" lon="6.91332">
        <ele>1698</ele>
        <time>2014-03-14T09:32:29.156Z</time>
      </trkpt>
      <trkpt lat="45.54634" lon="6.91333">
        <ele>1699</ele>
        <time>2014-03-14T09:32:30.194Z</time>
      </trkpt>
      <trkpt lat="45.54631" lon="6.91344">
        <ele>1709</ele>
        <time>2014-03-14T09:35:30.131Z</time>
      </trkpt>
      <trkpt lat="45.54631" lon="6.91345">
        <ele>1709</ele>
        <time>2014-03-14T09:35:31.294Z</time>
      </trkpt>
      <trkpt lat="45.54626" lon="6.9135">
        <ele>1708</ele>
        <time>2014-03-14T09:36:29.138Z</time>
      </trkpt>
      <trkpt lat="45.54624" lon="6.91353">
        <ele>1708</ele>
        <time>2014-03-14T09:36:30.139Z</time>
      </trkpt>
      <trkpt lat="45.54617" lon="6.91361">
        <ele>1708</ele>
        <time>2014-03-14T09:36:39.114Z</time>
      </trkpt>
      <trkpt lat="45.54616" lon="6.91361">
        <ele>1708</ele>
        <time>2014-03-14T09:36:40.113Z</time>
      </trkpt>
      <trkpt lat="45.5461" lon="6.91366">
        <ele>1707</ele>
        <time>2014-03-14T09:36:48.186Z</time>
      </trkpt>
      <trkpt lat="45.54608" lon="6.91367">
        <ele>1707</ele>
        <time>2014-03-14T09:36:49.149Z</time>
      </trkpt>
      <trkpt lat="45.54601" lon="6.91373">
        <ele>1707</ele>
        <time>2014-03-14T09:36:53.155Z</time>
      </trkpt>
      <trkpt lat="45.546" lon="6.91374">
        <ele>1707</ele>
        <time>2014-03-14T09:36:54.235Z</time>
      </trkpt>
      <trkpt lat="45.54593" lon="6.91383">
        <ele>1708</ele>
        <time>2014-03-14T09:37:04.234Z</time>
      </trkpt>
      <trkpt lat="45.54593" lon="6.91384">
        <ele>1708</ele>
        <time>2014-03-14T09:37:05.174Z</time>
      </trkpt>
      <trkpt lat="45.5459" lon="6.91394">
        <ele>1709</ele>
        <time>2014-03-14T09:37:12.138Z</time>
      </trkpt>
      <trkpt lat="45.5459" lon="6.91397">
        <ele>1709</ele>
        <time>2014-03-14T09:37:13.177Z</time>
      </trkpt>
      <trkpt lat="45.54588" lon="6.91408">
        <ele>1709</ele>
        <time>2014-03-14T09:37:19.249Z</time>
      </trkpt>
      <trkpt lat="45.54587" lon="6.91409">
        <ele>1709</ele>
        <time>2014-03-14T09:37:20.148Z</time>
      </trkpt>
      <trkpt lat="45.54586" lon="6.9142">
        <ele>1712</ele>
        <time>2014-03-14T09:37:29.182Z</time>
      </trkpt>
      <trkpt lat="45.54586" lon="6.91422">
        <ele>1713</ele>
        <time>2014-03-14T09:37:30.144Z</time>
      </trkpt>
      <trkpt lat="45.54582" lon="6.91434">
        <ele>1708</ele>
        <time>2014-03-14T09:37:37.140Z</time>
      </trkpt>
      <trkpt lat="45.54582" lon="6.91436">
        <ele>1709</ele>
        <time>2014-03-14T09:37:38.137Z</time>
      </trkpt>
      <trkpt lat="45.54579" lon="6.91444">
        <ele>1709</ele>
        <time>2014-03-14T09:37:43.128Z</time>
      </trkpt>
      <trkpt lat="45.54568" lon="6.91468">
        <ele>1712</ele>
        <time>2014-03-14T09:37:51.174Z</time>
      </trkpt>
      <trkpt lat="45.54565" lon="6.91479">
        <ele>1714</ele>
        <time>2014-03-14T09:38:12.185Z</time>
      </trkpt>
      <trkpt lat="45.54564" lon="6.9148">
        <ele>1714</ele>
        <time>2014-03-14T09:38:13.134Z</time>
      </trkpt>
      <trkpt lat="45.54563" lon="6.91492">
        <ele>1716</ele>
        <time>2014-03-14T09:38:32.168Z</time>
      </trkpt>
      <trkpt lat="45.54564" lon="6.91493">
        <ele>1716</ele>
        <time>2014-03-14T09:38:33.262Z</time>
      </trkpt>
      <trkpt lat="45.54562" lon="6.91504">
        <ele>1725</ele>
        <time>2014-03-14T09:38:46.196Z</time>
      </trkpt>
      <trkpt lat="45.54561" lon="6.91506">
        <ele>1725</ele>
        <time>2014-03-14T09:38:47.113Z</time>
      </trkpt>
      <trkpt lat="45.54554" lon="6.91514">
        <ele>1725</ele>
        <time>2014-03-14T09:38:59.133Z</time>
      </trkpt>
      <trkpt lat="45.54553" lon="6.91515">
        <ele>1725</ele>
        <time>2014-03-14T09:39:00.186Z</time>
      </trkpt>
      <trkpt lat="45.54546" lon="6.91523">
        <ele>1724</ele>
        <time>2014-03-14T09:39:06.147Z</time>
      </trkpt>
      <trkpt lat="45.54546" lon="6.91523">
        <ele>1724</ele>
        <time>2014-03-14T09:39:07.303Z</time>
      </trkpt>
      <trkpt lat="45.54542" lon="6.91534">
        <ele>1725</ele>
        <time>2014-03-14T09:39:31.251Z</time>
      </trkpt>
      <trkpt lat="45.54542" lon="6.91535">
        <ele>1725</ele>
        <time>2014-03-14T09:39:32.191Z</time>
      </trkpt>
      <trkpt lat="45.54533" lon="6.9154">
        <ele>1724</ele>
        <time>2014-03-14T09:40:04.211Z</time>
      </trkpt>
      <trkpt lat="45.54533" lon="6.91541">
        <ele>1725</ele>
        <time>2014-03-14T09:40:05.336Z</time>
      </trkpt>
      <trkpt lat="45.54531" lon="6.91553">
        <ele>1726</ele>
        <time>2014-03-14T09:40:19.220Z</time>
      </trkpt>
      <trkpt lat="45.54532" lon="6.91554">
        <ele>1726</ele>
        <time>2014-03-14T09:40:20.165Z</time>
      </trkpt>
      <trkpt lat="45.54532" lon="6.91567">
        <ele>1727</ele>
        <time>2014-03-14T09:40:29.294Z</time>
      </trkpt>
      <trkpt lat="45.54532" lon="6.91568">
        <ele>1727</ele>
        <time>2014-03-14T09:40:30.219Z</time>
      </trkpt>
      <trkpt lat="45.5453" lon="6.9158">
        <ele>1728</ele>
        <time>2014-03-14T09:40:39.149Z</time>
      </trkpt>
      <trkpt lat="45.5453" lon="6.91582">
        <ele>1728</ele>
        <time>2014-03-14T09:40:40.271Z</time>
      </trkpt>
      <trkpt lat="45.54527" lon="6.91593">
        <ele>1739</ele>
        <time>2014-03-14T09:40:47.136Z</time>
      </trkpt>
      <trkpt lat="45.54526" lon="6.91595">
        <ele>1739</ele>
        <time>2014-03-14T09:40:48.279Z</time>
      </trkpt>
      <trkpt lat="45.54524" lon="6.91607">
        <ele>1740</ele>
        <time>2014-03-14T09:41:06.253Z</time>
      </trkpt>
      <trkpt lat="45.54524" lon="6.91609">
        <ele>1740</ele>
        <time>2014-03-14T09:41:07.211Z</time>
      </trkpt>
      <trkpt lat="45.54523" lon="6.91621">
        <ele>1742</ele>
        <time>2014-03-14T09:41:15.267Z</time>
      </trkpt>
      <trkpt lat="45.54523" lon="6.91623">
        <ele>1742</ele>
        <time>2014-03-14T09:41:16.131Z</time>
      </trkpt>
      <trkpt lat="45.54522" lon="6.91634">
        <ele>1744</ele>
        <time>2014-03-14T09:41:22.275Z</time>
      </trkpt>
      <trkpt lat="45.54522" lon="6.91636">
        <ele>1744</ele>
        <time>2014-03-14T09:41:23.173Z</time>
      </trkpt>
      <trkpt lat="45.5453" lon="6.91632">
        <ele>1744</ele>
        <time>2014-03-14T09:42:24.225Z</time>
      </trkpt>
      <trkpt lat="45.54531" lon="6.91634">
        <ele>1745</ele>
        <time>2014-03-14T09:42:25.264Z</time>
      </trkpt>
      <trkpt lat="45.54538" lon="6.9164">
        <ele>1746</ele>
        <time>2014-03-14T09:42:33.334Z</time>
      </trkpt>
      <trkpt lat="45.54539" lon="6.91641">
        <ele>1746</ele>
        <time>2014-03-14T09:42:34.224Z</time>
      </trkpt>
      <trkpt lat="45.54545" lon="6.91649">
        <ele>1748</ele>
        <time>2014-03-14T09:42:38.294Z</time>
      </trkpt>
      <trkpt lat="45.54546" lon="6.9165">
        <ele>1748</ele>
        <time>2014-03-14T09:42:39.164Z</time>
      </trkpt>
      <trkpt lat="45.54553" lon="6.91642">
        <ele>1749</ele>
        <time>2014-03-14T09:42:44.140Z</time>
      </trkpt>
      <trkpt lat="45.54554" lon="6.91642">
        <ele>1749</ele>
        <time>2014-03-14T09:42:45.133Z</time>
      </trkpt>
      <trkpt lat="45.54561" lon="6.91644">
        <ele>1750</ele>
        <time>2014-03-14T09:42:56.144Z</time>
      </trkpt>
      <trkpt lat="45.54563" lon="6.91643">
        <ele>1751</ele>
        <time>2014-03-14T09:42:57.249Z</time>
      </trkpt>
      <trkpt lat="45.54571" lon="6.91643">
        <ele>1752</ele>
        <time>2014-03-14T09:42:59.168Z</time>
      </trkpt>
      <trkpt lat="45.54575" lon="6.91643">
        <ele>1752</ele>
        <time>2014-03-14T09:43:00.175Z</time>
      </trkpt>
      <trkpt lat="45.54581" lon="6.91637">
        <ele>1752</ele>
        <time>2014-03-14T09:43:02.138Z</time>
      </trkpt>
      <trkpt lat="45.54582" lon="6.91635">
        <ele>1751</ele>
        <time>2014-03-14T09:43:03.148Z</time>
      </trkpt>
      <trkpt lat="45.54588" lon="6.91627">
        <ele>1766</ele>
        <time>2014-03-14T09:43:28.256Z</time>
      </trkpt>
      <trkpt lat="45.54588" lon="6.91625">
        <ele>1766</ele>
        <time>2014-03-14T09:43:29.158Z</time>
      </trkpt>
      <trkpt lat="45.54591" lon="6.91614">
        <ele>1764</ele>
        <time>2014-03-14T09:43:39.199Z</time>
      </trkpt>
      <trkpt lat="45.54591" lon="6.91613">
        <ele>1764</ele>
        <time>2014-03-14T09:43:40.296Z</time>
      </trkpt>
      <trkpt lat="45.54597" lon="6.91604">
        <ele>1762</ele>
        <time>2014-03-14T09:43:48.116Z</time>
      </trkpt>
      <trkpt lat="45.54596" lon="6.91602">
        <ele>1762</ele>
        <time>2014-03-14T09:43:49.216Z</time>
      </trkpt>
      <trkpt lat="45.54604" lon="6.91597">
        <ele>1762</ele>
        <time>2014-03-14T09:44:09.158Z</time>
      </trkpt>
      <trkpt lat="45.54604" lon="6.91595">
        <ele>1762</ele>
        <time>2014-03-14T09:44:10.306Z</time>
      </trkpt>
      <trkpt lat="45.54606" lon="6.91588">
        <ele>1762</ele>
        <time>2014-03-14T09:44:12.335Z</time>
      </trkpt>
      <trkpt lat="45.54606" lon="6.91582">
        <ele>1750</ele>
        <time>2014-03-14T09:44:13.153Z</time>
      </trkpt>
      <trkpt lat="45.54606" lon="6.9157">
        <ele>1750</ele>
        <time>2014-03-14T09:44:15.122Z</time>
      </trkpt>
      <trkpt lat="45.54606" lon="6.91565">
        <ele>1750</ele>
        <time>2014-03-14T09:44:16.253Z</time>
      </trkpt>
      <trkpt lat="45.54607" lon="6.91553">
        <ele>1749</ele>
        <time>2014-03-14T09:44:21.165Z</time>
      </trkpt>
      <trkpt lat="45.54608" lon="6.91552">
        <ele>1749</ele>
        <time>2014-03-14T09:44:22.153Z</time>
      </trkpt>
      <trkpt lat="45.54616" lon="6.91551">
        <ele>1750</ele>
        <time>2014-03-14T09:44:35.291Z</time>
      </trkpt>
      <trkpt lat="45.54617" lon="6.9155">
        <ele>1750</ele>
        <time>2014-03-14T09:44:36.377Z</time>
      </trkpt>
      <trkpt lat="45.54625" lon="6.91548">
        <ele>1751</ele>
        <time>2014-03-14T09:44:44.136Z</time>
      </trkpt>
      <trkpt lat="45.54626" lon="6.91548">
        <ele>1751</ele>
        <time>2014-03-14T09:44:45.190Z</time>
      </trkpt>
      <trkpt lat="45.54634" lon="6.91551">
        <ele>1753</ele>
        <time>2014-03-14T09:44:58.197Z</time>
      </trkpt>
      <trkpt lat="45.54636" lon="6.91552">
        <ele>1753</ele>
        <time>2014-03-14T09:44:59.200Z</time>
      </trkpt>
      <trkpt lat="45.54644" lon="6.91555">
        <ele>1755</ele>
        <time>2014-03-14T09:45:05.174Z</time>
      </trkpt>
      <trkpt lat="45.54645" lon="6.91556">
        <ele>1756</ele>
        <time>2014-03-14T09:45:06.145Z</time>
      </trkpt>
      <trkpt lat="45.54652" lon="6.91559">
        <ele>1758</ele>
        <time>2014-03-14T09:45:11.182Z</time>
      </trkpt>
      <trkpt lat="45.54654" lon="6.91561">
        <ele>1759</ele>
        <time>2014-03-14T09:45:12.226Z</time>
      </trkpt>
      <trkpt lat="45.54662" lon="6.91563">
        <ele>1761</ele>
        <time>2014-03-14T09:45:16.241Z</time>
      </trkpt>
      <trkpt lat="45.54663" lon="6.91563">
        <ele>1761</ele>
        <time>2014-03-14T09:45:17.146Z</time>
      </trkpt>
      <trkpt lat="45.54668" lon="6.91553">
        <ele>1776</ele>
        <time>2014-03-14T09:45:30.164Z</time>
      </trkpt>
      <trkpt lat="45.54669" lon="6.91552">
        <ele>1776</ele>
        <time>2014-03-14T09:45:31.253Z</time>
      </trkpt>
      <trkpt lat="45.54674" lon="6.91544">
        <ele>1775</ele>
        <time>2014-03-14T09:45:37.213Z</time>
      </trkpt>
      <trkpt lat="45.54675" lon="6.91542">
        <ele>1775</ele>
        <time>2014-03-14T09:45:38.219Z</time>
      </trkpt>
      <trkpt lat="45.54682" lon="6.91536">
        <ele>1774</ele>
        <time>2014-03-14T09:45:45.124Z</time>
      </trkpt>
      <trkpt lat="45.54683" lon="6.91536">
        <ele>1775</ele>
        <time>2014-03-14T09:45:46.168Z</time>
      </trkpt>
      <trkpt lat="45.5469" lon="6.91534">
        <ele>1776</ele>
        <time>2014-03-14T09:45:58.108Z</time>
      </trkpt>
      <trkpt lat="45.54692" lon="6.91534">
        <ele>1776</ele>
        <time>2014-03-14T09:45:59.118Z</time>
      </trkpt>
      <trkpt lat="45.54697" lon="6.91529">
        <ele>1776</ele>
        <time>2014-03-14T09:46:02.202Z</time>
      </trkpt>
      <trkpt lat="45.54699" lon="6.91527">
        <ele>1776</ele>
        <time>2014-03-14T09:46:03.191Z</time>
      </trkpt>
      <trkpt lat="45.54704" lon="6.91518">
        <ele>1776</ele>
        <time>2014-03-14T09:46:07.124Z</time>
      </trkpt>
      <trkpt lat="45.54704" lon="6.91516">
        <ele>1776</ele>
        <time>2014-03-14T09:46:08.174Z</time>
      </trkpt>
      <trkpt lat="45.54709" lon="6.9151">
        <ele>1776</ele>
        <time>2014-03-14T09:46:13.248Z</time>
      </trkpt>
      <trkpt lat="45.54711" lon="6.91507">
        <ele>1777</ele>
        <time>2014-03-14T09:46:14.245Z</time>
      </trkpt>
      <trkpt lat="45.54717" lon="6.91498">
        <ele>1764</ele>
        <time>2014-03-14T09:46:16.164Z</time>
      </trkpt>
      <trkpt lat="45.5472" lon="6.91491">
        <ele>1765</ele>
        <time>2014-03-14T09:46:17.182Z</time>
      </trkpt>
      <trkpt lat="45.54714" lon="6.91497">
        <ele>1763</ele>
        <time>2014-03-14T09:46:21.230Z</time>
      </trkpt>
      <trkpt lat="45.54714" lon="6.91501">
        <ele>1777</ele>
        <time>2014-03-14T09:46:22.193Z</time>
      </trkpt>
      <trkpt lat="45.54722" lon="6.91501">
        <ele>1779</ele>
        <time>2014-03-14T09:46:33.206Z</time>
      </trkpt>
      <trkpt lat="45.54723" lon="6.91501">
        <ele>1780</ele>
        <time>2014-03-14T09:46:34.199Z</time>
      </trkpt>
      <trkpt lat="45.54721" lon="6.91512">
        <ele>1780</ele>
        <time>2014-03-14T09:46:41.132Z</time>
      </trkpt>
      <trkpt lat="45.54718" lon="6.91517">
        <ele>1780</ele>
        <time>2014-03-14T09:46:42.189Z</time>
      </trkpt>
      <trkpt lat="45.54725" lon="6.91509">
        <ele>1780</ele>
        <time>2014-03-14T09:46:48.130Z</time>
      </trkpt>
      <trkpt lat="45.54725" lon="6.91506">
        <ele>1780</ele>
        <time>2014-03-14T09:46:49.168Z</time>
      </trkpt>
      <trkpt lat="45.54729" lon="6.91495">
        <ele>1769</ele>
        <time>2014-03-14T09:46:53.203Z</time>
      </trkpt>
      <trkpt lat="45.5473" lon="6.91492">
        <ele>1769</ele>
        <time>2014-03-14T09:46:54.168Z</time>
      </trkpt>
      <trkpt lat="45.54734" lon="6.91482">
        <ele>1768</ele>
        <time>2014-03-14T09:46:58.207Z</time>
      </trkpt>
      <trkpt lat="45.54736" lon="6.9148">
        <ele>1767</ele>
        <time>2014-03-14T09:46:59.184Z</time>
      </trkpt>
      <trkpt lat="45.54744" lon="6.91482">
        <ele>1770</ele>
        <time>2014-03-14T09:47:10.111Z</time>
      </trkpt>
      <trkpt lat="45.54747" lon="6.91484">
        <ele>1772</ele>
        <time>2014-03-14T09:47:11.121Z</time>
      </trkpt>
      <trkpt lat="45.54755" lon="6.91481">
        <ele>1786</ele>
        <time>2014-03-14T09:47:24.221Z</time>
      </trkpt>
      <trkpt lat="45.54757" lon="6.91481">
        <ele>1786</ele>
        <time>2014-03-14T09:47:25.163Z</time>
      </trkpt>
      <trkpt lat="45.54761" lon="6.91476">
        <ele>1786</ele>
        <time>2014-03-14T09:47:27.242Z</time>
      </trkpt>
      <trkpt lat="45.54764" lon="6.91471">
        <ele>1786</ele>
        <time>2014-03-14T09:47:28.176Z</time>
      </trkpt>
      <trkpt lat="45.54768" lon="6.91462">
        <ele>1785</ele>
        <time>2014-03-14T09:47:29.258Z</time>
      </trkpt>
      <trkpt lat="45.54769" lon="6.91448">
        <ele>1782</ele>
        <time>2014-03-14T09:47:30.109Z</time>
      </trkpt>
      <trkpt lat="45.5477" lon="6.91445">
        <ele>1782</ele>
        <time>2014-03-14T09:47:31.105Z</time>
      </trkpt>
      <trkpt lat="45.54773" lon="6.91428">
        <ele>1778</ele>
        <time>2014-03-14T09:47:32.109Z</time>
      </trkpt>
      <trkpt lat="45.54779" lon="6.91424">
        <ele>1780</ele>
        <time>2014-03-14T09:47:34.107Z</time>
      </trkpt>
      <trkpt lat="45.54776" lon="6.914">
        <ele>1764</ele>
        <time>2014-03-14T09:47:35.187Z</time>
      </trkpt>
      <trkpt lat="45.5478" lon="6.91425">
        <ele>1781</ele>
        <time>2014-03-14T09:47:36.150Z</time>
      </trkpt>
      <trkpt lat="45.54786" lon="6.91429">
        <ele>1783</ele>
        <time>2014-03-14T09:47:37.106Z</time>
      </trkpt>
      <trkpt lat="45.54793" lon="6.91426">
        <ele>1784</ele>
        <time>2014-03-14T09:47:38.229Z</time>
      </trkpt>
      <trkpt lat="45.54785" lon="6.91425">
        <ele>1782</ele>
        <time>2014-03-14T09:47:40.318Z</time>
      </trkpt>
      <trkpt lat="45.54781" lon="6.91429">
        <ele>1781</ele>
        <time>2014-03-14T09:47:41.158Z</time>
      </trkpt>
      <trkpt lat="45.54787" lon="6.91425">
        <ele>1783</ele>
        <time>2014-03-14T09:47:42.125Z</time>
      </trkpt>
      <trkpt lat="45.54798" lon="6.91428">
        <ele>1786</ele>
        <time>2014-03-14T09:47:43.127Z</time>
      </trkpt>
      <trkpt lat="45.54804" lon="6.91423">
        <ele>1787</ele>
        <time>2014-03-14T09:47:44.146Z</time>
      </trkpt>
      <trkpt lat="45.5481" lon="6.91428">
        <ele>1788</ele>
        <time>2014-03-14T09:47:45.130Z</time>
      </trkpt>
      <trkpt lat="45.54808" lon="6.91423">
        <ele>1787</ele>
        <time>2014-03-14T09:47:49.309Z</time>
      </trkpt>
      <trkpt lat="45.54793" lon="6.9142">
        <ele>1784</ele>
        <time>2014-03-14T09:47:50.202Z</time>
      </trkpt>
      <trkpt lat="45.54797" lon="6.91415">
        <ele>1770</ele>
        <time>2014-03-14T09:47:51.217Z</time>
      </trkpt>
      <trkpt lat="45.54806" lon="6.91426">
        <ele>1787</ele>
        <time>2014-03-14T09:47:52.217Z</time>
      </trkpt>
      <trkpt lat="45.54809" lon="6.91425">
        <ele>1788</ele>
        <time>2014-03-14T09:47:55.222Z</time>
      </trkpt>
      <trkpt lat="45.54797" lon="6.9142">
        <ele>1785</ele>
        <time>2014-03-14T09:47:56.166Z</time>
      </trkpt>
      <trkpt lat="45.54805" lon="6.91416">
        <ele>1772</ele>
        <time>2014-03-14T09:48:16.175Z</time>
      </trkpt>
      <trkpt lat="45.54806" lon="6.91415">
        <ele>1773</ele>
        <time>2014-03-14T09:48:17.244Z</time>
      </trkpt>
      <trkpt lat="45.54814" lon="6.91409">
        <ele>1775</ele>
        <time>2014-03-14T09:48:26.197Z</time>
      </trkpt>
      <trkpt lat="45.54814" lon="6.91409">
        <ele>1776</ele>
        <time>2014-03-14T09:48:27.180Z</time>
      </trkpt>
      <trkpt lat="45.54823" lon="6.91406">
        <ele>1779</ele>
        <time>2014-03-14T09:48:36.265Z</time>
      </trkpt>
      <trkpt lat="45.54824" lon="6.91406">
        <ele>1779</ele>
        <time>2014-03-14T09:48:37.230Z</time>
      </trkpt>
      <trkpt lat="45.54832" lon="6.91403">
        <ele>1779</ele>
        <time>2014-03-14T09:48:44.225Z</time>
      </trkpt>
      <trkpt lat="45.54834" lon="6.91402">
        <ele>1789</ele>
        <time>2014-03-14T09:48:45.145Z</time>
      </trkpt>
      <trkpt lat="45.54841" lon="6.91397">
        <ele>1788</ele>
        <time>2014-03-14T09:48:53.126Z</time>
      </trkpt>
      <trkpt lat="45.54842" lon="6.91396">
        <ele>1788</ele>
        <time>2014-03-14T09:48:54.127Z</time>
      </trkpt>
      <trkpt lat="45.5485" lon="6.91391">
        <ele>1788</ele>
        <time>2014-03-14T09:49:01.271Z</time>
      </trkpt>
      <trkpt lat="45.54851" lon="6.9139">
        <ele>1788</ele>
        <time>2014-03-14T09:49:02.304Z</time>
      </trkpt>
      <trkpt lat="45.54858" lon="6.91384">
        <ele>1787</ele>
        <time>2014-03-14T09:49:11.176Z</time>
      </trkpt>
      <trkpt lat="45.54859" lon="6.91383">
        <ele>1787</ele>
        <time>2014-03-14T09:49:12.153Z</time>
      </trkpt>
      <trkpt lat="45.54867" lon="6.91382">
        <ele>1788</ele>
        <time>2014-03-14T09:49:30.324Z</time>
      </trkpt>
      <trkpt lat="45.54868" lon="6.91386">
        <ele>1789</ele>
        <time>2014-03-14T09:49:31.215Z</time>
      </trkpt>
      <trkpt lat="45.54876" lon="6.91382">
        <ele>1789</ele>
        <time>2014-03-14T09:49:38.212Z</time>
      </trkpt>
      <trkpt lat="45.54878" lon="6.91381">
        <ele>1789</ele>
        <time>2014-03-14T09:49:39.167Z</time>
      </trkpt>
      <trkpt lat="45.54885" lon="6.9138">
        <ele>1790</ele>
        <time>2014-03-14T09:49:45.105Z</time>
      </trkpt>
      <trkpt lat="45.54887" lon="6.9138">
        <ele>1790</ele>
        <time>2014-03-14T09:49:46.124Z</time>
      </trkpt>
      <trkpt lat="45.54894" lon="6.91375">
        <ele>1790</ele>
        <time>2014-03-14T09:49:53.262Z</time>
      </trkpt>
      <trkpt lat="45.54895" lon="6.91375">
        <ele>1790</ele>
        <time>2014-03-14T09:49:54.195Z</time>
      </trkpt>
      <trkpt lat="45.54903" lon="6.91372">
        <ele>1790</ele>
        <time>2014-03-14T09:50:01.142Z</time>
      </trkpt>
      <trkpt lat="45.54905" lon="6.91372">
        <ele>1790</ele>
        <time>2014-03-14T09:50:02.123Z</time>
      </trkpt>
      <trkpt lat="45.54912" lon="6.9137">
        <ele>1790</ele>
        <time>2014-03-14T09:50:11.111Z</time>
      </trkpt>
      <trkpt lat="45.54914" lon="6.9137">
        <ele>1790</ele>
        <time>2014-03-14T09:50:12.185Z</time>
      </trkpt>
      <trkpt lat="45.54922" lon="6.91369">
        <ele>1802</ele>
        <time>2014-03-14T09:50:18.175Z</time>
      </trkpt>
      <trkpt lat="45.54923" lon="6.91369">
        <ele>1802</ele>
        <time>2014-03-14T09:50:19.192Z</time>
      </trkpt>
      <trkpt lat="45.54931" lon="6.9137">
        <ele>1804</ele>
        <time>2014-03-14T09:50:33.184Z</time>
      </trkpt>
      <trkpt lat="45.54932" lon="6.91373">
        <ele>1804</ele>
        <time>2014-03-14T09:50:34.227Z</time>
      </trkpt>
      <trkpt lat="45.54939" lon="6.91373">
        <ele>1805</ele>
        <time>2014-03-14T09:50:40.287Z</time>
      </trkpt>
      <trkpt lat="45.54941" lon="6.91378">
        <ele>1806</ele>
        <time>2014-03-14T09:50:41.130Z</time>
      </trkpt>
      <trkpt lat="45.54947" lon="6.9137">
        <ele>1805</ele>
        <time>2014-03-14T09:50:50.263Z</time>
      </trkpt>
      <trkpt lat="45.54948" lon="6.91369">
        <ele>1805</ele>
        <time>2014-03-14T09:50:51.144Z</time>
      </trkpt>
      <trkpt lat="45.54954" lon="6.91359">
        <ele>1804</ele>
        <time>2014-03-14T09:50:58.124Z</time>
      </trkpt>
      <trkpt lat="45.54955" lon="6.91359">
        <ele>1804</ele>
        <time>2014-03-14T09:50:59.131Z</time>
      </trkpt>
      <trkpt lat="45.54963" lon="6.91356">
        <ele>1805</ele>
        <time>2014-03-14T09:51:06.150Z</time>
      </trkpt>
      <trkpt lat="45.54964" lon="6.91356">
        <ele>1805</ele>
        <time>2014-03-14T09:51:07.131Z</time>
      </trkpt>
      <trkpt lat="45.54973" lon="6.91357">
        <ele>1806</ele>
        <time>2014-03-14T09:51:15.166Z</time>
      </trkpt>
      <trkpt lat="45.54974" lon="6.91357">
        <ele>1806</ele>
        <time>2014-03-14T09:51:16.104Z</time>
      </trkpt>
      <trkpt lat="45.54981" lon="6.91362">
        <ele>1807</ele>
        <time>2014-03-14T09:51:26.244Z</time>
      </trkpt>
      <trkpt lat="45.54983" lon="6.91362">
        <ele>1807</ele>
        <time>2014-03-14T09:51:27.175Z</time>
      </trkpt>
      <trkpt lat="45.54991" lon="6.91363">
        <ele>1808</ele>
        <time>2014-03-14T09:51:35.123Z</time>
      </trkpt>
      <trkpt lat="45.54992" lon="6.91363">
        <ele>1808</ele>
        <time>2014-03-14T09:51:36.104Z</time>
      </trkpt>
      <trkpt lat="45.54999" lon="6.9136">
        <ele>1807</ele>
        <time>2014-03-14T09:51:39.142Z</time>
      </trkpt>
      <trkpt lat="45.55001" lon="6.9136">
        <ele>1813</ele>
        <time>2014-03-14T09:51:40.107Z</time>
      </trkpt>
      <trkpt lat="45.55008" lon="6.91361">
        <ele>1813</ele>
        <time>2014-03-14T09:51:43.123Z</time>
      </trkpt>
      <trkpt lat="45.55011" lon="6.91362">
        <ele>1814</ele>
        <time>2014-03-14T09:51:44.119Z</time>
      </trkpt>
      <trkpt lat="45.55017" lon="6.91368">
        <ele>1815</ele>
        <time>2014-03-14T09:51:46.142Z</time>
      </trkpt>
      <trkpt lat="45.55019" lon="6.91368">
        <ele>1815</ele>
        <time>2014-03-14T09:51:47.168Z</time>
      </trkpt>
      <trkpt lat="45.55027" lon="6.91368">
        <ele>1816</ele>
        <time>2014-03-14T09:51:51.163Z</time>
      </trkpt>
      <trkpt lat="45.55028" lon="6.9137">
        <ele>1816</ele>
        <time>2014-03-14T09:51:52.144Z</time>
      </trkpt>
      <trkpt lat="45.55033" lon="6.91378">
        <ele>1818</ele>
        <time>2014-03-14T09:52:03.141Z</time>
      </trkpt>
      <trkpt lat="45.55035" lon="6.91379">
        <ele>1818</ele>
        <time>2014-03-14T09:52:04.132Z</time>
      </trkpt>
      <trkpt lat="45.55042" lon="6.91374">
        <ele>1817</ele>
        <time>2014-03-14T09:52:17.107Z</time>
      </trkpt>
      <trkpt lat="45.55043" lon="6.91375">
        <ele>1817</ele>
        <time>2014-03-14T09:52:18.161Z</time>
      </trkpt>
      <trkpt lat="45.55051" lon="6.9137">
        <ele>1816</ele>
        <time>2014-03-14T09:52:24.123Z</time>
      </trkpt>
      <trkpt lat="45.55052" lon="6.91369">
        <ele>1816</ele>
        <time>2014-03-14T09:52:25.124Z</time>
      </trkpt>
      <trkpt lat="45.55061" lon="6.91366">
        <ele>1815</ele>
        <time>2014-03-14T09:52:31.277Z</time>
      </trkpt>
      <trkpt lat="45.55061" lon="6.91365">
        <ele>1815</ele>
        <time>2014-03-14T09:52:32.144Z</time>
      </trkpt>
      <trkpt lat="45.55069" lon="6.91368">
        <ele>1815</ele>
        <time>2014-03-14T09:52:44.104Z</time>
      </trkpt>
      <trkpt lat="45.5507" lon="6.91368">
        <ele>1815</ele>
        <time>2014-03-14T09:52:45.105Z</time>
      </trkpt>
      <trkpt lat="45.55079" lon="6.91368">
        <ele>1815</ele>
        <time>2014-03-14T09:52:59.148Z</time>
      </trkpt>
      <trkpt lat="45.55079" lon="6.91368">
        <ele>1815</ele>
        <time>2014-03-14T09:53:00.267Z</time>
      </trkpt>
      <trkpt lat="45.55086" lon="6.91375">
        <ele>1818</ele>
        <time>2014-03-14T09:53:09.103Z</time>
      </trkpt>
      <trkpt lat="45.55087" lon="6.91376">
        <ele>1819</ele>
        <time>2014-03-14T09:53:10.126Z</time>
      </trkpt>
      <trkpt lat="45.55095" lon="6.9138">
        <ele>1820</ele>
        <time>2014-03-14T09:53:19.130Z</time>
      </trkpt>
      <trkpt lat="45.55096" lon="6.9138">
        <ele>1820</ele>
        <time>2014-03-14T09:53:20.167Z</time>
      </trkpt>
      <trkpt lat="45.55104" lon="6.9138">
        <ele>1820</ele>
        <time>2014-03-14T09:53:25.129Z</time>
      </trkpt>
      <trkpt lat="45.55105" lon="6.9138">
        <ele>1820</ele>
        <time>2014-03-14T09:53:26.126Z</time>
      </trkpt>
      <trkpt lat="45.55113" lon="6.91382">
        <ele>1820</ele>
        <time>2014-03-14T09:53:33.121Z</time>
      </trkpt>
      <trkpt lat="45.55115" lon="6.91381">
        <ele>1820</ele>
        <time>2014-03-14T09:53:34.208Z</time>
      </trkpt>
      <trkpt lat="45.55122" lon="6.91375">
        <ele>1819</ele>
        <time>2014-03-14T09:53:41.177Z</time>
      </trkpt>
      <trkpt lat="45.55124" lon="6.91375">
        <ele>1819</ele>
        <time>2014-03-14T09:53:42.166Z</time>
      </trkpt>
      <trkpt lat="45.55132" lon="6.91373">
        <ele>1819</ele>
        <time>2014-03-14T09:53:49.195Z</time>
      </trkpt>
      <trkpt lat="45.55133" lon="6.91371">
        <ele>1819</ele>
        <time>2014-03-14T09:53:50.169Z</time>
      </trkpt>
      <trkpt lat="45.55131" lon="6.91363">
        <ele>1818</ele>
        <time>2014-03-14T09:53:59.149Z</time>
      </trkpt>
      <trkpt lat="45.55128" lon="6.9136">
        <ele>1817</ele>
        <time>2014-03-14T09:54:00.164Z</time>
      </trkpt>
      <trkpt lat="45.55135" lon="6.91358">
        <ele>1817</ele>
        <time>2014-03-14T09:54:09.207Z</time>
      </trkpt>
      <trkpt lat="45.55138" lon="6.91358">
        <ele>1817</ele>
        <time>2014-03-14T09:54:10.209Z</time>
      </trkpt>
      <trkpt lat="45.55146" lon="6.9136">
        <ele>1818</ele>
        <time>2014-03-14T09:54:12.172Z</time>
      </trkpt>
      <trkpt lat="45.55149" lon="6.91361">
        <ele>1818</ele>
        <time>2014-03-14T09:54:13.188Z</time>
      </trkpt>
      <trkpt lat="45.55158" lon="6.9136">
        <ele>1818</ele>
        <time>2014-03-14T09:54:17.146Z</time>
      </trkpt>
      <trkpt lat="45.55159" lon="6.91359">
        <ele>1817</ele>
        <time>2014-03-14T09:54:18.179Z</time>
      </trkpt>
      <trkpt lat="45.55167" lon="6.91363">
        <ele>1819</ele>
        <time>2014-03-14T09:54:27.489Z</time>
      </trkpt>
      <trkpt lat="45.55168" lon="6.91362">
        <ele>1819</ele>
        <time>2014-03-14T09:54:28.109Z</time>
      </trkpt>
      <trkpt lat="45.55173" lon="6.91352">
        <ele>1817</ele>
        <time>2014-03-14T09:55:06.099Z</time>
      </trkpt>
      <trkpt lat="45.55177" lon="6.91352">
        <ele>1817</ele>
        <time>2014-03-14T09:55:07.297Z</time>
      </trkpt>
      <trkpt lat="45.55186" lon="6.91352">
        <ele>1818</ele>
        <time>2014-03-14T09:55:09.132Z</time>
      </trkpt>
      <trkpt lat="45.55189" lon="6.91351">
        <ele>1818</ele>
        <time>2014-03-14T09:55:10.126Z</time>
      </trkpt>
      <trkpt lat="45.55198" lon="6.91349">
        <ele>1818</ele>
        <time>2014-03-14T09:56:53.199Z</time>
      </trkpt>
      <trkpt lat="45.55198" lon="6.91348">
        <ele>1818</ele>
        <time>2014-03-14T09:56:54.122Z</time>
      </trkpt>
      <trkpt lat="45.55202" lon="6.91336">
        <ele>1818</ele>
        <time>2014-03-14T09:57:06.123Z</time>
      </trkpt>
      <trkpt lat="45.55201" lon="6.91334">
        <ele>1818</ele>
        <time>2014-03-14T09:57:07.221Z</time>
      </trkpt>
      <trkpt lat="45.55209" lon="6.91329">
        <ele>1815</ele>
        <time>2014-03-14T09:57:28.101Z</time>
      </trkpt>
      <trkpt lat="45.55212" lon="6.91329">
        <ele>1815</ele>
        <time>2014-03-14T09:57:29.112Z</time>
      </trkpt>
      <trkpt lat="45.5522" lon="6.91332">
        <ele>1816</ele>
        <time>2014-03-14T09:57:51.194Z</time>
      </trkpt>
      <trkpt lat="45.55222" lon="6.9133">
        <ele>1816</ele>
        <time>2014-03-14T09:57:52.134Z</time>
      </trkpt>
      <trkpt lat="45.55229" lon="6.91323">
        <ele>1816</ele>
        <time>2014-03-14T09:57:57.274Z</time>
      </trkpt>
      <trkpt lat="45.5523" lon="6.91323">
        <ele>1816</ele>
        <time>2014-03-14T09:57:58.254Z</time>
      </trkpt>
      <trkpt lat="45.55236" lon="6.9133">
        <ele>1816</ele>
        <time>2014-03-14T09:58:13.193Z</time>
      </trkpt>
      <trkpt lat="45.55237" lon="6.91331">
        <ele>1816</ele>
        <time>2014-03-14T09:58:14.112Z</time>
      </trkpt>
      <trkpt lat="45.55245" lon="6.91336">
        <ele>1817</ele>
        <time>2014-03-14T09:58:21.149Z</time>
      </trkpt>
      <trkpt lat="45.55246" lon="6.91337">
        <ele>1817</ele>
        <time>2014-03-14T09:58:22.120Z</time>
      </trkpt>
      <trkpt lat="45.55252" lon="6.91344">
        <ele>1815</ele>
        <time>2014-03-14T09:59:42.215Z</time>
      </trkpt>
      <trkpt lat="45.55254" lon="6.91344">
        <ele>1815</ele>
        <time>2014-03-14T09:59:43.250Z</time>
      </trkpt>
      <trkpt lat="45.55261" lon="6.91338">
        <ele>1815</ele>
        <time>2014-03-14T09:59:47.158Z</time>
      </trkpt>
      <trkpt lat="45.55262" lon="6.91335">
        <ele>1815</ele>
        <time>2014-03-14T09:59:48.103Z</time>
      </trkpt>
      <trkpt lat="45.5527" lon="6.91331">
        <ele>1814</ele>
        <time>2014-03-14T09:59:54.221Z</time>
      </trkpt>
      <trkpt lat="45.55272" lon="6.91331">
        <ele>1814</ele>
        <time>2014-03-14T09:59:55.257Z</time>
      </trkpt>
      <trkpt lat="45.5528" lon="6.91333">
        <ele>1813</ele>
        <time>2014-03-14T10:00:01.151Z</time>
      </trkpt>
      <trkpt lat="45.55281" lon="6.91332">
        <ele>1813</ele>
        <time>2014-03-14T10:00:02.225Z</time>
      </trkpt>
      <trkpt lat="45.55289" lon="6.91325">
        <ele>1812</ele>
        <time>2014-03-14T10:00:10.176Z</time>
      </trkpt>
      <trkpt lat="45.55289" lon="6.91324">
        <ele>1812</ele>
        <time>2014-03-14T10:00:11.130Z</time>
      </trkpt>
      <trkpt lat="45.55298" lon="6.91323">
        <ele>1811</ele>
        <time>2014-03-14T10:00:18.234Z</time>
      </trkpt>
      <trkpt lat="45.55299" lon="6.91323">
        <ele>1811</ele>
        <time>2014-03-14T10:00:19.180Z</time>
      </trkpt>
      <trkpt lat="45.55307" lon="6.91319">
        <ele>1811</ele>
        <time>2014-03-14T10:00:25.226Z</time>
      </trkpt>
      <trkpt lat="45.55308" lon="6.91318">
        <ele>1810</ele>
        <time>2014-03-14T10:00:26.199Z</time>
      </trkpt>
      <trkpt lat="45.55315" lon="6.91312">
        <ele>1810</ele>
        <time>2014-03-14T10:00:32.123Z</time>
      </trkpt>
      <trkpt lat="45.55315" lon="6.9131">
        <ele>1810</ele>
        <time>2014-03-14T10:00:33.096Z</time>
      </trkpt>
      <trkpt lat="45.55321" lon="6.91301">
        <ele>1810</ele>
        <time>2014-03-14T10:00:40.220Z</time>
      </trkpt>
      <trkpt lat="45.55322" lon="6.91299">
        <ele>1810</ele>
        <time>2014-03-14T10:00:41.150Z</time>
      </trkpt>
      <trkpt lat="45.55328" lon="6.91291">
        <ele>1810</ele>
        <time>2014-03-14T10:00:48.177Z</time>
      </trkpt>
      <trkpt lat="45.55329" lon="6.91289">
        <ele>1810</ele>
        <time>2014-03-14T10:00:49.247Z</time>
      </trkpt>
      <trkpt lat="45.55335" lon="6.91282">
        <ele>1806</ele>
        <time>2014-03-14T10:00:55.250Z</time>
      </trkpt>
      <trkpt lat="45.55336" lon="6.9128">
        <ele>1806</ele>
        <time>2014-03-14T10:00:56.128Z</time>
      </trkpt>
      <trkpt lat="45.55341" lon="6.91273">
        <ele>1806</ele>
        <time>2014-03-14T10:01:02.147Z</time>
      </trkpt>
      <trkpt lat="45.55343" lon="6.9127">
        <ele>1806</ele>
        <time>2014-03-14T10:01:03.181Z</time>
      </trkpt>
      <trkpt lat="45.55347" lon="6.9126">
        <ele>1806</ele>
        <time>2014-03-14T10:01:05.093Z</time>
      </trkpt>
      <trkpt lat="45.55349" lon="6.91256">
        <ele>1805</ele>
        <time>2014-03-14T10:01:06.104Z</time>
      </trkpt>
      <trkpt lat="45.55352" lon="6.91251">
        <ele>1805</ele>
        <time>2014-03-14T10:01:07.093Z</time>
      </trkpt>
      <trkpt lat="45.55361" lon="6.91248">
        <ele>1804</ele>
        <time>2014-03-14T10:01:08.095Z</time>
      </trkpt>
      <trkpt lat="45.5537" lon="6.9125">
        <ele>1803</ele>
        <time>2014-03-14T10:01:09.093Z</time>
      </trkpt>
      <trkpt lat="45.55365" lon="6.91242">
        <ele>1803</ele>
        <time>2014-03-14T10:01:11.233Z</time>
      </trkpt>
      <trkpt lat="45.55358" lon="6.91237">
        <ele>1804</ele>
        <time>2014-03-14T10:01:12.137Z</time>
      </trkpt>
      <trkpt lat="45.5535" lon="6.91229">
        <ele>1804</ele>
        <time>2014-03-14T10:01:13.132Z</time>
      </trkpt>
      <trkpt lat="45.55343" lon="6.91225">
        <ele>1805</ele>
        <time>2014-03-14T10:01:14.158Z</time>
      </trkpt>
      <trkpt lat="45.55344" lon="6.9121">
        <ele>1805</ele>
        <time>2014-03-14T10:01:15.139Z</time>
      </trkpt>
      <trkpt lat="45.55357" lon="6.91226">
        <ele>1804</ele>
        <time>2014-03-14T10:01:16.139Z</time>
      </trkpt>
      <trkpt lat="45.55356" lon="6.91223">
        <ele>1804</ele>
        <time>2014-03-14T10:01:18.128Z</time>
      </trkpt>
      <trkpt lat="45.5537" lon="6.91233">
        <ele>1803</ele>
        <time>2014-03-14T10:01:19.198Z</time>
      </trkpt>
      <trkpt lat="45.55373" lon="6.91232">
        <ele>1803</ele>
        <time>2014-03-14T10:01:21.125Z</time>
      </trkpt>
      <trkpt lat="45.55384" lon="6.91233">
        <ele>1802</ele>
        <time>2014-03-14T10:01:22.202Z</time>
      </trkpt>
      <trkpt lat="45.55392" lon="6.91228">
        <ele>1801</ele>
        <time>2014-03-14T10:01:24.154Z</time>
      </trkpt>
      <trkpt lat="45.55414" lon="6.91227">
        <ele>1800</ele>
        <time>2014-03-14T10:01:25.249Z</time>
      </trkpt>
      <trkpt lat="45.55405" lon="6.91223">
        <ele>1800</ele>
        <time>2014-03-14T10:01:26.194Z</time>
      </trkpt>
      <trkpt lat="45.55394" lon="6.9123">
        <ele>1801</ele>
        <time>2014-03-14T10:01:27.133Z</time>
      </trkpt>
      <trkpt lat="45.55389" lon="6.91239">
        <ele>1801</ele>
        <time>2014-03-14T10:01:29.144Z</time>
      </trkpt>
      <trkpt lat="45.55378" lon="6.9124">
        <ele>1802</ele>
        <time>2014-03-14T10:01:30.244Z</time>
      </trkpt>
      <trkpt lat="45.55384" lon="6.91235">
        <ele>1802</ele>
        <time>2014-03-14T10:01:34.124Z</time>
      </trkpt>
      <trkpt lat="45.55395" lon="6.91227">
        <ele>1801</ele>
        <time>2014-03-14T10:01:35.214Z</time>
      </trkpt>
      <trkpt lat="45.55397" lon="6.91221">
        <ele>1801</ele>
        <time>2014-03-14T10:01:36.137Z</time>
      </trkpt>
      <trkpt lat="45.55405" lon="6.91216">
        <ele>1800</ele>
        <time>2014-03-14T10:01:37.185Z</time>
      </trkpt>
      <trkpt lat="45.55398" lon="6.9122">
        <ele>1801</ele>
        <time>2014-03-14T10:01:39.262Z</time>
      </trkpt>
      <trkpt lat="45.55415" lon="6.91231">
        <ele>1799</ele>
        <time>2014-03-14T10:01:40.247Z</time>
      </trkpt>
      <trkpt lat="45.55397" lon="6.91225">
        <ele>1801</ele>
        <time>2014-03-14T10:01:41.143Z</time>
      </trkpt>
      <trkpt lat="45.55403" lon="6.91229">
        <ele>1800</ele>
        <time>2014-03-14T10:01:42.132Z</time>
      </trkpt>
      <trkpt lat="45.55416" lon="6.91224">
        <ele>1800</ele>
        <time>2014-03-14T10:01:43.118Z</time>
      </trkpt>
      <trkpt lat="45.55417" lon="6.91212">
        <ele>1800</ele>
        <time>2014-03-14T10:01:45.156Z</time>
      </trkpt>
      <trkpt lat="45.55428" lon="6.91214">
        <ele>1801</ele>
        <time>2014-03-14T10:01:46.242Z</time>
      </trkpt>
      <trkpt lat="45.55423" lon="6.91206">
        <ele>1800</ele>
        <time>2014-03-14T10:01:48.194Z</time>
      </trkpt>
      <trkpt lat="45.55419" lon="6.91209">
        <ele>1800</ele>
        <time>2014-03-14T10:01:49.121Z</time>
      </trkpt>
      <trkpt lat="45.55419" lon="6.91206">
        <ele>1800</ele>
        <time>2014-03-14T10:01:54.184Z</time>
      </trkpt>
      <trkpt lat="45.55428" lon="6.91204">
        <ele>1800</ele>
        <time>2014-03-14T10:01:55.220Z</time>
      </trkpt>
      <trkpt lat="45.55421" lon="6.9121">
        <ele>1800</ele>
        <time>2014-03-14T10:01:56.144Z</time>
      </trkpt>
      <trkpt lat="45.55415" lon="6.91207">
        <ele>1799</ele>
        <time>2014-03-14T10:01:57.127Z</time>
      </trkpt>
      <trkpt lat="45.55419" lon="6.91198">
        <ele>1799</ele>
        <time>2014-03-14T10:02:15.121Z</time>
      </trkpt>
      <trkpt lat="45.5542" lon="6.91197">
        <ele>1799</ele>
        <time>2014-03-14T10:02:16.100Z</time>
      </trkpt>
      <trkpt lat="45.55422" lon="6.91185">
        <ele>1797</ele>
        <time>2014-03-14T10:02:23.154Z</time>
      </trkpt>
      <trkpt lat="45.55422" lon="6.91183">
        <ele>1797</ele>
        <time>2014-03-14T10:02:24.115Z</time>
      </trkpt>
      <trkpt lat="45.55428" lon="6.91174">
        <ele>1796</ele>
        <time>2014-03-14T10:02:33.134Z</time>
      </trkpt>
      <trkpt lat="45.55428" lon="6.91174">
        <ele>1796</ele>
        <time>2014-03-14T10:02:34.164Z</time>
      </trkpt>
      <trkpt lat="45.55434" lon="6.91164">
        <ele>1793</ele>
        <time>2014-03-14T10:02:47.131Z</time>
      </trkpt>
      <trkpt lat="45.55434" lon="6.91163">
        <ele>1793</ele>
        <time>2014-03-14T10:02:48.172Z</time>
      </trkpt>
      <trkpt lat="45.55441" lon="6.91155">
        <ele>1793</ele>
        <time>2014-03-14T10:02:55.225Z</time>
      </trkpt>
      <trkpt lat="45.55441" lon="6.91154">
        <ele>1793</ele>
        <time>2014-03-14T10:02:56.272Z</time>
      </trkpt>
      <trkpt lat="45.55447" lon="6.91145">
        <ele>1794</ele>
        <time>2014-03-14T10:03:03.175Z</time>
      </trkpt>
      <trkpt lat="45.55448" lon="6.91144">
        <ele>1794</ele>
        <time>2014-03-14T10:03:04.202Z</time>
      </trkpt>
      <trkpt lat="45.55452" lon="6.91134">
        <ele>1794</ele>
        <time>2014-03-14T10:03:11.222Z</time>
      </trkpt>
      <trkpt lat="45.55454" lon="6.91132">
        <ele>1794</ele>
        <time>2014-03-14T10:03:12.221Z</time>
      </trkpt>
      <trkpt lat="45.55459" lon="6.91124">
        <ele>1793</ele>
        <time>2014-03-14T10:03:14.221Z</time>
      </trkpt>
      <trkpt lat="45.55461" lon="6.91121">
        <ele>1793</ele>
        <time>2014-03-14T10:03:15.194Z</time>
      </trkpt>
      <trkpt lat="45.55468" lon="6.91118">
        <ele>1793</ele>
        <time>2014-03-14T10:03:18.168Z</time>
      </trkpt>
      <trkpt lat="45.5547" lon="6.91118">
        <ele>1793</ele>
        <time>2014-03-14T10:03:19.154Z</time>
      </trkpt>
      <trkpt lat="45.55476" lon="6.91109">
        <ele>1792</ele>
        <time>2014-03-14T10:03:24.170Z</time>
      </trkpt>
      <trkpt lat="45.55476" lon="6.91106">
        <ele>1791</ele>
        <time>2014-03-14T10:03:25.114Z</time>
      </trkpt>
      <trkpt lat="45.55478" lon="6.91094">
        <ele>1790</ele>
        <time>2014-03-14T10:03:28.129Z</time>
      </trkpt>
      <trkpt lat="45.55478" lon="6.91092">
        <ele>1790</ele>
        <time>2014-03-14T10:03:29.178Z</time>
      </trkpt>
      <trkpt lat="45.55483" lon="6.91084">
        <ele>1788</ele>
        <time>2014-03-14T10:03:38.150Z</time>
      </trkpt>
      <trkpt lat="45.55485" lon="6.9108">
        <ele>1788</ele>
        <time>2014-03-14T10:03:39.188Z</time>
      </trkpt>
      <trkpt lat="45.55483" lon="6.91069">
        <ele>1789</ele>
        <time>2014-03-14T10:03:55.219Z</time>
      </trkpt>
      <trkpt lat="45.55483" lon="6.91067">
        <ele>1789</ele>
        <time>2014-03-14T10:03:56.218Z</time>
      </trkpt>
      <trkpt lat="45.55487" lon="6.91061">
        <ele>1789</ele>
        <time>2014-03-14T10:04:03.260Z</time>
      </trkpt>
      <trkpt lat="45.55489" lon="6.91058">
        <ele>1789</ele>
        <time>2014-03-14T10:04:04.202Z</time>
      </trkpt>
      <trkpt lat="45.55494" lon="6.91048">
        <ele>1789</ele>
        <time>2014-03-14T10:04:08.152Z</time>
      </trkpt>
      <trkpt lat="45.55498" lon="6.91049">
        <ele>1789</ele>
        <time>2014-03-14T10:04:09.111Z</time>
      </trkpt>
      <trkpt lat="45.55506" lon="6.91053">
        <ele>1789</ele>
        <time>2014-03-14T10:04:11.177Z</time>
      </trkpt>
      <trkpt lat="45.55509" lon="6.91053">
        <ele>1789</ele>
        <time>2014-03-14T10:04:12.187Z</time>
      </trkpt>
      <trkpt lat="45.55506" lon="6.91041">
        <ele>1789</ele>
        <time>2014-03-14T10:04:17.204Z</time>
      </trkpt>
      <trkpt lat="45.55505" lon="6.91037">
        <ele>1788</ele>
        <time>2014-03-14T10:04:18.231Z</time>
      </trkpt>
      <trkpt lat="45.55501" lon="6.91026">
        <ele>1787</ele>
        <time>2014-03-14T10:04:20.117Z</time>
      </trkpt>
      <trkpt lat="45.55498" lon="6.9102">
        <ele>1786</ele>
        <time>2014-03-14T10:04:21.147Z</time>
      </trkpt>
      <trkpt lat="45.55505" lon="6.91016">
        <ele>1785</ele>
        <time>2014-03-14T10:04:28.190Z</time>
      </trkpt>
      <trkpt lat="45.55505" lon="6.91007">
        <ele>1782</ele>
        <time>2014-03-14T10:04:29.208Z</time>
      </trkpt>
      <trkpt lat="45.55506" lon="6.91004">
        <ele>1781</ele>
        <time>2014-03-14T10:04:30.152Z</time>
      </trkpt>
      <trkpt lat="45.55506" lon="6.90994">
        <ele>1779</ele>
        <time>2014-03-14T10:04:31.227Z</time>
      </trkpt>
      <trkpt lat="45.55508" lon="6.9099">
        <ele>1780</ele>
        <time>2014-03-14T10:04:34.235Z</time>
      </trkpt>
      <trkpt lat="45.55515" lon="6.90988">
        <ele>1781</ele>
        <time>2014-03-14T10:04:35.195Z</time>
      </trkpt>
      <trkpt lat="45.55518" lon="6.90982">
        <ele>1781</ele>
        <time>2014-03-14T10:04:36.107Z</time>
      </trkpt>
      <trkpt lat="45.55509" lon="6.90978">
        <ele>1781</ele>
        <time>2014-03-14T10:04:37.120Z</time>
      </trkpt>
      <trkpt lat="45.5551" lon="6.90971">
        <ele>1781</ele>
        <time>2014-03-14T10:04:38.189Z</time>
      </trkpt>
      <trkpt lat="45.55502" lon="6.90996">
        <ele>1778</ele>
        <time>2014-03-14T10:04:39.119Z</time>
      </trkpt>
      <trkpt lat="45.55505" lon="6.91006">
        <ele>1781</ele>
        <time>2014-03-14T10:04:42.183Z</time>
      </trkpt>
      <trkpt lat="45.55503" lon="6.91018">
        <ele>1785</ele>
        <time>2014-03-14T10:04:43.159Z</time>
      </trkpt>
      <trkpt lat="45.55505" lon="6.91007">
        <ele>1782</ele>
        <time>2014-03-14T10:04:50.161Z</time>
      </trkpt>
      <trkpt lat="45.55506" lon="6.91005">
        <ele>1781</ele>
        <time>2014-03-14T10:04:51.160Z</time>
      </trkpt>
      <trkpt lat="45.55513" lon="6.90998">
        <ele>1780</ele>
        <time>2014-03-14T10:05:15.208Z</time>
      </trkpt>
      <trkpt lat="45.55515" lon="6.90997">
        <ele>1780</ele>
        <time>2014-03-14T10:05:16.220Z</time>
      </trkpt>
      <trkpt lat="45.55522" lon="6.9099">
        <ele>1781</ele>
        <time>2014-03-14T10:05:26.178Z</time>
      </trkpt>
      <trkpt lat="45.55523" lon="6.9099">
        <ele>1781</ele>
        <time>2014-03-14T10:05:27.197Z</time>
      </trkpt>
      <trkpt lat="45.55523" lon="6.90992">
        <ele>1781</ele>
        <time>2014-03-14T10:07:07.104Z</time>
      </trkpt>
      <trkpt lat="45.55545" lon="6.91011">
        <ele>1792</ele>
        <time>2014-03-14T10:07:38.095Z</time>
      </trkpt>
      <trkpt lat="45.55543" lon="6.91006">
        <ele>1791</ele>
        <time>2014-03-14T10:07:39.091Z</time>
      </trkpt>
      <trkpt lat="45.55536" lon="6.90999">
        <ele>1783</ele>
        <time>2014-03-14T10:07:40.143Z</time>
      </trkpt>
      <trkpt lat="45.55528" lon="6.91001">
        <ele>1788</ele>
        <time>2014-03-14T10:07:41.088Z</time>
      </trkpt>
      <trkpt lat="45.55523" lon="6.91">
        <ele>1781</ele>
        <time>2014-03-14T10:07:42.103Z</time>
      </trkpt>
      <trkpt lat="45.5553" lon="6.90999">
        <ele>1782</ele>
        <time>2014-03-14T10:09:50.151Z</time>
      </trkpt>
      <trkpt lat="45.55532" lon="6.90997">
        <ele>1782</ele>
        <time>2014-03-14T10:09:51.150Z</time>
      </trkpt>
      <trkpt lat="45.55532" lon="6.90986">
        <ele>1782</ele>
        <time>2014-03-14T10:09:54.103Z</time>
      </trkpt>
      <trkpt lat="45.55533" lon="6.90983">
        <ele>1783</ele>
        <time>2014-03-14T10:09:55.101Z</time>
      </trkpt>
      <trkpt lat="45.55534" lon="6.90971">
        <ele>1783</ele>
        <time>2014-03-14T10:10:02.121Z</time>
      </trkpt>
      <trkpt lat="45.55534" lon="6.9097">
        <ele>1783</ele>
        <time>2014-03-14T10:10:03.117Z</time>
      </trkpt>
      <trkpt lat="45.55534" lon="6.90958">
        <ele>1782</ele>
        <time>2014-03-14T10:10:10.129Z</time>
      </trkpt>
      <trkpt lat="45.55534" lon="6.90956">
        <ele>1782</ele>
        <time>2014-03-14T10:10:11.129Z</time>
      </trkpt>
      <trkpt lat="45.55534" lon="6.90944">
        <ele>1782</ele>
        <time>2014-03-14T10:10:16.107Z</time>
      </trkpt>
      <trkpt lat="45.55534" lon="6.90942">
        <ele>1782</ele>
        <time>2014-03-14T10:10:17.158Z</time>
      </trkpt>
      <trkpt lat="45.55535" lon="6.9093">
        <ele>1782</ele>
        <time>2014-03-14T10:10:26.168Z</time>
      </trkpt>
      <trkpt lat="45.55535" lon="6.90929">
        <ele>1782</ele>
        <time>2014-03-14T10:10:27.168Z</time>
      </trkpt>
      <trkpt lat="45.55537" lon="6.90918">
        <ele>1781</ele>
        <time>2014-03-14T10:10:34.181Z</time>
      </trkpt>
      <trkpt lat="45.55537" lon="6.90916">
        <ele>1774</ele>
        <time>2014-03-14T10:10:35.129Z</time>
      </trkpt>
      <trkpt lat="45.55542" lon="6.90907">
        <ele>1773</ele>
        <time>2014-03-14T10:10:41.151Z</time>
      </trkpt>
      <trkpt lat="45.55543" lon="6.90906">
        <ele>1773</ele>
        <time>2014-03-14T10:10:42.105Z</time>
      </trkpt>
      <trkpt lat="45.55549" lon="6.90898">
        <ele>1772</ele>
        <time>2014-03-14T10:10:48.153Z</time>
      </trkpt>
      <trkpt lat="45.55549" lon="6.90896">
        <ele>1772</ele>
        <time>2014-03-14T10:10:49.141Z</time>
      </trkpt>
      <trkpt lat="45.55554" lon="6.90887">
        <ele>1771</ele>
        <time>2014-03-14T10:10:55.164Z</time>
      </trkpt>
      <trkpt lat="45.55555" lon="6.90885">
        <ele>1771</ele>
        <time>2014-03-14T10:10:56.167Z</time>
      </trkpt>
      <trkpt lat="45.55557" lon="6.90873">
        <ele>1769</ele>
        <time>2014-03-14T10:11:28.151Z</time>
      </trkpt>
      <trkpt lat="45.55558" lon="6.9087">
        <ele>1769</ele>
        <time>2014-03-14T10:11:29.083Z</time>
      </trkpt>
      <trkpt lat="45.55561" lon="6.90865">
        <ele>1768</ele>
        <time>2014-03-14T10:11:31.083Z</time>
      </trkpt>
      <trkpt lat="45.55566" lon="6.90861">
        <ele>1766</ele>
        <time>2014-03-14T10:11:32.085Z</time>
      </trkpt>
      <trkpt lat="45.55585" lon="6.90862">
        <ele>1773</ele>
        <time>2014-03-14T10:11:33.092Z</time>
      </trkpt>
      <trkpt lat="45.55593" lon="6.9086">
        <ele>1773</ele>
        <time>2014-03-14T10:11:34.134Z</time>
      </trkpt>
      <trkpt lat="45.55596" lon="6.9086">
        <ele>1774</ele>
        <time>2014-03-14T10:11:35.083Z</time>
      </trkpt>
      <trkpt lat="45.55578" lon="6.9086">
        <ele>1764</ele>
        <time>2014-03-14T10:11:36.083Z</time>
      </trkpt>
      <trkpt lat="45.55578" lon="6.90851">
        <ele>1762</ele>
        <time>2014-03-14T10:11:43.085Z</time>
      </trkpt>
      <trkpt lat="45.55579" lon="6.90847">
        <ele>1760</ele>
        <time>2014-03-14T10:11:44.082Z</time>
      </trkpt>
      <trkpt lat="45.55587" lon="6.90848">
        <ele>1766</ele>
        <time>2014-03-14T10:11:50.103Z</time>
      </trkpt>
      <trkpt lat="45.55589" lon="6.90848">
        <ele>1766</ele>
        <time>2014-03-14T10:11:51.103Z</time>
      </trkpt>
      <trkpt lat="45.55588" lon="6.90835">
        <ele>1757</ele>
        <time>2014-03-14T10:11:59.101Z</time>
      </trkpt>
      <trkpt lat="45.55588" lon="6.90835">
        <ele>1757</ele>
        <time>2014-03-14T10:12:00.147Z</time>
      </trkpt>
      <trkpt lat="45.5559" lon="6.90822">
        <ele>1755</ele>
        <time>2014-03-14T10:12:17.102Z</time>
      </trkpt>
      <trkpt lat="45.55591" lon="6.90821">
        <ele>1755</ele>
        <time>2014-03-14T10:12:18.100Z</time>
      </trkpt>
      <trkpt lat="45.55596" lon="6.90812">
        <ele>1757</ele>
        <time>2014-03-14T10:12:23.083Z</time>
      </trkpt>
      <trkpt lat="45.55597" lon="6.90811">
        <ele>1757</ele>
        <time>2014-03-14T10:12:24.083Z</time>
      </trkpt>
      <trkpt lat="45.556" lon="6.90799">
        <ele>1757</ele>
        <time>2014-03-14T10:12:34.086Z</time>
      </trkpt>
      <trkpt lat="45.556" lon="6.90799">
        <ele>1757</ele>
        <time>2014-03-14T10:12:35.096Z</time>
      </trkpt>
      <trkpt lat="45.55607" lon="6.90793">
        <ele>1757</ele>
        <time>2014-03-14T10:12:44.104Z</time>
      </trkpt>
      <trkpt lat="45.55608" lon="6.90791">
        <ele>1757</ele>
        <time>2014-03-14T10:12:45.099Z</time>
      </trkpt>
      <trkpt lat="45.5561" lon="6.9078">
        <ele>1756</ele>
        <time>2014-03-14T10:12:51.100Z</time>
      </trkpt>
      <trkpt lat="45.5561" lon="6.90778">
        <ele>1756</ele>
        <time>2014-03-14T10:12:52.100Z</time>
      </trkpt>
      <trkpt lat="45.55614" lon="6.90767">
        <ele>1755</ele>
        <time>2014-03-14T10:12:58.100Z</time>
      </trkpt>
      <trkpt lat="45.55615" lon="6.90766">
        <ele>1755</ele>
        <time>2014-03-14T10:12:59.102Z</time>
      </trkpt>
      <trkpt lat="45.55618" lon="6.90755">
        <ele>1755</ele>
        <time>2014-03-14T10:13:09.098Z</time>
      </trkpt>
      <trkpt lat="45.55618" lon="6.90754">
        <ele>1755</ele>
        <time>2014-03-14T10:13:10.100Z</time>
      </trkpt>
      <trkpt lat="45.55623" lon="6.90744">
        <ele>1745</ele>
        <time>2014-03-14T10:13:17.099Z</time>
      </trkpt>
      <trkpt lat="45.55624" lon="6.90743">
        <ele>1746</ele>
        <time>2014-03-14T10:13:18.100Z</time>
      </trkpt>
      <trkpt lat="45.55629" lon="6.90733">
        <ele>1746</ele>
        <time>2014-03-14T10:14:11.101Z</time>
      </trkpt>
      <trkpt lat="45.5563" lon="6.90732">
        <ele>1746</ele>
        <time>2014-03-14T10:14:12.099Z</time>
      </trkpt>
      <trkpt lat="45.55638" lon="6.90726">
        <ele>1747</ele>
        <time>2014-03-14T10:14:31.163Z</time>
      </trkpt>
      <trkpt lat="45.55638" lon="6.90726">
        <ele>1747</ele>
        <time>2014-03-14T10:14:32.098Z</time>
      </trkpt>
      <trkpt lat="45.55641" lon="6.90725">
        <ele>1747</ele>
        <time>2014-03-14T10:17:20.087Z</time>
      </trkpt>
      <trkpt lat="45.55602" lon="6.90632">
        <ele>1728</ele>
        <time>2014-03-14T10:18:00.158Z</time>
      </trkpt>
      <trkpt lat="45.55601" lon="6.90655">
        <ele>1731</ele>
        <time>2014-03-14T10:18:01.083Z</time>
      </trkpt>
      <trkpt lat="45.55608" lon="6.90649">
        <ele>1730</ele>
        <time>2014-03-14T10:18:04.099Z</time>
      </trkpt>
      <trkpt lat="45.55609" lon="6.90649">
        <ele>1730</ele>
        <time>2014-03-14T10:18:05.083Z</time>
      </trkpt>
      <trkpt lat="45.55616" lon="6.90643">
        <ele>1729</ele>
        <time>2014-03-14T10:19:43.078Z</time>
      </trkpt>
      <trkpt lat="45.55618" lon="6.90645">
        <ele>1730</ele>
        <time>2014-03-14T10:19:44.078Z</time>
      </trkpt>
      <trkpt lat="45.55622" lon="6.90656">
        <ele>1731</ele>
        <time>2014-03-14T10:19:49.095Z</time>
      </trkpt>
      <trkpt lat="45.55623" lon="6.90657">
        <ele>1731</ele>
        <time>2014-03-14T10:19:50.094Z</time>
      </trkpt>
      <trkpt lat="45.55621" lon="6.90659">
        <ele>1731</ele>
        <time>2014-03-14T10:20:53.094Z</time>
      </trkpt>
      <trkpt lat="45.55626" lon="6.907">
        <ele>1743</ele>
        <time>2014-03-14T10:21:06.094Z</time>
      </trkpt>
      <trkpt lat="45.55632" lon="6.90699">
        <ele>1744</ele>
        <time>2014-03-14T10:21:15.077Z</time>
      </trkpt>
      <trkpt lat="45.55636" lon="6.90699">
        <ele>1744</ele>
        <time>2014-03-14T10:21:16.086Z</time>
      </trkpt>
      <trkpt lat="45.55645" lon="6.90703">
        <ele>1745</ele>
        <time>2014-03-14T10:21:23.117Z</time>
      </trkpt>
      <trkpt lat="45.55645" lon="6.90702">
        <ele>1745</ele>
        <time>2014-03-14T10:21:24.159Z</time>
      </trkpt>
      <trkpt lat="45.55646" lon="6.90702">
        <ele>1745</ele>
        <time>2014-03-14T10:22:07.078Z</time>
      </trkpt>
      <trkpt lat="45.55634" lon="6.90694">
        <ele>1743</ele>
        <time>2014-03-14T10:22:08.076Z</time>
      </trkpt>
      <trkpt lat="45.55628" lon="6.90694">
        <ele>1743</ele>
        <time>2014-03-14T10:22:10.141Z</time>
      </trkpt>
      <trkpt lat="45.55629" lon="6.90712">
        <ele>1744</ele>
        <time>2014-03-14T10:22:11.081Z</time>
      </trkpt>
      <trkpt lat="45.55637" lon="6.90726">
        <ele>1747</ele>
        <time>2014-03-14T10:22:12.111Z</time>
      </trkpt>
      <trkpt lat="45.5564" lon="6.90725">
        <ele>1747</ele>
        <time>2014-03-14T10:22:16.085Z</time>
      </trkpt>
      <trkpt lat="45.55642" lon="6.90701">
        <ele>1744</ele>
        <time>2014-03-14T10:22:17.168Z</time>
      </trkpt>
      <trkpt lat="45.55643" lon="6.90713">
        <ele>1746</ele>
        <time>2014-03-14T10:22:30.108Z</time>
      </trkpt>
      <trkpt lat="45.55643" lon="6.90714">
        <ele>1746</ele>
        <time>2014-03-14T10:22:31.177Z</time>
      </trkpt>
      <trkpt lat="45.55641" lon="6.90714">
        <ele>1746</ele>
        <time>2014-03-14T10:22:34.099Z</time>
      </trkpt>
      <trkpt lat="45.5562" lon="6.90706">
        <ele>1743</ele>
        <time>2014-03-14T10:22:35.114Z</time>
      </trkpt>
      <trkpt lat="45.55619" lon="6.90696">
        <ele>1742</ele>
        <time>2014-03-14T10:22:47.145Z</time>
      </trkpt>
      <trkpt lat="45.5561" lon="6.9071">
        <ele>1743</ele>
        <time>2014-03-14T10:22:48.149Z</time>
      </trkpt>
      <trkpt lat="45.55616" lon="6.90719">
        <ele>1744</ele>
        <time>2014-03-14T10:22:52.099Z</time>
      </trkpt>
      <trkpt lat="45.55618" lon="6.90722">
        <ele>1744</ele>
        <time>2014-03-14T10:22:53.125Z</time>
      </trkpt>
      <trkpt lat="45.55615" lon="6.90733">
        <ele>1744</ele>
        <time>2014-03-14T10:23:13.139Z</time>
      </trkpt>
      <trkpt lat="45.55614" lon="6.90734">
        <ele>1744</ele>
        <time>2014-03-14T10:23:14.127Z</time>
      </trkpt>
      <trkpt lat="45.5561" lon="6.90745">
        <ele>1744</ele>
        <time>2014-03-14T10:23:49.070Z</time>
      </trkpt>
      <trkpt lat="45.5561" lon="6.90746">
        <ele>1743</ele>
        <time>2014-03-14T10:23:50.204Z</time>
      </trkpt>
      <trkpt lat="45.5561" lon="6.90756">
        <ele>1753</ele>
        <time>2014-03-14T10:23:55.123Z</time>
      </trkpt>
      <trkpt lat="45.5561" lon="6.90759">
        <ele>1753</ele>
        <time>2014-03-14T10:23:56.206Z</time>
      </trkpt>
      <trkpt lat="45.55606" lon="6.90769">
        <ele>1753</ele>
        <time>2014-03-14T10:24:01.122Z</time>
      </trkpt>
      <trkpt lat="45.55605" lon="6.9077">
        <ele>1753</ele>
        <time>2014-03-14T10:24:02.138Z</time>
      </trkpt>
      <trkpt lat="45.55598" lon="6.90778">
        <ele>1754</ele>
        <time>2014-03-14T10:24:07.167Z</time>
      </trkpt>
      <trkpt lat="45.55597" lon="6.90779">
        <ele>1754</ele>
        <time>2014-03-14T10:24:08.128Z</time>
      </trkpt>
      <trkpt lat="45.5559" lon="6.90787">
        <ele>1754</ele>
        <time>2014-03-14T10:24:15.100Z</time>
      </trkpt>
      <trkpt lat="45.55589" lon="6.90789">
        <ele>1754</ele>
        <time>2014-03-14T10:24:16.118Z</time>
      </trkpt>
      <trkpt lat="45.55586" lon="6.90779">
        <ele>1752</ele>
        <time>2014-03-14T10:24:30.143Z</time>
      </trkpt>
      <trkpt lat="45.55584" lon="6.90776">
        <ele>1751</ele>
        <time>2014-03-14T10:24:31.127Z</time>
      </trkpt>
      <trkpt lat="45.55579" lon="6.90766">
        <ele>1747</ele>
        <time>2014-03-14T10:24:34.154Z</time>
      </trkpt>
      <trkpt lat="45.55578" lon="6.90764">
        <ele>1747</ele>
        <time>2014-03-14T10:24:35.192Z</time>
      </trkpt>
      <trkpt lat="45.5558" lon="6.90774">
        <ele>1749</ele>
        <time>2014-03-14T10:24:39.236Z</time>
      </trkpt>
      <trkpt lat="45.5558" lon="6.90778">
        <ele>1750</ele>
        <time>2014-03-14T10:24:40.163Z</time>
      </trkpt>
      <trkpt lat="45.5558" lon="6.90789">
        <ele>1752</ele>
        <time>2014-03-14T10:24:45.197Z</time>
      </trkpt>
      <trkpt lat="45.55579" lon="6.90793">
        <ele>1752</ele>
        <time>2014-03-14T10:24:46.113Z</time>
      </trkpt>
      <trkpt lat="45.55579" lon="6.90805">
        <ele>1753</ele>
        <time>2014-03-14T10:24:50.122Z</time>
      </trkpt>
      <trkpt lat="45.55579" lon="6.90807">
        <ele>1753</ele>
        <time>2014-03-14T10:24:51.136Z</time>
      </trkpt>
      <trkpt lat="45.55582" lon="6.90817">
        <ele>1753</ele>
        <time>2014-03-14T10:26:27.122Z</time>
      </trkpt>
      <trkpt lat="45.55581" lon="6.90819">
        <ele>1753</ele>
        <time>2014-03-14T10:26:28.189Z</time>
      </trkpt>
      <trkpt lat="45.55576" lon="6.9083">
        <ele>1752</ele>
        <time>2014-03-14T10:26:34.098Z</time>
      </trkpt>
      <trkpt lat="45.55575" lon="6.90831">
        <ele>1753</ele>
        <time>2014-03-14T10:26:35.174Z</time>
      </trkpt>
      <trkpt lat="45.55569" lon="6.9084">
        <ele>1760</ele>
        <time>2014-03-14T10:26:43.137Z</time>
      </trkpt>
      <trkpt lat="45.55568" lon="6.90841">
        <ele>1761</ele>
        <time>2014-03-14T10:26:44.203Z</time>
      </trkpt>
      <trkpt lat="45.55563" lon="6.9085">
        <ele>1764</ele>
        <time>2014-03-14T10:26:50.094Z</time>
      </trkpt>
      <trkpt lat="45.55562" lon="6.90852">
        <ele>1765</ele>
        <time>2014-03-14T10:26:51.081Z</time>
      </trkpt>
      <trkpt lat="45.55557" lon="6.90861">
        <ele>1767</ele>
        <time>2014-03-14T10:26:59.147Z</time>
      </trkpt>
      <trkpt lat="45.55556" lon="6.90862">
        <ele>1768</ele>
        <time>2014-03-14T10:27:00.242Z</time>
      </trkpt>
      <trkpt lat="45.55551" lon="6.9087">
        <ele>1769</ele>
        <time>2014-03-14T10:27:07.093Z</time>
      </trkpt>
      <trkpt lat="45.5555" lon="6.90871">
        <ele>1770</ele>
        <time>2014-03-14T10:27:08.098Z</time>
      </trkpt>
      <trkpt lat="45.55543" lon="6.9088">
        <ele>1771</ele>
        <time>2014-03-14T10:27:17.113Z</time>
      </trkpt>
      <trkpt lat="45.55543" lon="6.90881">
        <ele>1771</ele>
        <time>2014-03-14T10:27:18.190Z</time>
      </trkpt>
      <trkpt lat="45.5554" lon="6.90892">
        <ele>1772</ele>
        <time>2014-03-14T10:27:29.116Z</time>
      </trkpt>
      <trkpt lat="45.5554" lon="6.90893">
        <ele>1773</ele>
        <time>2014-03-14T10:27:30.178Z</time>
      </trkpt>
      <trkpt lat="45.55535" lon="6.90904">
        <ele>1774</ele>
        <time>2014-03-14T10:27:41.235Z</time>
      </trkpt>
      <trkpt lat="45.55535" lon="6.90904">
        <ele>1774</ele>
        <time>2014-03-14T10:27:42.165Z</time>
      </trkpt>
      <trkpt lat="45.55532" lon="6.90915">
        <ele>1775</ele>
        <time>2014-03-14T10:27:53.127Z</time>
      </trkpt>
      <trkpt lat="45.55532" lon="6.90917">
        <ele>1775</ele>
        <time>2014-03-14T10:27:54.119Z</time>
      </trkpt>
      <trkpt lat="45.5553" lon="6.90929">
        <ele>1782</ele>
        <time>2014-03-14T10:28:04.117Z</time>
      </trkpt>
      <trkpt lat="45.5553" lon="6.9093">
        <ele>1782</ele>
        <time>2014-03-14T10:28:05.105Z</time>
      </trkpt>
      <trkpt lat="45.55526" lon="6.9094">
        <ele>1782</ele>
        <time>2014-03-14T10:28:14.177Z</time>
      </trkpt>
      <trkpt lat="45.55525" lon="6.90941">
        <ele>1782</ele>
        <time>2014-03-14T10:28:15.115Z</time>
      </trkpt>
      <trkpt lat="45.55523" lon="6.90952">
        <ele>1782</ele>
        <time>2014-03-14T10:28:23.190Z</time>
      </trkpt>
      <trkpt lat="45.55523" lon="6.90954">
        <ele>1782</ele>
        <time>2014-03-14T10:28:24.168Z</time>
      </trkpt>
      <trkpt lat="45.55521" lon="6.90966">
        <ele>1782</ele>
        <time>2014-03-14T10:28:35.213Z</time>
      </trkpt>
      <trkpt lat="45.55521" lon="6.90967">
        <ele>1782</ele>
        <time>2014-03-14T10:28:36.115Z</time>
      </trkpt>
      <trkpt lat="45.5552" lon="6.9098">
        <ele>1781</ele>
        <time>2014-03-14T10:28:44.072Z</time>
      </trkpt>
      <trkpt lat="45.5552" lon="6.90981">
        <ele>1781</ele>
        <time>2014-03-14T10:28:45.079Z</time>
      </trkpt>
      <trkpt lat="45.55516" lon="6.90991">
        <ele>1781</ele>
        <time>2014-03-14T10:28:53.146Z</time>
      </trkpt>
      <trkpt lat="45.55516" lon="6.90992">
        <ele>1780</ele>
        <time>2014-03-14T10:28:54.174Z</time>
      </trkpt>
      <trkpt lat="45.55512" lon="6.91001">
        <ele>1783</ele>
        <time>2014-03-14T10:29:00.284Z</time>
      </trkpt>
      <trkpt lat="45.55512" lon="6.91004">
        <ele>1783</ele>
        <time>2014-03-14T10:29:01.126Z</time>
      </trkpt>
      <trkpt lat="45.55513" lon="6.91016">
        <ele>1786</ele>
        <time>2014-03-14T10:29:04.126Z</time>
      </trkpt>
      <trkpt lat="45.55513" lon="6.91018">
        <ele>1786</ele>
        <time>2014-03-14T10:29:05.127Z</time>
      </trkpt>
      <trkpt lat="45.55505" lon="6.91014">
        <ele>1784</ele>
        <time>2014-03-14T10:29:14.076Z</time>
      </trkpt>
      <trkpt lat="45.55504" lon="6.91014">
        <ele>1784</ele>
        <time>2014-03-14T10:29:15.074Z</time>
      </trkpt>
      <trkpt lat="45.55498" lon="6.91023">
        <ele>1787</ele>
        <time>2014-03-14T10:29:34.119Z</time>
      </trkpt>
      <trkpt lat="45.55498" lon="6.91024">
        <ele>1787</ele>
        <time>2014-03-14T10:29:35.119Z</time>
      </trkpt>
      <trkpt lat="45.55496" lon="6.91035">
        <ele>1789</ele>
        <time>2014-03-14T10:29:44.157Z</time>
      </trkpt>
      <trkpt lat="45.55496" lon="6.91037">
        <ele>1789</ele>
        <time>2014-03-14T10:29:45.132Z</time>
      </trkpt>
      <trkpt lat="45.55494" lon="6.9105">
        <ele>1789</ele>
        <time>2014-03-14T10:29:54.105Z</time>
      </trkpt>
      <trkpt lat="45.55494" lon="6.91051">
        <ele>1789</ele>
        <time>2014-03-14T10:29:55.115Z</time>
      </trkpt>
      <trkpt lat="45.55488" lon="6.9106">
        <ele>1789</ele>
        <time>2014-03-14T10:30:09.136Z</time>
      </trkpt>
      <trkpt lat="45.55488" lon="6.91061">
        <ele>1789</ele>
        <time>2014-03-14T10:30:10.187Z</time>
      </trkpt>
      <trkpt lat="45.55485" lon="6.91073">
        <ele>1788</ele>
        <time>2014-03-14T10:30:32.206Z</time>
      </trkpt>
      <trkpt lat="45.55485" lon="6.91074">
        <ele>1788</ele>
        <time>2014-03-14T10:30:33.191Z</time>
      </trkpt>
      <trkpt lat="45.55478" lon="6.91081">
        <ele>1789</ele>
        <time>2014-03-14T10:30:45.196Z</time>
      </trkpt>
      <trkpt lat="45.55477" lon="6.91081">
        <ele>1789</ele>
        <time>2014-03-14T10:30:46.226Z</time>
      </trkpt>
      <trkpt lat="45.55472" lon="6.91091">
        <ele>1791</ele>
        <time>2014-03-14T10:30:55.150Z</time>
      </trkpt>
      <trkpt lat="45.55471" lon="6.91094">
        <ele>1791</ele>
        <time>2014-03-14T10:30:56.207Z</time>
      </trkpt>
      <trkpt lat="45.55463" lon="6.91096">
        <ele>1792</ele>
        <time>2014-03-14T10:31:04.120Z</time>
      </trkpt>
      <trkpt lat="45.55462" lon="6.91096">
        <ele>1792</ele>
        <time>2014-03-14T10:31:05.190Z</time>
      </trkpt>
      <trkpt lat="45.55466" lon="6.91086">
        <ele>1792</ele>
        <time>2014-03-14T10:31:22.175Z</time>
      </trkpt>
      <trkpt lat="45.55467" lon="6.91079">
        <ele>1792</ele>
        <time>2014-03-14T10:31:23.195Z</time>
      </trkpt>
      <trkpt lat="45.55469" lon="6.91073">
        <ele>1791</ele>
        <time>2014-03-14T10:31:24.109Z</time>
      </trkpt>
      <trkpt lat="45.55472" lon="6.91068">
        <ele>1791</ele>
        <time>2014-03-14T10:31:25.170Z</time>
      </trkpt>
      <trkpt lat="45.55464" lon="6.91073">
        <ele>1792</ele>
        <time>2014-03-14T10:31:33.063Z</time>
      </trkpt>
      <trkpt lat="45.55462" lon="6.91076">
        <ele>1793</ele>
        <time>2014-03-14T10:31:34.064Z</time>
      </trkpt>
      <trkpt lat="45.55462" lon="6.91088">
        <ele>1792</ele>
        <time>2014-03-14T10:31:38.200Z</time>
      </trkpt>
      <trkpt lat="45.55463" lon="6.9109">
        <ele>1792</ele>
        <time>2014-03-14T10:31:39.091Z</time>
      </trkpt>
      <trkpt lat="45.55467" lon="6.91094">
        <ele>1792</ele>
        <time>2014-03-14T10:33:20.163Z</time>
      </trkpt>
      <trkpt lat="45.554" lon="6.91098">
        <ele>1807</ele>
        <time>2014-03-14T10:34:50.090Z</time>
      </trkpt>
      <trkpt lat="45.55433" lon="6.9108">
        <ele>1798</ele>
        <time>2014-03-14T10:34:51.118Z</time>
      </trkpt>
      <trkpt lat="45.55437" lon="6.91085">
        <ele>1796</ele>
        <time>2014-03-14T10:34:53.177Z</time>
      </trkpt>
      <trkpt lat="45.55441" lon="6.91073">
        <ele>1796</ele>
        <time>2014-03-14T10:34:54.086Z</time>
      </trkpt>
      <trkpt lat="45.55452" lon="6.91081">
        <ele>1795</ele>
        <time>2014-03-14T10:34:55.065Z</time>
      </trkpt>
      <trkpt lat="45.55451" lon="6.9109">
        <ele>1794</ele>
        <time>2014-03-14T10:34:57.118Z</time>
      </trkpt>
      <trkpt lat="45.55459" lon="6.91094">
        <ele>1793</ele>
        <time>2014-03-14T10:34:58.149Z</time>
      </trkpt>
      <trkpt lat="45.55467" lon="6.91097">
        <ele>1792</ele>
        <time>2014-03-14T10:35:49.136Z</time>
      </trkpt>
      <trkpt lat="45.55468" lon="6.91098">
        <ele>1792</ele>
        <time>2014-03-14T10:35:50.198Z</time>
      </trkpt>
      <trkpt lat="45.55464" lon="6.91109">
        <ele>1793</ele>
        <time>2014-03-14T10:36:01.132Z</time>
      </trkpt>
      <trkpt lat="45.55464" lon="6.9111">
        <ele>1793</ele>
        <time>2014-03-14T10:36:02.108Z</time>
      </trkpt>
      <trkpt lat="45.55457" lon="6.91119">
        <ele>1793</ele>
        <time>2014-03-14T10:36:18.061Z</time>
      </trkpt>
      <trkpt lat="45.55457" lon="6.91119">
        <ele>1793</ele>
        <time>2014-03-14T10:36:19.065Z</time>
      </trkpt>
      <trkpt lat="45.55451" lon="6.91129">
        <ele>1794</ele>
        <time>2014-03-14T10:36:28.118Z</time>
      </trkpt>
      <trkpt lat="45.5545" lon="6.9113">
        <ele>1794</ele>
        <time>2014-03-14T10:36:29.071Z</time>
      </trkpt>
      <trkpt lat="45.55444" lon="6.91138">
        <ele>1794</ele>
        <time>2014-03-14T10:36:42.158Z</time>
      </trkpt>
      <trkpt lat="45.55443" lon="6.91139">
        <ele>1794</ele>
        <time>2014-03-14T10:36:43.160Z</time>
      </trkpt>
      <trkpt lat="45.55437" lon="6.91148">
        <ele>1793</ele>
        <time>2014-03-14T10:36:51.174Z</time>
      </trkpt>
      <trkpt lat="45.55436" lon="6.91149">
        <ele>1793</ele>
        <time>2014-03-14T10:36:52.164Z</time>
      </trkpt>
      <trkpt lat="45.5543" lon="6.91157">
        <ele>1793</ele>
        <time>2014-03-14T10:37:00.240Z</time>
      </trkpt>
      <trkpt lat="45.55429" lon="6.91158">
        <ele>1793</ele>
        <time>2014-03-14T10:37:01.171Z</time>
      </trkpt>
      <trkpt lat="45.55422" lon="6.91166">
        <ele>1792</ele>
        <time>2014-03-14T10:37:14.084Z</time>
      </trkpt>
      <trkpt lat="45.55422" lon="6.91166">
        <ele>1792</ele>
        <time>2014-03-14T10:37:15.160Z</time>
      </trkpt>
      <trkpt lat="45.55416" lon="6.91172">
        <ele>1794</ele>
        <time>2014-03-14T10:37:28.322Z</time>
      </trkpt>
      <trkpt lat="45.55414" lon="6.91175">
        <ele>1795</ele>
        <time>2014-03-14T10:37:29.182Z</time>
      </trkpt>
      <trkpt lat="45.55408" lon="6.91185">
        <ele>1798</ele>
        <time>2014-03-14T10:37:36.192Z</time>
      </trkpt>
      <trkpt lat="45.55408" lon="6.91185">
        <ele>1798</ele>
        <time>2014-03-14T10:37:37.192Z</time>
      </trkpt>
      <trkpt lat="45.55401" lon="6.91193">
        <ele>1799</ele>
        <time>2014-03-14T10:37:56.108Z</time>
      </trkpt>
      <trkpt lat="45.554" lon="6.91193">
        <ele>1800</ele>
        <time>2014-03-14T10:37:57.203Z</time>
      </trkpt>
      <trkpt lat="45.55393" lon="6.912">
        <ele>1801</ele>
        <time>2014-03-14T10:38:07.083Z</time>
      </trkpt>
      <trkpt lat="45.55392" lon="6.91201">
        <ele>1801</ele>
        <time>2014-03-14T10:38:08.094Z</time>
      </trkpt>
      <trkpt lat="45.55387" lon="6.91211">
        <ele>1802</ele>
        <time>2014-03-14T10:38:14.061Z</time>
      </trkpt>
      <trkpt lat="45.55387" lon="6.91211">
        <ele>1802</ele>
        <time>2014-03-14T10:38:15.069Z</time>
      </trkpt>
      <trkpt lat="45.55381" lon="6.91221">
        <ele>1802</ele>
        <time>2014-03-14T10:38:27.088Z</time>
      </trkpt>
      <trkpt lat="45.55379" lon="6.91224">
        <ele>1802</ele>
        <time>2014-03-14T10:38:28.079Z</time>
      </trkpt>
      <trkpt lat="45.55371" lon="6.91229">
        <ele>1803</ele>
        <time>2014-03-14T10:38:35.198Z</time>
      </trkpt>
      <trkpt lat="45.5537" lon="6.91229">
        <ele>1803</ele>
        <time>2014-03-14T10:38:36.173Z</time>
      </trkpt>
      <trkpt lat="45.55363" lon="6.91236">
        <ele>1803</ele>
        <time>2014-03-14T10:38:43.059Z</time>
      </trkpt>
      <trkpt lat="45.55362" lon="6.91237">
        <ele>1804</ele>
        <time>2014-03-14T10:38:44.063Z</time>
      </trkpt>
      <trkpt lat="45.55354" lon="6.91243">
        <ele>1804</ele>
        <time>2014-03-14T10:39:01.153Z</time>
      </trkpt>
      <trkpt lat="45.55353" lon="6.91244">
        <ele>1804</ele>
        <time>2014-03-14T10:39:02.103Z</time>
      </trkpt>
      <trkpt lat="45.55347" lon="6.91253">
        <ele>1806</ele>
        <time>2014-03-14T10:39:18.119Z</time>
      </trkpt>
      <trkpt lat="45.55346" lon="6.91254">
        <ele>1806</ele>
        <time>2014-03-14T10:39:19.146Z</time>
      </trkpt>
      <trkpt lat="45.5534" lon="6.91263">
        <ele>1806</ele>
        <time>2014-03-14T10:39:24.167Z</time>
      </trkpt>
      <trkpt lat="45.55339" lon="6.91265">
        <ele>1806</ele>
        <time>2014-03-14T10:39:25.109Z</time>
      </trkpt>
      <trkpt lat="45.55332" lon="6.91272">
        <ele>1809</ele>
        <time>2014-03-14T10:39:30.162Z</time>
      </trkpt>
      <trkpt lat="45.55332" lon="6.91273">
        <ele>1810</ele>
        <time>2014-03-14T10:39:31.307Z</time>
      </trkpt>
      <trkpt lat="45.55325" lon="6.9128">
        <ele>1810</ele>
        <time>2014-03-14T10:39:40.148Z</time>
      </trkpt>
      <trkpt lat="45.55324" lon="6.91281">
        <ele>1810</ele>
        <time>2014-03-14T10:39:41.152Z</time>
      </trkpt>
      <trkpt lat="45.55318" lon="6.9129">
        <ele>1811</ele>
        <time>2014-03-14T10:39:49.085Z</time>
      </trkpt>
      <trkpt lat="45.55317" lon="6.91291">
        <ele>1811</ele>
        <time>2014-03-14T10:39:50.118Z</time>
      </trkpt>
      <trkpt lat="45.55311" lon="6.91301">
        <ele>1811</ele>
        <time>2014-03-14T10:40:03.098Z</time>
      </trkpt>
      <trkpt lat="45.55311" lon="6.91301">
        <ele>1811</ele>
        <time>2014-03-14T10:40:04.150Z</time>
      </trkpt>
      <trkpt lat="45.55305" lon="6.91309">
        <ele>1811</ele>
        <time>2014-03-14T10:40:16.148Z</time>
      </trkpt>
      <trkpt lat="45.55304" lon="6.91311">
        <ele>1811</ele>
        <time>2014-03-14T10:40:17.084Z</time>
      </trkpt>
      <trkpt lat="45.55299" lon="6.9132">
        <ele>1811</ele>
        <time>2014-03-14T10:40:32.084Z</time>
      </trkpt>
      <trkpt lat="45.55297" lon="6.91321">
        <ele>1812</ele>
        <time>2014-03-14T10:40:33.267Z</time>
      </trkpt>
      <trkpt lat="45.5529" lon="6.91324">
        <ele>1812</ele>
        <time>2014-03-14T10:40:37.128Z</time>
      </trkpt>
      <trkpt lat="45.55288" lon="6.91325">
        <ele>1813</ele>
        <time>2014-03-14T10:40:38.134Z</time>
      </trkpt>
      <trkpt lat="45.55279" lon="6.91329">
        <ele>1813</ele>
        <time>2014-03-14T10:40:49.129Z</time>
      </trkpt>
      <trkpt lat="45.55279" lon="6.91329">
        <ele>1813</ele>
        <time>2014-03-14T10:40:50.141Z</time>
      </trkpt>
      <trkpt lat="45.55272" lon="6.91335">
        <ele>1814</ele>
        <time>2014-03-14T10:41:04.154Z</time>
      </trkpt>
      <trkpt lat="45.55271" lon="6.91335">
        <ele>1814</ele>
        <time>2014-03-14T10:41:05.118Z</time>
      </trkpt>
      <trkpt lat="45.55264" lon="6.9134">
        <ele>1815</ele>
        <time>2014-03-14T10:41:14.056Z</time>
      </trkpt>
      <trkpt lat="45.55263" lon="6.91341">
        <ele>1815</ele>
        <time>2014-03-14T10:41:15.082Z</time>
      </trkpt>
      <trkpt lat="45.55257" lon="6.91349">
        <ele>1815</ele>
        <time>2014-03-14T10:41:42.143Z</time>
      </trkpt>
      <trkpt lat="45.55257" lon="6.91352">
        <ele>1815</ele>
        <time>2014-03-14T10:41:43.156Z</time>
      </trkpt>
      <trkpt lat="45.55254" lon="6.91363">
        <ele>1814</ele>
        <time>2014-03-14T10:41:48.080Z</time>
      </trkpt>
      <trkpt lat="45.55253" lon="6.91366">
        <ele>1814</ele>
        <time>2014-03-14T10:41:49.083Z</time>
      </trkpt>
      <trkpt lat="45.5525" lon="6.91377">
        <ele>1814</ele>
        <time>2014-03-14T10:41:53.083Z</time>
      </trkpt>
      <trkpt lat="45.5525" lon="6.9138">
        <ele>1819</ele>
        <time>2014-03-14T10:41:54.082Z</time>
      </trkpt>
      <trkpt lat="45.55247" lon="6.91392">
        <ele>1819</ele>
        <time>2014-03-14T10:42:00.159Z</time>
      </trkpt>
      <trkpt lat="45.55247" lon="6.91394">
        <ele>1819</ele>
        <time>2014-03-14T10:42:01.221Z</time>
      </trkpt>
      <trkpt lat="45.55245" lon="6.91405">
        <ele>1819</ele>
        <time>2014-03-14T10:42:07.238Z</time>
      </trkpt>
      <trkpt lat="45.55245" lon="6.91407">
        <ele>1819</ele>
        <time>2014-03-14T10:42:08.174Z</time>
      </trkpt>
      <trkpt lat="45.5525" lon="6.91417">
        <ele>1819</ele>
        <time>2014-03-14T10:42:16.103Z</time>
      </trkpt>
      <trkpt lat="45.55251" lon="6.91418">
        <ele>1819</ele>
        <time>2014-03-14T10:42:17.114Z</time>
      </trkpt>
      <trkpt lat="45.55253" lon="6.9143">
        <ele>1819</ele>
        <time>2014-03-14T10:42:29.111Z</time>
      </trkpt>
      <trkpt lat="45.55253" lon="6.9143">
        <ele>1819</ele>
        <time>2014-03-14T10:42:30.054Z</time>
      </trkpt>
      <trkpt lat="45.55249" lon="6.9144">
        <ele>1826</ele>
        <time>2014-03-14T10:42:42.167Z</time>
      </trkpt>
      <trkpt lat="45.55248" lon="6.91442">
        <ele>1827</ele>
        <time>2014-03-14T10:42:43.226Z</time>
      </trkpt>
      <trkpt lat="45.55247" lon="6.91454">
        <ele>1828</ele>
        <time>2014-03-14T10:42:47.123Z</time>
      </trkpt>
      <trkpt lat="45.55246" lon="6.91456">
        <ele>1829</ele>
        <time>2014-03-14T10:42:48.146Z</time>
      </trkpt>
      <trkpt lat="45.55251" lon="6.91446">
        <ele>1819</ele>
        <time>2014-03-14T10:43:00.176Z</time>
      </trkpt>
      <trkpt lat="45.55252" lon="6.91446">
        <ele>1819</ele>
        <time>2014-03-14T10:43:01.126Z</time>
      </trkpt>
      <trkpt lat="45.55258" lon="6.91454">
        <ele>1819</ele>
        <time>2014-03-14T10:43:09.164Z</time>
      </trkpt>
      <trkpt lat="45.55258" lon="6.91457">
        <ele>1819</ele>
        <time>2014-03-14T10:43:10.246Z</time>
      </trkpt>
      <trkpt lat="45.55256" lon="6.91468">
        <ele>1820</ele>
        <time>2014-03-14T10:43:16.150Z</time>
      </trkpt>
      <trkpt lat="45.55256" lon="6.9147">
        <ele>1820</ele>
        <time>2014-03-14T10:43:17.179Z</time>
      </trkpt>
      <trkpt lat="45.55253" lon="6.9148">
        <ele>1822</ele>
        <time>2014-03-14T10:43:23.150Z</time>
      </trkpt>
      <trkpt lat="45.55253" lon="6.91482">
        <ele>1822</ele>
        <time>2014-03-14T10:43:24.169Z</time>
      </trkpt>
      <trkpt lat="45.55256" lon="6.91494">
        <ele>1824</ele>
        <time>2014-03-14T10:43:38.169Z</time>
      </trkpt>
      <trkpt lat="45.55255" lon="6.91495">
        <ele>1824</ele>
        <time>2014-03-14T10:43:39.181Z</time>
      </trkpt>
      <trkpt lat="45.55251" lon="6.91506">
        <ele>1826</ele>
        <time>2014-03-14T10:43:44.130Z</time>
      </trkpt>
      <trkpt lat="45.55251" lon="6.91508">
        <ele>1826</ele>
        <time>2014-03-14T10:43:45.080Z</time>
      </trkpt>
      <trkpt lat="45.55252" lon="6.91519">
        <ele>1826</ele>
        <time>2014-03-14T10:43:52.102Z</time>
      </trkpt>
      <trkpt lat="45.55252" lon="6.91522">
        <ele>1826</ele>
        <time>2014-03-14T10:43:53.181Z</time>
      </trkpt>
      <trkpt lat="45.55249" lon="6.91534">
        <ele>1837</ele>
        <time>2014-03-14T10:44:01.054Z</time>
      </trkpt>
      <trkpt lat="45.55249" lon="6.91535">
        <ele>1837</ele>
        <time>2014-03-14T10:44:02.181Z</time>
      </trkpt>
      <trkpt lat="45.55245" lon="6.91545">
        <ele>1838</ele>
        <time>2014-03-14T10:44:08.278Z</time>
      </trkpt>
      <trkpt lat="45.55244" lon="6.91547">
        <ele>1838</ele>
        <time>2014-03-14T10:44:09.109Z</time>
      </trkpt>
      <trkpt lat="45.55244" lon="6.91559">
        <ele>1837</ele>
        <time>2014-03-14T10:44:19.190Z</time>
      </trkpt>
      <trkpt lat="45.55243" lon="6.91561">
        <ele>1837</ele>
        <time>2014-03-14T10:44:20.164Z</time>
      </trkpt>
      <trkpt lat="45.55241" lon="6.91573">
        <ele>1836</ele>
        <time>2014-03-14T10:44:30.161Z</time>
      </trkpt>
      <trkpt lat="45.5524" lon="6.91575">
        <ele>1836</ele>
        <time>2014-03-14T10:44:31.122Z</time>
      </trkpt>
      <trkpt lat="45.5524" lon="6.91588">
        <ele>1835</ele>
        <time>2014-03-14T10:44:44.056Z</time>
      </trkpt>
      <trkpt lat="45.5524" lon="6.91589">
        <ele>1836</ele>
        <time>2014-03-14T10:44:45.113Z</time>
      </trkpt>
      <trkpt lat="45.55237" lon="6.916">
        <ele>1838</ele>
        <time>2014-03-14T10:44:49.102Z</time>
      </trkpt>
      <trkpt lat="45.55236" lon="6.91603">
        <ele>1839</ele>
        <time>2014-03-14T10:44:50.101Z</time>
      </trkpt>
      <trkpt lat="45.5524" lon="6.91613">
        <ele>1839</ele>
        <time>2014-03-14T10:45:20.101Z</time>
      </trkpt>
      <trkpt lat="45.5524" lon="6.91616">
        <ele>1839</ele>
        <time>2014-03-14T10:45:21.166Z</time>
      </trkpt>
      <trkpt lat="45.55238" lon="6.91625">
        <ele>1839</ele>
        <time>2014-03-14T10:45:25.057Z</time>
      </trkpt>
      <trkpt lat="45.55237" lon="6.91628">
        <ele>1839</ele>
        <time>2014-03-14T10:45:26.177Z</time>
      </trkpt>
      <trkpt lat="45.55236" lon="6.91639">
        <ele>1839</ele>
        <time>2014-03-14T10:45:30.127Z</time>
      </trkpt>
      <trkpt lat="45.55236" lon="6.91641">
        <ele>1839</ele>
        <time>2014-03-14T10:45:31.114Z</time>
      </trkpt>
      <trkpt lat="45.55234" lon="6.91652">
        <ele>1838</ele>
        <time>2014-03-14T10:45:36.079Z</time>
      </trkpt>
      <trkpt lat="45.55234" lon="6.91654">
        <ele>1838</ele>
        <time>2014-03-14T10:45:37.055Z</time>
      </trkpt>
      <trkpt lat="45.55232" lon="6.91664">
        <ele>1837</ele>
        <time>2014-03-14T10:45:41.204Z</time>
      </trkpt>
      <trkpt lat="45.55231" lon="6.91666">
        <ele>1838</ele>
        <time>2014-03-14T10:45:42.125Z</time>
      </trkpt>
      <trkpt lat="45.5523" lon="6.91679">
        <ele>1839</ele>
        <time>2014-03-14T10:45:49.100Z</time>
      </trkpt>
      <trkpt lat="45.5523" lon="6.9168">
        <ele>1839</ele>
        <time>2014-03-14T10:45:50.100Z</time>
      </trkpt>
      <trkpt lat="45.55232" lon="6.91691">
        <ele>1840</ele>
        <time>2014-03-14T10:45:56.092Z</time>
      </trkpt>
      <trkpt lat="45.55233" lon="6.91693">
        <ele>1840</ele>
        <time>2014-03-14T10:45:57.115Z</time>
      </trkpt>
      <trkpt lat="45.55239" lon="6.91702">
        <ele>1840</ele>
        <time>2014-03-14T10:46:04.200Z</time>
      </trkpt>
      <trkpt lat="45.55239" lon="6.91704">
        <ele>1841</ele>
        <time>2014-03-14T10:46:05.193Z</time>
      </trkpt>
      <trkpt lat="45.55239" lon="6.91715">
        <ele>1841</ele>
        <time>2014-03-14T10:46:12.149Z</time>
      </trkpt>
      <trkpt lat="45.55239" lon="6.91717">
        <ele>1841</ele>
        <time>2014-03-14T10:46:13.193Z</time>
      </trkpt>
      <trkpt lat="45.55241" lon="6.91728">
        <ele>1842</ele>
        <time>2014-03-14T10:46:22.258Z</time>
      </trkpt>
      <trkpt lat="45.55241" lon="6.91729">
        <ele>1842</ele>
        <time>2014-03-14T10:46:23.131Z</time>
      </trkpt>
      <trkpt lat="45.55241" lon="6.91741">
        <ele>1842</ele>
        <time>2014-03-14T10:46:32.202Z</time>
      </trkpt>
      <trkpt lat="45.55241" lon="6.91744">
        <ele>1842</ele>
        <time>2014-03-14T10:46:33.078Z</time>
      </trkpt>
      <trkpt lat="45.55241" lon="6.91756">
        <ele>1846</ele>
        <time>2014-03-14T10:46:39.129Z</time>
      </trkpt>
      <trkpt lat="45.55244" lon="6.91757">
        <ele>1846</ele>
        <time>2014-03-14T10:46:40.251Z</time>
      </trkpt>
      <trkpt lat="45.55252" lon="6.91756">
        <ele>1845</ele>
        <time>2014-03-14T10:46:43.153Z</time>
      </trkpt>
      <trkpt lat="45.55254" lon="6.91754">
        <ele>1845</ele>
        <time>2014-03-14T10:46:44.155Z</time>
      </trkpt>
      <trkpt lat="45.55261" lon="6.91749">
        <ele>1842</ele>
        <time>2014-03-14T10:46:47.084Z</time>
      </trkpt>
      <trkpt lat="45.55263" lon="6.91748">
        <ele>1843</ele>
        <time>2014-03-14T10:46:48.110Z</time>
      </trkpt>
      <trkpt lat="45.5527" lon="6.91756">
        <ele>1852</ele>
        <time>2014-03-14T10:46:53.273Z</time>
      </trkpt>
      <trkpt lat="45.5527" lon="6.91758">
        <ele>1852</ele>
        <time>2014-03-14T10:46:54.168Z</time>
      </trkpt>
      <trkpt lat="45.55279" lon="6.91757">
        <ele>1854</ele>
        <time>2014-03-14T10:47:32.112Z</time>
      </trkpt>
      <trkpt lat="45.55281" lon="6.9176">
        <ele>1855</ele>
        <time>2014-03-14T10:47:33.116Z</time>
      </trkpt>
      <trkpt lat="45.55287" lon="6.91766">
        <ele>1857</ele>
        <time>2014-03-14T10:47:35.075Z</time>
      </trkpt>
      <trkpt lat="45.55291" lon="6.91768">
        <ele>1857</ele>
        <time>2014-03-14T10:47:36.053Z</time>
      </trkpt>
      <trkpt lat="45.55298" lon="6.91774">
        <ele>1859</ele>
        <time>2014-03-14T10:47:38.109Z</time>
      </trkpt>
      <trkpt lat="45.55301" lon="6.91775">
        <ele>1859</ele>
        <time>2014-03-14T10:47:39.084Z</time>
      </trkpt>
      <trkpt lat="45.553" lon="6.91786">
        <ele>1860</ele>
        <time>2014-03-14T10:47:52.097Z</time>
      </trkpt>
      <trkpt lat="45.55299" lon="6.91788">
        <ele>1860</ele>
        <time>2014-03-14T10:47:53.076Z</time>
      </trkpt>
      <trkpt lat="45.55294" lon="6.91796">
        <ele>1861</ele>
        <time>2014-03-14T10:48:04.056Z</time>
      </trkpt>
      <trkpt lat="45.55293" lon="6.91798">
        <ele>1861</ele>
        <time>2014-03-14T10:48:05.062Z</time>
      </trkpt>
      <trkpt lat="45.55297" lon="6.91808">
        <ele>1863</ele>
        <time>2014-03-14T10:48:48.073Z</time>
      </trkpt>
      <trkpt lat="45.55299" lon="6.91809">
        <ele>1863</ele>
        <time>2014-03-14T10:48:49.110Z</time>
      </trkpt>
      <trkpt lat="45.55302" lon="6.91819">
        <ele>1864</ele>
        <time>2014-03-14T10:48:56.070Z</time>
      </trkpt>
      <trkpt lat="45.55302" lon="6.91821">
        <ele>1864</ele>
        <time>2014-03-14T10:48:57.094Z</time>
      </trkpt>
      <trkpt lat="45.55306" lon="6.91831">
        <ele>1866</ele>
        <time>2014-03-14T10:49:06.112Z</time>
      </trkpt>
      <trkpt lat="45.55305" lon="6.91833">
        <ele>1866</ele>
        <time>2014-03-14T10:49:07.092Z</time>
      </trkpt>
      <trkpt lat="45.55306" lon="6.91845">
        <ele>1876</ele>
        <time>2014-03-14T10:49:17.072Z</time>
      </trkpt>
      <trkpt lat="45.55306" lon="6.91846">
        <ele>1876</ele>
        <time>2014-03-14T10:49:18.114Z</time>
      </trkpt>
      <trkpt lat="45.55312" lon="6.91854">
        <ele>1877</ele>
        <time>2014-03-14T10:49:37.072Z</time>
      </trkpt>
      <trkpt lat="45.55313" lon="6.91854">
        <ele>1877</ele>
        <time>2014-03-14T10:49:38.119Z</time>
      </trkpt>
      <trkpt lat="45.55312" lon="6.91867">
        <ele>1878</ele>
        <time>2014-03-14T10:49:55.074Z</time>
      </trkpt>
      <trkpt lat="45.55312" lon="6.91867">
        <ele>1878</ele>
        <time>2014-03-14T10:49:56.067Z</time>
      </trkpt>
      <trkpt lat="45.55316" lon="6.91877">
        <ele>1879</ele>
        <time>2014-03-14T10:50:43.219Z</time>
      </trkpt>
      <trkpt lat="45.55316" lon="6.91878">
        <ele>1879</ele>
        <time>2014-03-14T10:50:44.224Z</time>
      </trkpt>
      <trkpt lat="45.55319" lon="6.91888">
        <ele>1879</ele>
        <time>2014-03-14T10:50:49.179Z</time>
      </trkpt>
      <trkpt lat="45.55319" lon="6.91892">
        <ele>1880</ele>
        <time>2014-03-14T10:50:50.098Z</time>
      </trkpt>
      <trkpt lat="45.55322" lon="6.91904">
        <ele>1881</ele>
        <time>2014-03-14T10:50:56.056Z</time>
      </trkpt>
      <trkpt lat="45.55322" lon="6.91907">
        <ele>1881</ele>
        <time>2014-03-14T10:50:57.070Z</time>
      </trkpt>
      <trkpt lat="45.55321" lon="6.91917">
        <ele>1881</ele>
        <time>2014-03-14T10:51:03.069Z</time>
      </trkpt>
      <trkpt lat="45.5532" lon="6.91921">
        <ele>1885</ele>
        <time>2014-03-14T10:51:04.136Z</time>
      </trkpt>
      <trkpt lat="45.55321" lon="6.91932">
        <ele>1886</ele>
        <time>2014-03-14T10:51:07.102Z</time>
      </trkpt>
      <trkpt lat="45.55321" lon="6.91938">
        <ele>1886</ele>
        <time>2014-03-14T10:51:08.071Z</time>
      </trkpt>
      <trkpt lat="45.55317" lon="6.91934">
        <ele>1886</ele>
        <time>2014-03-14T10:51:13.110Z</time>
      </trkpt>
      <trkpt lat="45.55312" lon="6.91932">
        <ele>1887</ele>
        <time>2014-03-14T10:51:14.048Z</time>
      </trkpt>
      <trkpt lat="45.55305" lon="6.91937">
        <ele>1888</ele>
        <time>2014-03-14T10:51:15.176Z</time>
      </trkpt>
      <trkpt lat="45.55303" lon="6.91939">
        <ele>1888</ele>
        <time>2014-03-14T10:51:16.069Z</time>
      </trkpt>
      <trkpt lat="45.55311" lon="6.91934">
        <ele>1887</ele>
        <time>2014-03-14T10:51:27.070Z</time>
      </trkpt>
      <trkpt lat="45.55313" lon="6.91934">
        <ele>1887</ele>
        <time>2014-03-14T10:51:28.214Z</time>
      </trkpt>
      <trkpt lat="45.55317" lon="6.91944">
        <ele>1887</ele>
        <time>2014-03-14T10:51:31.048Z</time>
      </trkpt>
      <trkpt lat="45.55318" lon="6.91944">
        <ele>1887</ele>
        <time>2014-03-14T10:51:32.208Z</time>
      </trkpt>
      <trkpt lat="45.55324" lon="6.91953">
        <ele>1887</ele>
        <time>2014-03-14T10:51:39.105Z</time>
      </trkpt>
      <trkpt lat="45.55325" lon="6.91954">
        <ele>1887</ele>
        <time>2014-03-14T10:51:40.076Z</time>
      </trkpt>
      <trkpt lat="45.55319" lon="6.91963">
        <ele>1887</ele>
        <time>2014-03-14T10:51:47.159Z</time>
      </trkpt>
      <trkpt lat="45.55317" lon="6.91965">
        <ele>1887</ele>
        <time>2014-03-14T10:51:48.119Z</time>
      </trkpt>
      <trkpt lat="45.55321" lon="6.91975">
        <ele>1886</ele>
        <time>2014-03-14T10:52:01.186Z</time>
      </trkpt>
      <trkpt lat="45.55322" lon="6.91976">
        <ele>1886</ele>
        <time>2014-03-14T10:52:02.119Z</time>
      </trkpt>
      <trkpt lat="45.5533" lon="6.91983">
        <ele>1885</ele>
        <time>2014-03-14T10:52:13.170Z</time>
      </trkpt>
      <trkpt lat="45.55329" lon="6.91985">
        <ele>1885</ele>
        <time>2014-03-14T10:52:14.138Z</time>
      </trkpt>
      <trkpt lat="45.55328" lon="6.91995">
        <ele>1883</ele>
        <time>2014-03-14T10:52:20.074Z</time>
      </trkpt>
      <trkpt lat="45.55328" lon="6.91997">
        <ele>1882</ele>
        <time>2014-03-14T10:52:21.076Z</time>
      </trkpt>
      <trkpt lat="45.55329" lon="6.9201">
        <ele>1884</ele>
        <time>2014-03-14T10:52:29.103Z</time>
      </trkpt>
      <trkpt lat="45.5533" lon="6.92011">
        <ele>1884</ele>
        <time>2014-03-14T10:52:30.238Z</time>
      </trkpt>
      <trkpt lat="45.55337" lon="6.92013">
        <ele>1878</ele>
        <time>2014-03-14T10:52:55.139Z</time>
      </trkpt>
      <trkpt lat="45.55339" lon="6.92013">
        <ele>1878</ele>
        <time>2014-03-14T10:52:56.222Z</time>
      </trkpt>
      <trkpt lat="45.55331" lon="6.92018">
        <ele>1885</ele>
        <time>2014-03-14T10:53:05.075Z</time>
      </trkpt>
      <trkpt lat="45.5533" lon="6.92019">
        <ele>1885</ele>
        <time>2014-03-14T10:53:06.072Z</time>
      </trkpt>
      <trkpt lat="45.55333" lon="6.9203">
        <ele>1886</ele>
        <time>2014-03-14T10:53:11.068Z</time>
      </trkpt>
      <trkpt lat="45.55334" lon="6.92031">
        <ele>1878</ele>
        <time>2014-03-14T10:53:12.145Z</time>
      </trkpt>
      <trkpt lat="45.55339" lon="6.92041">
        <ele>1877</ele>
        <time>2014-03-14T10:53:19.068Z</time>
      </trkpt>
      <trkpt lat="45.5534" lon="6.92041">
        <ele>1877</ele>
        <time>2014-03-14T10:53:20.064Z</time>
      </trkpt>
      <trkpt lat="45.55341" lon="6.92053">
        <ele>1877</ele>
        <time>2014-03-14T10:53:30.067Z</time>
      </trkpt>
      <trkpt lat="45.55341" lon="6.92054">
        <ele>1877</ele>
        <time>2014-03-14T10:53:31.113Z</time>
      </trkpt>
      <trkpt lat="45.55342" lon="6.92066">
        <ele>1877</ele>
        <time>2014-03-14T10:53:43.091Z</time>
      </trkpt>
      <trkpt lat="45.55342" lon="6.92067">
        <ele>1877</ele>
        <time>2014-03-14T10:53:44.065Z</time>
      </trkpt>
      <trkpt lat="45.55348" lon="6.92077">
        <ele>1877</ele>
        <time>2014-03-14T10:53:53.067Z</time>
      </trkpt>
      <trkpt lat="45.55349" lon="6.92078">
        <ele>1877</ele>
        <time>2014-03-14T10:53:54.215Z</time>
      </trkpt>
      <trkpt lat="45.55352" lon="6.92089">
        <ele>1877</ele>
        <time>2014-03-14T10:54:53.086Z</time>
      </trkpt>
      <trkpt lat="45.55353" lon="6.9209">
        <ele>1877</ele>
        <time>2014-03-14T10:54:54.183Z</time>
      </trkpt>
      <trkpt lat="45.5536" lon="6.92096">
        <ele>1877</ele>
        <time>2014-03-14T10:55:06.073Z</time>
      </trkpt>
      <trkpt lat="45.55361" lon="6.92099">
        <ele>1877</ele>
        <time>2014-03-14T10:55:07.046Z</time>
      </trkpt>
      <trkpt lat="45.55363" lon="6.92107">
        <ele>1877</ele>
        <time>2014-03-14T10:55:09.044Z</time>
      </trkpt>
      <trkpt lat="45.55363" lon="6.92113">
        <ele>1877</ele>
        <time>2014-03-14T10:55:10.042Z</time>
      </trkpt>
      <trkpt lat="45.55368" lon="6.92122">
        <ele>1877</ele>
        <time>2014-03-14T10:55:18.137Z</time>
      </trkpt>
      <trkpt lat="45.5537" lon="6.92122">
        <ele>1877</ele>
        <time>2014-03-14T10:55:19.065Z</time>
      </trkpt>
      <trkpt lat="45.55378" lon="6.92122">
        <ele>1877</ele>
        <time>2014-03-14T10:55:23.131Z</time>
      </trkpt>
      <trkpt lat="45.5538" lon="6.92122">
        <ele>1877</ele>
        <time>2014-03-14T10:55:24.214Z</time>
      </trkpt>
      <trkpt lat="45.55387" lon="6.92124">
        <ele>1877</ele>
        <time>2014-03-14T10:55:28.115Z</time>
      </trkpt>
      <trkpt lat="45.55389" lon="6.92125">
        <ele>1877</ele>
        <time>2014-03-14T10:55:29.161Z</time>
      </trkpt>
      <trkpt lat="45.55397" lon="6.92128">
        <ele>1877</ele>
        <time>2014-03-14T10:55:35.065Z</time>
      </trkpt>
      <trkpt lat="45.55398" lon="6.92129">
        <ele>1877</ele>
        <time>2014-03-14T10:55:36.194Z</time>
      </trkpt>
      <trkpt lat="45.55405" lon="6.92137">
        <ele>1877</ele>
        <time>2014-03-14T10:55:45.064Z</time>
      </trkpt>
      <trkpt lat="45.55406" lon="6.92138">
        <ele>1877</ele>
        <time>2014-03-14T10:55:46.043Z</time>
      </trkpt>
      <trkpt lat="45.55409" lon="6.9215">
        <ele>1877</ele>
        <time>2014-03-14T10:55:52.061Z</time>
      </trkpt>
      <trkpt lat="45.5541" lon="6.92152">
        <ele>1877</ele>
        <time>2014-03-14T10:55:53.084Z</time>
      </trkpt>
      <trkpt lat="45.55412" lon="6.92164">
        <ele>1876</ele>
        <time>2014-03-14T10:55:59.065Z</time>
      </trkpt>
      <trkpt lat="45.55413" lon="6.92164">
        <ele>1876</ele>
        <time>2014-03-14T10:56:00.246Z</time>
      </trkpt>
      <trkpt lat="45.5542" lon="6.92164">
        <ele>1875</ele>
        <time>2014-03-14T10:56:05.063Z</time>
      </trkpt>
      <trkpt lat="45.55423" lon="6.92164">
        <ele>1875</ele>
        <time>2014-03-14T10:56:06.063Z</time>
      </trkpt>
      <trkpt lat="45.55431" lon="6.92166">
        <ele>1874</ele>
        <time>2014-03-14T10:56:14.057Z</time>
      </trkpt>
      <trkpt lat="45.55433" lon="6.92164">
        <ele>1874</ele>
        <time>2014-03-14T10:56:15.062Z</time>
      </trkpt>
      <trkpt lat="45.5544" lon="6.92158">
        <ele>1874</ele>
        <time>2014-03-14T10:56:20.060Z</time>
      </trkpt>
      <trkpt lat="45.55442" lon="6.92156">
        <ele>1874</ele>
        <time>2014-03-14T10:56:21.149Z</time>
      </trkpt>
      <trkpt lat="45.55451" lon="6.92155">
        <ele>1873</ele>
        <time>2014-03-14T10:56:29.094Z</time>
      </trkpt>
      <trkpt lat="45.55451" lon="6.92156">
        <ele>1873</ele>
        <time>2014-03-14T10:56:30.048Z</time>
      </trkpt>
      <trkpt lat="45.55456" lon="6.92166">
        <ele>1873</ele>
        <time>2014-03-14T10:56:35.044Z</time>
      </trkpt>
      <trkpt lat="45.55457" lon="6.92169">
        <ele>1876</ele>
        <time>2014-03-14T10:56:36.046Z</time>
      </trkpt>
      <trkpt lat="45.5546" lon="6.92178">
        <ele>1876</ele>
        <time>2014-03-14T10:56:38.042Z</time>
      </trkpt>
      <trkpt lat="45.5546" lon="6.92181">
        <ele>1876</ele>
        <time>2014-03-14T10:56:39.046Z</time>
      </trkpt>
      <trkpt lat="45.55451" lon="6.92183">
        <ele>1877</ele>
        <time>2014-03-14T10:56:51.068Z</time>
      </trkpt>
      <trkpt lat="45.55451" lon="6.92182">
        <ele>1877</ele>
        <time>2014-03-14T10:56:52.106Z</time>
      </trkpt>
      <trkpt lat="45.55453" lon="6.92193">
        <ele>1877</ele>
        <time>2014-03-14T10:57:41.135Z</time>
      </trkpt>
      <trkpt lat="45.55454" lon="6.92196">
        <ele>1877</ele>
        <time>2014-03-14T10:57:42.206Z</time>
      </trkpt>
      <trkpt lat="45.55461" lon="6.92204">
        <ele>1877</ele>
        <time>2014-03-14T10:57:45.119Z</time>
      </trkpt>
      <trkpt lat="45.55463" lon="6.92208">
        <ele>1877</ele>
        <time>2014-03-14T10:57:46.125Z</time>
      </trkpt>
      <trkpt lat="45.55467" lon="6.92211">
        <ele>1877</ele>
        <time>2014-03-14T10:57:47.204Z</time>
      </trkpt>
      <trkpt lat="45.55472" lon="6.92212">
        <ele>1877</ele>
        <time>2014-03-14T10:57:48.070Z</time>
      </trkpt>
      <trkpt lat="45.55479" lon="6.92213">
        <ele>1878</ele>
        <time>2014-03-14T10:57:49.115Z</time>
      </trkpt>
      <trkpt lat="45.55486" lon="6.92213">
        <ele>1878</ele>
        <time>2014-03-14T10:57:50.110Z</time>
      </trkpt>
      <trkpt lat="45.55493" lon="6.92214">
        <ele>1878</ele>
        <time>2014-03-14T10:57:51.225Z</time>
      </trkpt>
      <trkpt lat="45.55498" lon="6.92215">
        <ele>1878</ele>
        <time>2014-03-14T10:57:52.167Z</time>
      </trkpt>
      <trkpt lat="45.55506" lon="6.92215">
        <ele>1882</ele>
        <time>2014-03-14T10:57:54.122Z</time>
      </trkpt>
      <trkpt lat="45.55509" lon="6.92213">
        <ele>1882</ele>
        <time>2014-03-14T10:57:55.093Z</time>
      </trkpt>
      <trkpt lat="45.55505" lon="6.92218">
        <ele>1882</ele>
        <time>2014-03-14T10:58:18.044Z</time>
      </trkpt>
    </trkseg>
  </trk>
</gpx>